<?xml version="1.0" encoding="UTF-8" standalone="no" ?>
<gpx xmlns="http://www.topografix.com/GPX/1/1" xmlns:xsi="http://www.w3.org/2001/XMLSchema-instance" xsi:schemaLocation="http://www.topografix.com/GPX/1/1 http://www.topografix.com/GPX/1/1/gpx.xsd" version="1.1" creator="VisuGPX - https://www.visugpx.com">
  <metadata>
    <name>FONTAINEBLEAU - FRANCHARD</name>
    <desc><![CDATA[randonnée du 26/05/2015 autour de Franchard]]></desc>
  </metadata>
  <trk>
    <name><![CDATA[Forêt de Fontainebleau Francharr]]></name>
    <desc><![CDATA[]]></desc>
    <trkseg>
      <trkpt lat="48.40853" lon="2.67894">
        <ele>149</ele>
        <time>2015-05-26T07:16:03.071Z</time>
      </trkpt>
      <trkpt lat="48.40854" lon="2.67903">
        <ele>161</ele>
        <time>2015-05-26T07:16:10.627Z</time>
      </trkpt>
      <trkpt lat="48.40849" lon="2.67907">
        <ele>155</ele>
        <time>2015-05-26T07:16:11.323Z</time>
      </trkpt>
      <trkpt lat="48.40842" lon="2.67904">
        <ele>149</ele>
        <time>2015-05-26T07:17:04.339Z</time>
      </trkpt>
      <trkpt lat="48.4084" lon="2.67903">
        <ele>150</ele>
        <time>2015-05-26T07:17:05.330Z</time>
      </trkpt>
      <trkpt lat="48.40842" lon="2.67915">
        <ele>137</ele>
        <time>2015-05-26T07:17:47.334Z</time>
      </trkpt>
      <trkpt lat="48.40842" lon="2.67917">
        <ele>137</ele>
        <time>2015-05-26T07:17:48.323Z</time>
      </trkpt>
      <trkpt lat="48.40849" lon="2.67924">
        <ele>134</ele>
        <time>2015-05-26T07:17:58.336Z</time>
      </trkpt>
      <trkpt lat="48.40851" lon="2.67924">
        <ele>134</ele>
        <time>2015-05-26T07:17:59.346Z</time>
      </trkpt>
      <trkpt lat="48.40858" lon="2.67925">
        <ele>134</ele>
        <time>2015-05-26T07:18:04.340Z</time>
      </trkpt>
      <trkpt lat="48.4086" lon="2.67925">
        <ele>133</ele>
        <time>2015-05-26T07:18:05.333Z</time>
      </trkpt>
      <trkpt lat="48.40868" lon="2.67928">
        <ele>137</ele>
        <time>2015-05-26T07:18:12.337Z</time>
      </trkpt>
      <trkpt lat="48.40869" lon="2.67929">
        <ele>136</ele>
        <time>2015-05-26T07:18:13.336Z</time>
      </trkpt>
      <trkpt lat="48.40878" lon="2.67933">
        <ele>134</ele>
        <time>2015-05-26T07:18:22.318Z</time>
      </trkpt>
      <trkpt lat="48.40879" lon="2.67933">
        <ele>134</ele>
        <time>2015-05-26T07:18:23.317Z</time>
      </trkpt>
      <trkpt lat="48.40887" lon="2.67933">
        <ele>135</ele>
        <time>2015-05-26T07:18:31.338Z</time>
      </trkpt>
      <trkpt lat="48.40888" lon="2.67934">
        <ele>133</ele>
        <time>2015-05-26T07:18:32.342Z</time>
      </trkpt>
      <trkpt lat="48.40897" lon="2.67929">
        <ele>132</ele>
        <time>2015-05-26T07:19:09.332Z</time>
      </trkpt>
      <trkpt lat="48.40897" lon="2.67929">
        <ele>132</ele>
        <time>2015-05-26T07:19:10.340Z</time>
      </trkpt>
      <trkpt lat="48.40901" lon="2.67918">
        <ele>130</ele>
        <time>2015-05-26T07:19:23.314Z</time>
      </trkpt>
      <trkpt lat="48.40901" lon="2.67916">
        <ele>131</ele>
        <time>2015-05-26T07:19:24.330Z</time>
      </trkpt>
      <trkpt lat="48.40904" lon="2.67905">
        <ele>129</ele>
        <time>2015-05-26T07:19:30.334Z</time>
      </trkpt>
      <trkpt lat="48.40904" lon="2.67903">
        <ele>130</ele>
        <time>2015-05-26T07:19:31.327Z</time>
      </trkpt>
      <trkpt lat="48.40903" lon="2.67891">
        <ele>131</ele>
        <time>2015-05-26T07:19:37.321Z</time>
      </trkpt>
      <trkpt lat="48.40902" lon="2.67889">
        <ele>131</ele>
        <time>2015-05-26T07:19:38.328Z</time>
      </trkpt>
      <trkpt lat="48.40903" lon="2.67876">
        <ele>134</ele>
        <time>2015-05-26T07:19:46.327Z</time>
      </trkpt>
      <trkpt lat="48.40902" lon="2.67874">
        <ele>135</ele>
        <time>2015-05-26T07:19:47.314Z</time>
      </trkpt>
      <trkpt lat="48.40905" lon="2.67862">
        <ele>135</ele>
        <time>2015-05-26T07:19:55.333Z</time>
      </trkpt>
      <trkpt lat="48.40905" lon="2.6786">
        <ele>136</ele>
        <time>2015-05-26T07:19:56.333Z</time>
      </trkpt>
      <trkpt lat="48.4091" lon="2.67849">
        <ele>135</ele>
        <time>2015-05-26T07:20:04.337Z</time>
      </trkpt>
      <trkpt lat="48.4091" lon="2.67848">
        <ele>135</ele>
        <time>2015-05-26T07:20:05.333Z</time>
      </trkpt>
      <trkpt lat="48.4091" lon="2.67834">
        <ele>128</ele>
        <time>2015-05-26T07:20:15.325Z</time>
      </trkpt>
      <trkpt lat="48.4091" lon="2.67833">
        <ele>128</ele>
        <time>2015-05-26T07:20:16.335Z</time>
      </trkpt>
      <trkpt lat="48.40911" lon="2.6782">
        <ele>130</ele>
        <time>2015-05-26T07:20:29.328Z</time>
      </trkpt>
      <trkpt lat="48.4091" lon="2.67819">
        <ele>128</ele>
        <time>2015-05-26T07:20:30.334Z</time>
      </trkpt>
      <trkpt lat="48.40913" lon="2.67806">
        <ele>132</ele>
        <time>2015-05-26T07:20:38.333Z</time>
      </trkpt>
      <trkpt lat="48.40913" lon="2.67805">
        <ele>131</ele>
        <time>2015-05-26T07:20:39.337Z</time>
      </trkpt>
      <trkpt lat="48.40915" lon="2.67792">
        <ele>133</ele>
        <time>2015-05-26T07:20:48.331Z</time>
      </trkpt>
      <trkpt lat="48.40915" lon="2.6779">
        <ele>133</ele>
        <time>2015-05-26T07:20:49.329Z</time>
      </trkpt>
      <trkpt lat="48.40915" lon="2.67778">
        <ele>134</ele>
        <time>2015-05-26T07:20:56.319Z</time>
      </trkpt>
      <trkpt lat="48.40915" lon="2.67776">
        <ele>135</ele>
        <time>2015-05-26T07:20:57.316Z</time>
      </trkpt>
      <trkpt lat="48.40917" lon="2.67764">
        <ele>134</ele>
        <time>2015-05-26T07:21:04.316Z</time>
      </trkpt>
      <trkpt lat="48.40917" lon="2.67763">
        <ele>133</ele>
        <time>2015-05-26T07:21:05.338Z</time>
      </trkpt>
      <trkpt lat="48.40918" lon="2.67749">
        <ele>134</ele>
        <time>2015-05-26T07:21:13.322Z</time>
      </trkpt>
      <trkpt lat="48.40919" lon="2.67748">
        <ele>136</ele>
        <time>2015-05-26T07:21:14.329Z</time>
      </trkpt>
      <trkpt lat="48.40918" lon="2.67735">
        <ele>133</ele>
        <time>2015-05-26T07:21:21.334Z</time>
      </trkpt>
      <trkpt lat="48.40918" lon="2.67733">
        <ele>134</ele>
        <time>2015-05-26T07:21:22.329Z</time>
      </trkpt>
      <trkpt lat="48.40918" lon="2.6772">
        <ele>137</ele>
        <time>2015-05-26T07:21:31.333Z</time>
      </trkpt>
      <trkpt lat="48.40918" lon="2.67718">
        <ele>136</ele>
        <time>2015-05-26T07:21:32.327Z</time>
      </trkpt>
      <trkpt lat="48.4092" lon="2.67706">
        <ele>134</ele>
        <time>2015-05-26T07:21:40.334Z</time>
      </trkpt>
      <trkpt lat="48.40919" lon="2.67704">
        <ele>135</ele>
        <time>2015-05-26T07:21:41.331Z</time>
      </trkpt>
      <trkpt lat="48.40919" lon="2.67691">
        <ele>135</ele>
        <time>2015-05-26T07:22:01.326Z</time>
      </trkpt>
      <trkpt lat="48.40919" lon="2.6769">
        <ele>135</ele>
        <time>2015-05-26T07:22:02.334Z</time>
      </trkpt>
      <trkpt lat="48.40925" lon="2.67681">
        <ele>135</ele>
        <time>2015-05-26T07:23:00.331Z</time>
      </trkpt>
      <trkpt lat="48.40926" lon="2.6768">
        <ele>134</ele>
        <time>2015-05-26T07:23:01.319Z</time>
      </trkpt>
      <trkpt lat="48.40933" lon="2.67672">
        <ele>139</ele>
        <time>2015-05-26T07:23:28.318Z</time>
      </trkpt>
      <trkpt lat="48.40934" lon="2.67671">
        <ele>139</ele>
        <time>2015-05-26T07:23:29.334Z</time>
      </trkpt>
      <trkpt lat="48.40939" lon="2.67663">
        <ele>138</ele>
        <time>2015-05-26T07:23:35.321Z</time>
      </trkpt>
      <trkpt lat="48.4094" lon="2.67661">
        <ele>137</ele>
        <time>2015-05-26T07:23:36.330Z</time>
      </trkpt>
      <trkpt lat="48.40945" lon="2.67652">
        <ele>135</ele>
        <time>2015-05-26T07:23:41.331Z</time>
      </trkpt>
      <trkpt lat="48.40946" lon="2.6765">
        <ele>136</ele>
        <time>2015-05-26T07:23:42.332Z</time>
      </trkpt>
      <trkpt lat="48.40952" lon="2.67643">
        <ele>138</ele>
        <time>2015-05-26T07:23:47.319Z</time>
      </trkpt>
      <trkpt lat="48.40953" lon="2.67642">
        <ele>138</ele>
        <time>2015-05-26T07:23:48.338Z</time>
      </trkpt>
      <trkpt lat="48.40959" lon="2.67632">
        <ele>140</ele>
        <time>2015-05-26T07:23:54.339Z</time>
      </trkpt>
      <trkpt lat="48.4096" lon="2.67631">
        <ele>138</ele>
        <time>2015-05-26T07:23:55.333Z</time>
      </trkpt>
      <trkpt lat="48.40962" lon="2.67618">
        <ele>138</ele>
        <time>2015-05-26T07:24:05.332Z</time>
      </trkpt>
      <trkpt lat="48.40963" lon="2.67617">
        <ele>138</ele>
        <time>2015-05-26T07:24:06.333Z</time>
      </trkpt>
      <trkpt lat="48.40966" lon="2.67605">
        <ele>138</ele>
        <time>2015-05-26T07:24:17.318Z</time>
      </trkpt>
      <trkpt lat="48.40967" lon="2.67604">
        <ele>136</ele>
        <time>2015-05-26T07:24:18.329Z</time>
      </trkpt>
      <trkpt lat="48.40972" lon="2.67593">
        <ele>130</ele>
        <time>2015-05-26T07:24:26.336Z</time>
      </trkpt>
      <trkpt lat="48.40972" lon="2.67591">
        <ele>132</ele>
        <time>2015-05-26T07:24:27.316Z</time>
      </trkpt>
      <trkpt lat="48.40975" lon="2.67579">
        <ele>134</ele>
        <time>2015-05-26T07:24:33.332Z</time>
      </trkpt>
      <trkpt lat="48.40976" lon="2.67577">
        <ele>135</ele>
        <time>2015-05-26T07:24:34.322Z</time>
      </trkpt>
      <trkpt lat="48.40979" lon="2.67566">
        <ele>141</ele>
        <time>2015-05-26T07:24:41.324Z</time>
      </trkpt>
      <trkpt lat="48.40978" lon="2.67564">
        <ele>140</ele>
        <time>2015-05-26T07:24:42.324Z</time>
      </trkpt>
      <trkpt lat="48.40976" lon="2.67552">
        <ele>143</ele>
        <time>2015-05-26T07:24:47.318Z</time>
      </trkpt>
      <trkpt lat="48.40977" lon="2.6755">
        <ele>145</ele>
        <time>2015-05-26T07:24:48.335Z</time>
      </trkpt>
      <trkpt lat="48.40982" lon="2.67539">
        <ele>147</ele>
        <time>2015-05-26T07:24:55.340Z</time>
      </trkpt>
      <trkpt lat="48.40982" lon="2.67537">
        <ele>146</ele>
        <time>2015-05-26T07:24:56.318Z</time>
      </trkpt>
      <trkpt lat="48.40983" lon="2.67524">
        <ele>143</ele>
        <time>2015-05-26T07:25:06.336Z</time>
      </trkpt>
      <trkpt lat="48.40984" lon="2.67523">
        <ele>144</ele>
        <time>2015-05-26T07:25:07.330Z</time>
      </trkpt>
      <trkpt lat="48.40987" lon="2.67511">
        <ele>140</ele>
        <time>2015-05-26T07:25:16.331Z</time>
      </trkpt>
      <trkpt lat="48.40986" lon="2.67509">
        <ele>142</ele>
        <time>2015-05-26T07:25:17.329Z</time>
      </trkpt>
      <trkpt lat="48.40985" lon="2.67497">
        <ele>137</ele>
        <time>2015-05-26T07:25:25.335Z</time>
      </trkpt>
      <trkpt lat="48.40986" lon="2.67495">
        <ele>138</ele>
        <time>2015-05-26T07:25:26.332Z</time>
      </trkpt>
      <trkpt lat="48.40984" lon="2.67482">
        <ele>138</ele>
        <time>2015-05-26T07:25:36.330Z</time>
      </trkpt>
      <trkpt lat="48.40984" lon="2.67481">
        <ele>137</ele>
        <time>2015-05-26T07:25:37.318Z</time>
      </trkpt>
      <trkpt lat="48.40983" lon="2.67469">
        <ele>136</ele>
        <time>2015-05-26T07:25:44.332Z</time>
      </trkpt>
      <trkpt lat="48.40983" lon="2.67467">
        <ele>136</ele>
        <time>2015-05-26T07:25:45.333Z</time>
      </trkpt>
      <trkpt lat="48.4098" lon="2.67454">
        <ele>139</ele>
        <time>2015-05-26T07:25:53.333Z</time>
      </trkpt>
      <trkpt lat="48.40979" lon="2.67452">
        <ele>140</ele>
        <time>2015-05-26T07:25:54.333Z</time>
      </trkpt>
      <trkpt lat="48.40976" lon="2.6744">
        <ele>140</ele>
        <time>2015-05-26T07:26:01.338Z</time>
      </trkpt>
      <trkpt lat="48.40976" lon="2.67438">
        <ele>139</ele>
        <time>2015-05-26T07:26:02.328Z</time>
      </trkpt>
      <trkpt lat="48.40973" lon="2.67426">
        <ele>137</ele>
        <time>2015-05-26T07:26:09.318Z</time>
      </trkpt>
      <trkpt lat="48.40972" lon="2.67424">
        <ele>136</ele>
        <time>2015-05-26T07:26:10.330Z</time>
      </trkpt>
      <trkpt lat="48.4097" lon="2.67413">
        <ele>139</ele>
        <time>2015-05-26T07:26:17.322Z</time>
      </trkpt>
      <trkpt lat="48.40969" lon="2.67411">
        <ele>139</ele>
        <time>2015-05-26T07:26:18.331Z</time>
      </trkpt>
      <trkpt lat="48.40964" lon="2.674">
        <ele>142</ele>
        <time>2015-05-26T07:26:28.330Z</time>
      </trkpt>
      <trkpt lat="48.40964" lon="2.67399">
        <ele>142</ele>
        <time>2015-05-26T07:26:29.331Z</time>
      </trkpt>
      <trkpt lat="48.40961" lon="2.67388">
        <ele>142</ele>
        <time>2015-05-26T07:26:38.317Z</time>
      </trkpt>
      <trkpt lat="48.40961" lon="2.67386">
        <ele>143</ele>
        <time>2015-05-26T07:26:39.319Z</time>
      </trkpt>
      <trkpt lat="48.40962" lon="2.67373">
        <ele>151</ele>
        <time>2015-05-26T07:26:53.334Z</time>
      </trkpt>
      <trkpt lat="48.40962" lon="2.67372">
        <ele>152</ele>
        <time>2015-05-26T07:26:54.316Z</time>
      </trkpt>
      <trkpt lat="48.40961" lon="2.67359">
        <ele>152</ele>
        <time>2015-05-26T07:27:06.326Z</time>
      </trkpt>
      <trkpt lat="48.40961" lon="2.67358">
        <ele>153</ele>
        <time>2015-05-26T07:27:07.317Z</time>
      </trkpt>
      <trkpt lat="48.40954" lon="2.6735">
        <ele>152</ele>
        <time>2015-05-26T07:27:19.324Z</time>
      </trkpt>
      <trkpt lat="48.40953" lon="2.6735">
        <ele>152</ele>
        <time>2015-05-26T07:27:20.336Z</time>
      </trkpt>
      <trkpt lat="48.40946" lon="2.67342">
        <ele>153</ele>
        <time>2015-05-26T07:27:30.319Z</time>
      </trkpt>
      <trkpt lat="48.40945" lon="2.67342">
        <ele>153</ele>
        <time>2015-05-26T07:27:31.331Z</time>
      </trkpt>
      <trkpt lat="48.40937" lon="2.67345">
        <ele>167</ele>
        <time>2015-05-26T07:28:11.331Z</time>
      </trkpt>
      <trkpt lat="48.40935" lon="2.67345">
        <ele>167</ele>
        <time>2015-05-26T07:28:12.336Z</time>
      </trkpt>
      <trkpt lat="48.40928" lon="2.67346">
        <ele>168</ele>
        <time>2015-05-26T07:28:17.316Z</time>
      </trkpt>
      <trkpt lat="48.40926" lon="2.67347">
        <ele>170</ele>
        <time>2015-05-26T07:28:18.344Z</time>
      </trkpt>
      <trkpt lat="48.40918" lon="2.6734">
        <ele>178</ele>
        <time>2015-05-26T07:28:30.318Z</time>
      </trkpt>
      <trkpt lat="48.40918" lon="2.67339">
        <ele>178</ele>
        <time>2015-05-26T07:28:31.326Z</time>
      </trkpt>
      <trkpt lat="48.40913" lon="2.67328">
        <ele>179</ele>
        <time>2015-05-26T07:28:42.329Z</time>
      </trkpt>
      <trkpt lat="48.40912" lon="2.67328">
        <ele>178</ele>
        <time>2015-05-26T07:28:43.343Z</time>
      </trkpt>
      <trkpt lat="48.40904" lon="2.67324">
        <ele>176</ele>
        <time>2015-05-26T07:28:51.332Z</time>
      </trkpt>
      <trkpt lat="48.40903" lon="2.67323">
        <ele>176</ele>
        <time>2015-05-26T07:28:52.330Z</time>
      </trkpt>
      <trkpt lat="48.40896" lon="2.67316">
        <ele>181</ele>
        <time>2015-05-26T07:29:00.332Z</time>
      </trkpt>
      <trkpt lat="48.40895" lon="2.67315">
        <ele>181</ele>
        <time>2015-05-26T07:29:01.323Z</time>
      </trkpt>
      <trkpt lat="48.40889" lon="2.67308">
        <ele>175</ele>
        <time>2015-05-26T07:29:07.323Z</time>
      </trkpt>
      <trkpt lat="48.40888" lon="2.67307">
        <ele>174</ele>
        <time>2015-05-26T07:29:08.328Z</time>
      </trkpt>
      <trkpt lat="48.40881" lon="2.67299">
        <ele>174</ele>
        <time>2015-05-26T07:29:16.333Z</time>
      </trkpt>
      <trkpt lat="48.4088" lon="2.67298">
        <ele>176</ele>
        <time>2015-05-26T07:29:17.335Z</time>
      </trkpt>
      <trkpt lat="48.40872" lon="2.67296">
        <ele>178</ele>
        <time>2015-05-26T07:29:26.335Z</time>
      </trkpt>
      <trkpt lat="48.40871" lon="2.67296">
        <ele>178</ele>
        <time>2015-05-26T07:29:27.333Z</time>
      </trkpt>
      <trkpt lat="48.4087" lon="2.67284">
        <ele>167</ele>
        <time>2015-05-26T07:33:11.337Z</time>
      </trkpt>
      <trkpt lat="48.40869" lon="2.67283">
        <ele>167</ele>
        <time>2015-05-26T07:33:12.379Z</time>
      </trkpt>
      <trkpt lat="48.40862" lon="2.67275">
        <ele>170</ele>
        <time>2015-05-26T07:33:23.335Z</time>
      </trkpt>
      <trkpt lat="48.40862" lon="2.67274">
        <ele>170</ele>
        <time>2015-05-26T07:33:24.341Z</time>
      </trkpt>
      <trkpt lat="48.40854" lon="2.67269">
        <ele>173</ele>
        <time>2015-05-26T07:33:34.333Z</time>
      </trkpt>
      <trkpt lat="48.40853" lon="2.67268">
        <ele>171</ele>
        <time>2015-05-26T07:33:35.336Z</time>
      </trkpt>
      <trkpt lat="48.40845" lon="2.67262">
        <ele>168</ele>
        <time>2015-05-26T07:33:44.319Z</time>
      </trkpt>
      <trkpt lat="48.40845" lon="2.67262">
        <ele>169</ele>
        <time>2015-05-26T07:33:45.335Z</time>
      </trkpt>
      <trkpt lat="48.40837" lon="2.67256">
        <ele>168</ele>
        <time>2015-05-26T07:33:57.331Z</time>
      </trkpt>
      <trkpt lat="48.40836" lon="2.67255">
        <ele>169</ele>
        <time>2015-05-26T07:33:58.323Z</time>
      </trkpt>
      <trkpt lat="48.40829" lon="2.67248">
        <ele>172</ele>
        <time>2015-05-26T07:34:08.335Z</time>
      </trkpt>
      <trkpt lat="48.40828" lon="2.67247">
        <ele>173</ele>
        <time>2015-05-26T07:34:09.345Z</time>
      </trkpt>
      <trkpt lat="48.4082" lon="2.67241">
        <ele>171</ele>
        <time>2015-05-26T07:34:16.325Z</time>
      </trkpt>
      <trkpt lat="48.40819" lon="2.6724">
        <ele>171</ele>
        <time>2015-05-26T07:34:17.341Z</time>
      </trkpt>
      <trkpt lat="48.40813" lon="2.6723">
        <ele>172</ele>
        <time>2015-05-26T07:34:29.320Z</time>
      </trkpt>
      <trkpt lat="48.40813" lon="2.67229">
        <ele>172</ele>
        <time>2015-05-26T07:34:30.320Z</time>
      </trkpt>
      <trkpt lat="48.40806" lon="2.6722">
        <ele>171</ele>
        <time>2015-05-26T07:34:38.315Z</time>
      </trkpt>
      <trkpt lat="48.40806" lon="2.6722">
        <ele>171</ele>
        <time>2015-05-26T07:34:39.334Z</time>
      </trkpt>
      <trkpt lat="48.40798" lon="2.67212">
        <ele>167</ele>
        <time>2015-05-26T07:34:48.332Z</time>
      </trkpt>
      <trkpt lat="48.40798" lon="2.6721">
        <ele>167</ele>
        <time>2015-05-26T07:34:49.338Z</time>
      </trkpt>
      <trkpt lat="48.40796" lon="2.67199">
        <ele>169</ele>
        <time>2015-05-26T07:34:56.328Z</time>
      </trkpt>
      <trkpt lat="48.40796" lon="2.67197">
        <ele>168</ele>
        <time>2015-05-26T07:34:57.325Z</time>
      </trkpt>
      <trkpt lat="48.40796" lon="2.67184">
        <ele>166</ele>
        <time>2015-05-26T07:35:06.329Z</time>
      </trkpt>
      <trkpt lat="48.40795" lon="2.67183">
        <ele>168</ele>
        <time>2015-05-26T07:35:07.337Z</time>
      </trkpt>
      <trkpt lat="48.40792" lon="2.67171">
        <ele>169</ele>
        <time>2015-05-26T07:35:15.334Z</time>
      </trkpt>
      <trkpt lat="48.40791" lon="2.67169">
        <ele>169</ele>
        <time>2015-05-26T07:35:16.331Z</time>
      </trkpt>
      <trkpt lat="48.40787" lon="2.67157">
        <ele>170</ele>
        <time>2015-05-26T07:35:29.348Z</time>
      </trkpt>
      <trkpt lat="48.40787" lon="2.67157">
        <ele>169</ele>
        <time>2015-05-26T07:35:30.337Z</time>
      </trkpt>
      <trkpt lat="48.40784" lon="2.67146">
        <ele>170</ele>
        <time>2015-05-26T07:35:41.331Z</time>
      </trkpt>
      <trkpt lat="48.40783" lon="2.67144">
        <ele>170</ele>
        <time>2015-05-26T07:35:42.323Z</time>
      </trkpt>
      <trkpt lat="48.40781" lon="2.67132">
        <ele>170</ele>
        <time>2015-05-26T07:35:48.336Z</time>
      </trkpt>
      <trkpt lat="48.4078" lon="2.67131">
        <ele>171</ele>
        <time>2015-05-26T07:35:49.337Z</time>
      </trkpt>
      <trkpt lat="48.40778" lon="2.67118">
        <ele>170</ele>
        <time>2015-05-26T07:35:55.335Z</time>
      </trkpt>
      <trkpt lat="48.40778" lon="2.67116">
        <ele>169</ele>
        <time>2015-05-26T07:35:56.326Z</time>
      </trkpt>
      <trkpt lat="48.40776" lon="2.67103">
        <ele>168</ele>
        <time>2015-05-26T07:36:03.332Z</time>
      </trkpt>
      <trkpt lat="48.40776" lon="2.67101">
        <ele>167</ele>
        <time>2015-05-26T07:36:04.341Z</time>
      </trkpt>
      <trkpt lat="48.40775" lon="2.67088">
        <ele>174</ele>
        <time>2015-05-26T07:36:12.334Z</time>
      </trkpt>
      <trkpt lat="48.40775" lon="2.67086">
        <ele>175</ele>
        <time>2015-05-26T07:36:13.334Z</time>
      </trkpt>
      <trkpt lat="48.40772" lon="2.67074">
        <ele>172</ele>
        <time>2015-05-26T07:36:20.332Z</time>
      </trkpt>
      <trkpt lat="48.40772" lon="2.67073">
        <ele>171</ele>
        <time>2015-05-26T07:36:21.340Z</time>
      </trkpt>
      <trkpt lat="48.40771" lon="2.6706">
        <ele>172</ele>
        <time>2015-05-26T07:36:30.332Z</time>
      </trkpt>
      <trkpt lat="48.40771" lon="2.67058">
        <ele>173</ele>
        <time>2015-05-26T07:36:31.318Z</time>
      </trkpt>
      <trkpt lat="48.40769" lon="2.67046">
        <ele>173</ele>
        <time>2015-05-26T07:36:38.334Z</time>
      </trkpt>
      <trkpt lat="48.40768" lon="2.67045">
        <ele>174</ele>
        <time>2015-05-26T07:36:39.337Z</time>
      </trkpt>
      <trkpt lat="48.40767" lon="2.67033">
        <ele>174</ele>
        <time>2015-05-26T07:36:46.323Z</time>
      </trkpt>
      <trkpt lat="48.40767" lon="2.6703">
        <ele>175</ele>
        <time>2015-05-26T07:36:47.334Z</time>
      </trkpt>
      <trkpt lat="48.40764" lon="2.67018">
        <ele>173</ele>
        <time>2015-05-26T07:36:55.334Z</time>
      </trkpt>
      <trkpt lat="48.40764" lon="2.67018">
        <ele>174</ele>
        <time>2015-05-26T07:36:56.324Z</time>
      </trkpt>
      <trkpt lat="48.40764" lon="2.67005">
        <ele>176</ele>
        <time>2015-05-26T07:37:09.379Z</time>
      </trkpt>
      <trkpt lat="48.40763" lon="2.67003">
        <ele>175</ele>
        <time>2015-05-26T07:37:10.339Z</time>
      </trkpt>
      <trkpt lat="48.40761" lon="2.6699">
        <ele>174</ele>
        <time>2015-05-26T07:37:18.335Z</time>
      </trkpt>
      <trkpt lat="48.4076" lon="2.66988">
        <ele>174</ele>
        <time>2015-05-26T07:37:19.336Z</time>
      </trkpt>
      <trkpt lat="48.40756" lon="2.66977">
        <ele>171</ele>
        <time>2015-05-26T07:37:26.333Z</time>
      </trkpt>
      <trkpt lat="48.40755" lon="2.66976">
        <ele>171</ele>
        <time>2015-05-26T07:37:27.317Z</time>
      </trkpt>
      <trkpt lat="48.4075" lon="2.66964">
        <ele>170</ele>
        <time>2015-05-26T07:37:35.317Z</time>
      </trkpt>
      <trkpt lat="48.40749" lon="2.66963">
        <ele>170</ele>
        <time>2015-05-26T07:37:36.324Z</time>
      </trkpt>
      <trkpt lat="48.40747" lon="2.66951">
        <ele>169</ele>
        <time>2015-05-26T07:37:43.335Z</time>
      </trkpt>
      <trkpt lat="48.40747" lon="2.6695">
        <ele>169</ele>
        <time>2015-05-26T07:37:44.324Z</time>
      </trkpt>
      <trkpt lat="48.40744" lon="2.66938">
        <ele>169</ele>
        <time>2015-05-26T07:37:51.334Z</time>
      </trkpt>
      <trkpt lat="48.40744" lon="2.66937">
        <ele>169</ele>
        <time>2015-05-26T07:37:52.335Z</time>
      </trkpt>
      <trkpt lat="48.40742" lon="2.66924">
        <ele>170</ele>
        <time>2015-05-26T07:38:00.341Z</time>
      </trkpt>
      <trkpt lat="48.40742" lon="2.66922">
        <ele>170</ele>
        <time>2015-05-26T07:38:01.336Z</time>
      </trkpt>
      <trkpt lat="48.4074" lon="2.66909">
        <ele>171</ele>
        <time>2015-05-26T07:38:07.340Z</time>
      </trkpt>
      <trkpt lat="48.4074" lon="2.66908">
        <ele>171</ele>
        <time>2015-05-26T07:38:08.327Z</time>
      </trkpt>
      <trkpt lat="48.40739" lon="2.66895">
        <ele>169</ele>
        <time>2015-05-26T07:38:15.333Z</time>
      </trkpt>
      <trkpt lat="48.40738" lon="2.66893">
        <ele>169</ele>
        <time>2015-05-26T07:38:16.338Z</time>
      </trkpt>
      <trkpt lat="48.40737" lon="2.66881">
        <ele>169</ele>
        <time>2015-05-26T07:38:23.333Z</time>
      </trkpt>
      <trkpt lat="48.40736" lon="2.66879">
        <ele>169</ele>
        <time>2015-05-26T07:38:24.332Z</time>
      </trkpt>
      <trkpt lat="48.40736" lon="2.66867">
        <ele>169</ele>
        <time>2015-05-26T07:38:33.334Z</time>
      </trkpt>
      <trkpt lat="48.40736" lon="2.66865">
        <ele>169</ele>
        <time>2015-05-26T07:38:34.335Z</time>
      </trkpt>
      <trkpt lat="48.40735" lon="2.66854">
        <ele>168</ele>
        <time>2015-05-26T07:38:40.324Z</time>
      </trkpt>
      <trkpt lat="48.40735" lon="2.66852">
        <ele>170</ele>
        <time>2015-05-26T07:38:41.326Z</time>
      </trkpt>
      <trkpt lat="48.40732" lon="2.66839">
        <ele>170</ele>
        <time>2015-05-26T07:38:49.335Z</time>
      </trkpt>
      <trkpt lat="48.40731" lon="2.66837">
        <ele>172</ele>
        <time>2015-05-26T07:38:50.329Z</time>
      </trkpt>
      <trkpt lat="48.40735" lon="2.66825">
        <ele>171</ele>
        <time>2015-05-26T07:38:58.335Z</time>
      </trkpt>
      <trkpt lat="48.40735" lon="2.66825">
        <ele>169</ele>
        <time>2015-05-26T07:38:59.345Z</time>
      </trkpt>
      <trkpt lat="48.40737" lon="2.66812">
        <ele>173</ele>
        <time>2015-05-26T07:39:08.318Z</time>
      </trkpt>
      <trkpt lat="48.40737" lon="2.6681">
        <ele>173</ele>
        <time>2015-05-26T07:39:09.340Z</time>
      </trkpt>
      <trkpt lat="48.40739" lon="2.66798">
        <ele>172</ele>
        <time>2015-05-26T07:39:16.334Z</time>
      </trkpt>
      <trkpt lat="48.40739" lon="2.66797">
        <ele>171</ele>
        <time>2015-05-26T07:39:17.324Z</time>
      </trkpt>
      <trkpt lat="48.40738" lon="2.66784">
        <ele>173</ele>
        <time>2015-05-26T07:39:23.339Z</time>
      </trkpt>
      <trkpt lat="48.40738" lon="2.66782">
        <ele>173</ele>
        <time>2015-05-26T07:39:24.335Z</time>
      </trkpt>
      <trkpt lat="48.40742" lon="2.66772">
        <ele>170</ele>
        <time>2015-05-26T07:39:36.336Z</time>
      </trkpt>
      <trkpt lat="48.40743" lon="2.6677">
        <ele>171</ele>
        <time>2015-05-26T07:39:37.329Z</time>
      </trkpt>
      <trkpt lat="48.40745" lon="2.66759">
        <ele>171</ele>
        <time>2015-05-26T07:39:45.337Z</time>
      </trkpt>
      <trkpt lat="48.40746" lon="2.66757">
        <ele>171</ele>
        <time>2015-05-26T07:39:46.325Z</time>
      </trkpt>
      <trkpt lat="48.40751" lon="2.66747">
        <ele>169</ele>
        <time>2015-05-26T07:39:54.336Z</time>
      </trkpt>
      <trkpt lat="48.40751" lon="2.66746">
        <ele>168</ele>
        <time>2015-05-26T07:39:55.334Z</time>
      </trkpt>
      <trkpt lat="48.40751" lon="2.66733">
        <ele>170</ele>
        <time>2015-05-26T07:40:02.326Z</time>
      </trkpt>
      <trkpt lat="48.40751" lon="2.66731">
        <ele>168</ele>
        <time>2015-05-26T07:40:03.338Z</time>
      </trkpt>
      <trkpt lat="48.40753" lon="2.66719">
        <ele>169</ele>
        <time>2015-05-26T07:40:08.357Z</time>
      </trkpt>
      <trkpt lat="48.40753" lon="2.66717">
        <ele>169</ele>
        <time>2015-05-26T07:40:09.343Z</time>
      </trkpt>
      <trkpt lat="48.40753" lon="2.66705">
        <ele>169</ele>
        <time>2015-05-26T07:40:15.335Z</time>
      </trkpt>
      <trkpt lat="48.40753" lon="2.66703">
        <ele>171</ele>
        <time>2015-05-26T07:40:16.327Z</time>
      </trkpt>
      <trkpt lat="48.40755" lon="2.6669">
        <ele>173</ele>
        <time>2015-05-26T07:40:23.340Z</time>
      </trkpt>
      <trkpt lat="48.40755" lon="2.66688">
        <ele>173</ele>
        <time>2015-05-26T07:40:24.334Z</time>
      </trkpt>
      <trkpt lat="48.40755" lon="2.66677">
        <ele>173</ele>
        <time>2015-05-26T07:40:29.334Z</time>
      </trkpt>
      <trkpt lat="48.40756" lon="2.66674">
        <ele>174</ele>
        <time>2015-05-26T07:40:30.340Z</time>
      </trkpt>
      <trkpt lat="48.40756" lon="2.66663">
        <ele>175</ele>
        <time>2015-05-26T07:40:36.324Z</time>
      </trkpt>
      <trkpt lat="48.40755" lon="2.66661">
        <ele>174</ele>
        <time>2015-05-26T07:40:37.325Z</time>
      </trkpt>
      <trkpt lat="48.40755" lon="2.66649">
        <ele>179</ele>
        <time>2015-05-26T07:40:43.334Z</time>
      </trkpt>
      <trkpt lat="48.40755" lon="2.66646">
        <ele>179</ele>
        <time>2015-05-26T07:40:44.332Z</time>
      </trkpt>
      <trkpt lat="48.40754" lon="2.66634">
        <ele>180</ele>
        <time>2015-05-26T07:40:49.335Z</time>
      </trkpt>
      <trkpt lat="48.40754" lon="2.66631">
        <ele>181</ele>
        <time>2015-05-26T07:40:50.339Z</time>
      </trkpt>
      <trkpt lat="48.40756" lon="2.66619">
        <ele>185</ele>
        <time>2015-05-26T07:40:55.334Z</time>
      </trkpt>
      <trkpt lat="48.40758" lon="2.66617">
        <ele>186</ele>
        <time>2015-05-26T07:40:56.324Z</time>
      </trkpt>
      <trkpt lat="48.40765" lon="2.66618">
        <ele>178</ele>
        <time>2015-05-26T07:41:04.336Z</time>
      </trkpt>
      <trkpt lat="48.40766" lon="2.66618">
        <ele>178</ele>
        <time>2015-05-26T07:41:05.335Z</time>
      </trkpt>
      <trkpt lat="48.40774" lon="2.66611">
        <ele>179</ele>
        <time>2015-05-26T07:41:14.316Z</time>
      </trkpt>
      <trkpt lat="48.40774" lon="2.6661">
        <ele>179</ele>
        <time>2015-05-26T07:41:15.315Z</time>
      </trkpt>
      <trkpt lat="48.4078" lon="2.66602">
        <ele>176</ele>
        <time>2015-05-26T07:41:21.323Z</time>
      </trkpt>
      <trkpt lat="48.40781" lon="2.666">
        <ele>179</ele>
        <time>2015-05-26T07:41:22.338Z</time>
      </trkpt>
      <trkpt lat="48.40786" lon="2.66589">
        <ele>178</ele>
        <time>2015-05-26T07:41:29.336Z</time>
      </trkpt>
      <trkpt lat="48.40786" lon="2.66587">
        <ele>178</ele>
        <time>2015-05-26T07:41:30.338Z</time>
      </trkpt>
      <trkpt lat="48.40789" lon="2.66575">
        <ele>180</ele>
        <time>2015-05-26T07:41:37.325Z</time>
      </trkpt>
      <trkpt lat="48.40789" lon="2.66572">
        <ele>181</ele>
        <time>2015-05-26T07:41:38.332Z</time>
      </trkpt>
      <trkpt lat="48.40792" lon="2.66561">
        <ele>182</ele>
        <time>2015-05-26T07:41:44.333Z</time>
      </trkpt>
      <trkpt lat="48.40792" lon="2.66559">
        <ele>182</ele>
        <time>2015-05-26T07:41:45.334Z</time>
      </trkpt>
      <trkpt lat="48.40796" lon="2.66549">
        <ele>179</ele>
        <time>2015-05-26T07:41:52.339Z</time>
      </trkpt>
      <trkpt lat="48.40797" lon="2.66548">
        <ele>179</ele>
        <time>2015-05-26T07:41:53.342Z</time>
      </trkpt>
      <trkpt lat="48.40801" lon="2.66536">
        <ele>181</ele>
        <time>2015-05-26T07:41:59.346Z</time>
      </trkpt>
      <trkpt lat="48.40801" lon="2.66534">
        <ele>180</ele>
        <time>2015-05-26T07:42:00.324Z</time>
      </trkpt>
      <trkpt lat="48.40801" lon="2.66521">
        <ele>183</ele>
        <time>2015-05-26T07:42:08.327Z</time>
      </trkpt>
      <trkpt lat="48.40801" lon="2.6652">
        <ele>184</ele>
        <time>2015-05-26T07:42:09.336Z</time>
      </trkpt>
      <trkpt lat="48.40807" lon="2.6651">
        <ele>182</ele>
        <time>2015-05-26T07:42:17.334Z</time>
      </trkpt>
      <trkpt lat="48.40808" lon="2.66508">
        <ele>183</ele>
        <time>2015-05-26T07:42:18.328Z</time>
      </trkpt>
      <trkpt lat="48.40809" lon="2.66496">
        <ele>178</ele>
        <time>2015-05-26T07:42:25.343Z</time>
      </trkpt>
      <trkpt lat="48.40809" lon="2.66494">
        <ele>177</ele>
        <time>2015-05-26T07:42:26.330Z</time>
      </trkpt>
      <trkpt lat="48.40806" lon="2.66481">
        <ele>176</ele>
        <time>2015-05-26T07:42:32.326Z</time>
      </trkpt>
      <trkpt lat="48.40806" lon="2.66479">
        <ele>176</ele>
        <time>2015-05-26T07:42:33.332Z</time>
      </trkpt>
      <trkpt lat="48.40804" lon="2.66467">
        <ele>177</ele>
        <time>2015-05-26T07:42:40.335Z</time>
      </trkpt>
      <trkpt lat="48.40803" lon="2.66466">
        <ele>176</ele>
        <time>2015-05-26T07:42:41.327Z</time>
      </trkpt>
      <trkpt lat="48.40802" lon="2.66454">
        <ele>174</ele>
        <time>2015-05-26T07:42:49.335Z</time>
      </trkpt>
      <trkpt lat="48.40801" lon="2.66453">
        <ele>173</ele>
        <time>2015-05-26T07:42:50.350Z</time>
      </trkpt>
      <trkpt lat="48.40803" lon="2.66441">
        <ele>179</ele>
        <time>2015-05-26T07:42:58.333Z</time>
      </trkpt>
      <trkpt lat="48.40803" lon="2.66439">
        <ele>179</ele>
        <time>2015-05-26T07:42:59.333Z</time>
      </trkpt>
      <trkpt lat="48.40802" lon="2.66426">
        <ele>179</ele>
        <time>2015-05-26T07:43:09.336Z</time>
      </trkpt>
      <trkpt lat="48.40802" lon="2.66424">
        <ele>181</ele>
        <time>2015-05-26T07:43:10.334Z</time>
      </trkpt>
      <trkpt lat="48.40805" lon="2.66412">
        <ele>182</ele>
        <time>2015-05-26T07:43:19.337Z</time>
      </trkpt>
      <trkpt lat="48.40805" lon="2.6641">
        <ele>181</ele>
        <time>2015-05-26T07:43:20.335Z</time>
      </trkpt>
      <trkpt lat="48.40802" lon="2.66399">
        <ele>183</ele>
        <time>2015-05-26T07:43:25.336Z</time>
      </trkpt>
      <trkpt lat="48.40802" lon="2.66396">
        <ele>184</ele>
        <time>2015-05-26T07:43:26.367Z</time>
      </trkpt>
      <trkpt lat="48.40801" lon="2.66384">
        <ele>189</ele>
        <time>2015-05-26T07:43:33.338Z</time>
      </trkpt>
      <trkpt lat="48.40801" lon="2.66383">
        <ele>189</ele>
        <time>2015-05-26T07:43:34.337Z</time>
      </trkpt>
      <trkpt lat="48.40802" lon="2.6637">
        <ele>186</ele>
        <time>2015-05-26T07:43:42.334Z</time>
      </trkpt>
      <trkpt lat="48.40802" lon="2.66368">
        <ele>186</ele>
        <time>2015-05-26T07:43:43.335Z</time>
      </trkpt>
      <trkpt lat="48.40804" lon="2.66356">
        <ele>185</ele>
        <time>2015-05-26T07:43:51.323Z</time>
      </trkpt>
      <trkpt lat="48.40804" lon="2.66353">
        <ele>184</ele>
        <time>2015-05-26T07:43:52.338Z</time>
      </trkpt>
      <trkpt lat="48.40804" lon="2.66341">
        <ele>179</ele>
        <time>2015-05-26T07:43:57.329Z</time>
      </trkpt>
      <trkpt lat="48.40804" lon="2.66339">
        <ele>178</ele>
        <time>2015-05-26T07:43:58.328Z</time>
      </trkpt>
      <trkpt lat="48.40807" lon="2.66328">
        <ele>178</ele>
        <time>2015-05-26T07:44:08.334Z</time>
      </trkpt>
      <trkpt lat="48.40807" lon="2.66326">
        <ele>179</ele>
        <time>2015-05-26T07:44:09.327Z</time>
      </trkpt>
      <trkpt lat="48.40808" lon="2.66314">
        <ele>181</ele>
        <time>2015-05-26T07:44:16.325Z</time>
      </trkpt>
      <trkpt lat="48.40808" lon="2.66313">
        <ele>180</ele>
        <time>2015-05-26T07:44:17.329Z</time>
      </trkpt>
      <trkpt lat="48.40806" lon="2.663">
        <ele>178</ele>
        <time>2015-05-26T07:44:21.316Z</time>
      </trkpt>
      <trkpt lat="48.40805" lon="2.66296">
        <ele>179</ele>
        <time>2015-05-26T07:44:22.332Z</time>
      </trkpt>
      <trkpt lat="48.40798" lon="2.66287">
        <ele>173</ele>
        <time>2015-05-26T07:44:29.315Z</time>
      </trkpt>
      <trkpt lat="48.40798" lon="2.66285">
        <ele>172</ele>
        <time>2015-05-26T07:44:30.332Z</time>
      </trkpt>
      <trkpt lat="48.40797" lon="2.66272">
        <ele>174</ele>
        <time>2015-05-26T07:44:38.336Z</time>
      </trkpt>
      <trkpt lat="48.40798" lon="2.66271">
        <ele>175</ele>
        <time>2015-05-26T07:44:39.324Z</time>
      </trkpt>
      <trkpt lat="48.40801" lon="2.66259">
        <ele>173</ele>
        <time>2015-05-26T07:44:46.323Z</time>
      </trkpt>
      <trkpt lat="48.40801" lon="2.66257">
        <ele>174</ele>
        <time>2015-05-26T07:44:47.340Z</time>
      </trkpt>
      <trkpt lat="48.40799" lon="2.66245">
        <ele>178</ele>
        <time>2015-05-26T07:44:53.336Z</time>
      </trkpt>
      <trkpt lat="48.40799" lon="2.66243">
        <ele>178</ele>
        <time>2015-05-26T07:44:54.339Z</time>
      </trkpt>
      <trkpt lat="48.40798" lon="2.66231">
        <ele>181</ele>
        <time>2015-05-26T07:45:01.324Z</time>
      </trkpt>
      <trkpt lat="48.40797" lon="2.66229">
        <ele>179</ele>
        <time>2015-05-26T07:45:02.360Z</time>
      </trkpt>
      <trkpt lat="48.40795" lon="2.66216">
        <ele>176</ele>
        <time>2015-05-26T07:45:09.334Z</time>
      </trkpt>
      <trkpt lat="48.40796" lon="2.66215">
        <ele>176</ele>
        <time>2015-05-26T07:45:10.335Z</time>
      </trkpt>
      <trkpt lat="48.40797" lon="2.66202">
        <ele>174</ele>
        <time>2015-05-26T07:45:20.330Z</time>
      </trkpt>
      <trkpt lat="48.40797" lon="2.662">
        <ele>173</ele>
        <time>2015-05-26T07:45:21.333Z</time>
      </trkpt>
      <trkpt lat="48.40793" lon="2.66189">
        <ele>175</ele>
        <time>2015-05-26T07:45:28.330Z</time>
      </trkpt>
      <trkpt lat="48.40792" lon="2.66187">
        <ele>175</ele>
        <time>2015-05-26T07:45:29.340Z</time>
      </trkpt>
      <trkpt lat="48.40787" lon="2.66178">
        <ele>176</ele>
        <time>2015-05-26T07:45:38.325Z</time>
      </trkpt>
      <trkpt lat="48.40787" lon="2.66176">
        <ele>175</ele>
        <time>2015-05-26T07:45:39.319Z</time>
      </trkpt>
      <trkpt lat="48.40784" lon="2.66164">
        <ele>180</ele>
        <time>2015-05-26T07:45:48.332Z</time>
      </trkpt>
      <trkpt lat="48.40783" lon="2.66163">
        <ele>181</ele>
        <time>2015-05-26T07:45:49.319Z</time>
      </trkpt>
      <trkpt lat="48.40779" lon="2.66151">
        <ele>181</ele>
        <time>2015-05-26T07:45:56.338Z</time>
      </trkpt>
      <trkpt lat="48.40779" lon="2.66149">
        <ele>180</ele>
        <time>2015-05-26T07:45:57.324Z</time>
      </trkpt>
      <trkpt lat="48.40775" lon="2.66137">
        <ele>180</ele>
        <time>2015-05-26T07:46:04.342Z</time>
      </trkpt>
      <trkpt lat="48.40775" lon="2.66136">
        <ele>180</ele>
        <time>2015-05-26T07:46:05.324Z</time>
      </trkpt>
      <trkpt lat="48.40772" lon="2.66125">
        <ele>179</ele>
        <time>2015-05-26T07:46:13.315Z</time>
      </trkpt>
      <trkpt lat="48.40772" lon="2.66123">
        <ele>179</ele>
        <time>2015-05-26T07:46:14.329Z</time>
      </trkpt>
      <trkpt lat="48.40771" lon="2.66112">
        <ele>178</ele>
        <time>2015-05-26T07:46:20.346Z</time>
      </trkpt>
      <trkpt lat="48.40771" lon="2.6611">
        <ele>179</ele>
        <time>2015-05-26T07:46:21.316Z</time>
      </trkpt>
      <trkpt lat="48.4077" lon="2.66098">
        <ele>178</ele>
        <time>2015-05-26T07:46:33.333Z</time>
      </trkpt>
      <trkpt lat="48.40769" lon="2.66096">
        <ele>180</ele>
        <time>2015-05-26T07:46:34.336Z</time>
      </trkpt>
      <trkpt lat="48.40768" lon="2.66085">
        <ele>182</ele>
        <time>2015-05-26T07:46:39.334Z</time>
      </trkpt>
      <trkpt lat="48.40768" lon="2.66082">
        <ele>182</ele>
        <time>2015-05-26T07:46:40.349Z</time>
      </trkpt>
      <trkpt lat="48.40766" lon="2.66069">
        <ele>175</ele>
        <time>2015-05-26T07:46:48.329Z</time>
      </trkpt>
      <trkpt lat="48.40765" lon="2.66068">
        <ele>175</ele>
        <time>2015-05-26T07:46:49.335Z</time>
      </trkpt>
      <trkpt lat="48.40764" lon="2.66055">
        <ele>176</ele>
        <time>2015-05-26T07:46:57.325Z</time>
      </trkpt>
      <trkpt lat="48.40763" lon="2.66054">
        <ele>175</ele>
        <time>2015-05-26T07:46:58.332Z</time>
      </trkpt>
      <trkpt lat="48.40764" lon="2.66041">
        <ele>179</ele>
        <time>2015-05-26T07:47:07.334Z</time>
      </trkpt>
      <trkpt lat="48.40764" lon="2.66039">
        <ele>178</ele>
        <time>2015-05-26T07:47:08.355Z</time>
      </trkpt>
      <trkpt lat="48.40762" lon="2.66027">
        <ele>179</ele>
        <time>2015-05-26T07:47:13.331Z</time>
      </trkpt>
      <trkpt lat="48.40762" lon="2.66025">
        <ele>178</ele>
        <time>2015-05-26T07:47:14.316Z</time>
      </trkpt>
      <trkpt lat="48.40762" lon="2.66013">
        <ele>178</ele>
        <time>2015-05-26T07:47:21.339Z</time>
      </trkpt>
      <trkpt lat="48.40762" lon="2.66011">
        <ele>177</ele>
        <time>2015-05-26T07:47:22.326Z</time>
      </trkpt>
      <trkpt lat="48.40759" lon="2.66">
        <ele>175</ele>
        <time>2015-05-26T07:47:30.333Z</time>
      </trkpt>
      <trkpt lat="48.40759" lon="2.65999">
        <ele>177</ele>
        <time>2015-05-26T07:47:31.334Z</time>
      </trkpt>
      <trkpt lat="48.40758" lon="2.65986">
        <ele>169</ele>
        <time>2015-05-26T07:47:40.340Z</time>
      </trkpt>
      <trkpt lat="48.40758" lon="2.65984">
        <ele>168</ele>
        <time>2015-05-26T07:47:41.325Z</time>
      </trkpt>
      <trkpt lat="48.40758" lon="2.65972">
        <ele>166</ele>
        <time>2015-05-26T07:47:45.325Z</time>
      </trkpt>
      <trkpt lat="48.40758" lon="2.65969">
        <ele>167</ele>
        <time>2015-05-26T07:47:46.321Z</time>
      </trkpt>
      <trkpt lat="48.40757" lon="2.65957">
        <ele>167</ele>
        <time>2015-05-26T07:47:52.332Z</time>
      </trkpt>
      <trkpt lat="48.40757" lon="2.65955">
        <ele>166</ele>
        <time>2015-05-26T07:47:53.334Z</time>
      </trkpt>
      <trkpt lat="48.40757" lon="2.65942">
        <ele>166</ele>
        <time>2015-05-26T07:48:02.333Z</time>
      </trkpt>
      <trkpt lat="48.40758" lon="2.6594">
        <ele>164</ele>
        <time>2015-05-26T07:48:03.341Z</time>
      </trkpt>
      <trkpt lat="48.40755" lon="2.65928">
        <ele>163</ele>
        <time>2015-05-26T07:48:10.341Z</time>
      </trkpt>
      <trkpt lat="48.40755" lon="2.65926">
        <ele>164</ele>
        <time>2015-05-26T07:48:11.337Z</time>
      </trkpt>
      <trkpt lat="48.40757" lon="2.65914">
        <ele>165</ele>
        <time>2015-05-26T07:48:19.336Z</time>
      </trkpt>
      <trkpt lat="48.40756" lon="2.65912">
        <ele>164</ele>
        <time>2015-05-26T07:48:20.334Z</time>
      </trkpt>
      <trkpt lat="48.40755" lon="2.659">
        <ele>167</ele>
        <time>2015-05-26T07:48:25.350Z</time>
      </trkpt>
      <trkpt lat="48.40755" lon="2.65897">
        <ele>168</ele>
        <time>2015-05-26T07:48:26.327Z</time>
      </trkpt>
      <trkpt lat="48.40758" lon="2.65885">
        <ele>169</ele>
        <time>2015-05-26T07:48:33.335Z</time>
      </trkpt>
      <trkpt lat="48.40759" lon="2.65884">
        <ele>168</ele>
        <time>2015-05-26T07:48:34.335Z</time>
      </trkpt>
      <trkpt lat="48.40762" lon="2.65872">
        <ele>169</ele>
        <time>2015-05-26T07:48:42.324Z</time>
      </trkpt>
      <trkpt lat="48.40763" lon="2.6587">
        <ele>169</ele>
        <time>2015-05-26T07:48:43.337Z</time>
      </trkpt>
      <trkpt lat="48.40764" lon="2.65857">
        <ele>173</ele>
        <time>2015-05-26T07:48:50.328Z</time>
      </trkpt>
      <trkpt lat="48.40764" lon="2.65855">
        <ele>175</ele>
        <time>2015-05-26T07:48:51.323Z</time>
      </trkpt>
      <trkpt lat="48.4077" lon="2.65845">
        <ele>177</ele>
        <time>2015-05-26T07:48:58.333Z</time>
      </trkpt>
      <trkpt lat="48.40771" lon="2.65843">
        <ele>179</ele>
        <time>2015-05-26T07:48:59.332Z</time>
      </trkpt>
      <trkpt lat="48.40775" lon="2.65834">
        <ele>178</ele>
        <time>2015-05-26T07:49:05.324Z</time>
      </trkpt>
      <trkpt lat="48.40776" lon="2.65833">
        <ele>179</ele>
        <time>2015-05-26T07:49:06.345Z</time>
      </trkpt>
      <trkpt lat="48.4078" lon="2.65821">
        <ele>176</ele>
        <time>2015-05-26T07:49:16.335Z</time>
      </trkpt>
      <trkpt lat="48.40781" lon="2.65819">
        <ele>177</ele>
        <time>2015-05-26T07:49:17.335Z</time>
      </trkpt>
      <trkpt lat="48.4078" lon="2.65806">
        <ele>172</ele>
        <time>2015-05-26T07:49:24.329Z</time>
      </trkpt>
      <trkpt lat="48.4078" lon="2.65804">
        <ele>172</ele>
        <time>2015-05-26T07:49:25.315Z</time>
      </trkpt>
      <trkpt lat="48.4078" lon="2.65791">
        <ele>174</ele>
        <time>2015-05-26T07:49:32.335Z</time>
      </trkpt>
      <trkpt lat="48.4078" lon="2.65789">
        <ele>174</ele>
        <time>2015-05-26T07:49:33.337Z</time>
      </trkpt>
      <trkpt lat="48.40781" lon="2.65775">
        <ele>176</ele>
        <time>2015-05-26T07:49:45.340Z</time>
      </trkpt>
      <trkpt lat="48.40781" lon="2.65774">
        <ele>177</ele>
        <time>2015-05-26T07:49:46.329Z</time>
      </trkpt>
      <trkpt lat="48.40782" lon="2.65761">
        <ele>178</ele>
        <time>2015-05-26T07:49:53.332Z</time>
      </trkpt>
      <trkpt lat="48.40782" lon="2.6576">
        <ele>178</ele>
        <time>2015-05-26T07:49:54.331Z</time>
      </trkpt>
      <trkpt lat="48.40779" lon="2.65747">
        <ele>176</ele>
        <time>2015-05-26T07:50:02.333Z</time>
      </trkpt>
      <trkpt lat="48.40779" lon="2.65745">
        <ele>178</ele>
        <time>2015-05-26T07:50:03.343Z</time>
      </trkpt>
      <trkpt lat="48.40781" lon="2.65733">
        <ele>174</ele>
        <time>2015-05-26T07:50:09.338Z</time>
      </trkpt>
      <trkpt lat="48.40782" lon="2.65731">
        <ele>175</ele>
        <time>2015-05-26T07:50:10.335Z</time>
      </trkpt>
      <trkpt lat="48.40784" lon="2.6572">
        <ele>173</ele>
        <time>2015-05-26T07:50:16.324Z</time>
      </trkpt>
      <trkpt lat="48.40785" lon="2.65718">
        <ele>174</ele>
        <time>2015-05-26T07:50:17.332Z</time>
      </trkpt>
      <trkpt lat="48.40789" lon="2.65706">
        <ele>178</ele>
        <time>2015-05-26T07:50:31.329Z</time>
      </trkpt>
      <trkpt lat="48.40789" lon="2.65705">
        <ele>178</ele>
        <time>2015-05-26T07:50:32.339Z</time>
      </trkpt>
      <trkpt lat="48.40792" lon="2.65693">
        <ele>178</ele>
        <time>2015-05-26T07:50:43.325Z</time>
      </trkpt>
      <trkpt lat="48.40792" lon="2.65691">
        <ele>178</ele>
        <time>2015-05-26T07:50:44.325Z</time>
      </trkpt>
      <trkpt lat="48.40794" lon="2.6568">
        <ele>177</ele>
        <time>2015-05-26T07:50:53.333Z</time>
      </trkpt>
      <trkpt lat="48.40794" lon="2.65678">
        <ele>176</ele>
        <time>2015-05-26T07:50:54.338Z</time>
      </trkpt>
      <trkpt lat="48.40797" lon="2.65666">
        <ele>177</ele>
        <time>2015-05-26T07:51:04.333Z</time>
      </trkpt>
      <trkpt lat="48.40798" lon="2.65664">
        <ele>177</ele>
        <time>2015-05-26T07:51:05.336Z</time>
      </trkpt>
      <trkpt lat="48.40795" lon="2.65652">
        <ele>177</ele>
        <time>2015-05-26T07:51:11.334Z</time>
      </trkpt>
      <trkpt lat="48.40795" lon="2.6565">
        <ele>177</ele>
        <time>2015-05-26T07:51:12.334Z</time>
      </trkpt>
      <trkpt lat="48.40791" lon="2.65638">
        <ele>177</ele>
        <time>2015-05-26T07:51:19.332Z</time>
      </trkpt>
      <trkpt lat="48.40791" lon="2.65636">
        <ele>175</ele>
        <time>2015-05-26T07:51:20.333Z</time>
      </trkpt>
      <trkpt lat="48.40793" lon="2.65624">
        <ele>179</ele>
        <time>2015-05-26T07:51:29.336Z</time>
      </trkpt>
      <trkpt lat="48.40793" lon="2.65623">
        <ele>179</ele>
        <time>2015-05-26T07:51:30.334Z</time>
      </trkpt>
      <trkpt lat="48.40792" lon="2.6561">
        <ele>176</ele>
        <time>2015-05-26T07:53:28.337Z</time>
      </trkpt>
      <trkpt lat="48.40792" lon="2.65609">
        <ele>177</ele>
        <time>2015-05-26T07:53:29.331Z</time>
      </trkpt>
      <trkpt lat="48.4079" lon="2.65597">
        <ele>176</ele>
        <time>2015-05-26T07:53:39.324Z</time>
      </trkpt>
      <trkpt lat="48.4079" lon="2.65596">
        <ele>175</ele>
        <time>2015-05-26T07:53:40.332Z</time>
      </trkpt>
      <trkpt lat="48.4079" lon="2.65582">
        <ele>175</ele>
        <time>2015-05-26T07:53:52.327Z</time>
      </trkpt>
      <trkpt lat="48.4079" lon="2.65582">
        <ele>175</ele>
        <time>2015-05-26T07:53:53.318Z</time>
      </trkpt>
      <trkpt lat="48.40787" lon="2.6557">
        <ele>178</ele>
        <time>2015-05-26T07:54:17.334Z</time>
      </trkpt>
      <trkpt lat="48.40786" lon="2.65569">
        <ele>178</ele>
        <time>2015-05-26T07:54:18.337Z</time>
      </trkpt>
      <trkpt lat="48.4078" lon="2.6556">
        <ele>183</ele>
        <time>2015-05-26T07:54:29.332Z</time>
      </trkpt>
      <trkpt lat="48.40779" lon="2.65559">
        <ele>182</ele>
        <time>2015-05-26T07:54:30.336Z</time>
      </trkpt>
      <trkpt lat="48.40773" lon="2.6555">
        <ele>183</ele>
        <time>2015-05-26T07:54:39.337Z</time>
      </trkpt>
      <trkpt lat="48.40772" lon="2.65549">
        <ele>183</ele>
        <time>2015-05-26T07:54:40.332Z</time>
      </trkpt>
      <trkpt lat="48.40768" lon="2.65539">
        <ele>185</ele>
        <time>2015-05-26T07:54:46.324Z</time>
      </trkpt>
      <trkpt lat="48.40767" lon="2.65537">
        <ele>185</ele>
        <time>2015-05-26T07:54:47.325Z</time>
      </trkpt>
      <trkpt lat="48.40762" lon="2.65526">
        <ele>184</ele>
        <time>2015-05-26T07:54:53.331Z</time>
      </trkpt>
      <trkpt lat="48.40761" lon="2.65524">
        <ele>184</ele>
        <time>2015-05-26T07:54:54.343Z</time>
      </trkpt>
      <trkpt lat="48.4076" lon="2.65512">
        <ele>187</ele>
        <time>2015-05-26T07:55:00.329Z</time>
      </trkpt>
      <trkpt lat="48.4076" lon="2.65511">
        <ele>186</ele>
        <time>2015-05-26T07:55:01.325Z</time>
      </trkpt>
      <trkpt lat="48.40759" lon="2.65498">
        <ele>183</ele>
        <time>2015-05-26T07:55:08.350Z</time>
      </trkpt>
      <trkpt lat="48.40759" lon="2.65497">
        <ele>182</ele>
        <time>2015-05-26T07:55:09.341Z</time>
      </trkpt>
      <trkpt lat="48.40763" lon="2.65486">
        <ele>181</ele>
        <time>2015-05-26T07:55:17.333Z</time>
      </trkpt>
      <trkpt lat="48.40764" lon="2.65483">
        <ele>182</ele>
        <time>2015-05-26T07:55:18.334Z</time>
      </trkpt>
      <trkpt lat="48.40768" lon="2.65473">
        <ele>183</ele>
        <time>2015-05-26T07:55:23.333Z</time>
      </trkpt>
      <trkpt lat="48.40768" lon="2.65471">
        <ele>180</ele>
        <time>2015-05-26T07:55:24.334Z</time>
      </trkpt>
      <trkpt lat="48.40772" lon="2.65458">
        <ele>180</ele>
        <time>2015-05-26T07:55:31.330Z</time>
      </trkpt>
      <trkpt lat="48.40772" lon="2.65456">
        <ele>180</ele>
        <time>2015-05-26T07:55:32.339Z</time>
      </trkpt>
      <trkpt lat="48.40774" lon="2.65445">
        <ele>178</ele>
        <time>2015-05-26T07:55:38.334Z</time>
      </trkpt>
      <trkpt lat="48.40773" lon="2.65442">
        <ele>179</ele>
        <time>2015-05-26T07:55:39.331Z</time>
      </trkpt>
      <trkpt lat="48.40775" lon="2.65429">
        <ele>182</ele>
        <time>2015-05-26T07:55:45.333Z</time>
      </trkpt>
      <trkpt lat="48.40775" lon="2.65428">
        <ele>181</ele>
        <time>2015-05-26T07:55:46.324Z</time>
      </trkpt>
      <trkpt lat="48.40778" lon="2.65417">
        <ele>179</ele>
        <time>2015-05-26T07:55:56.316Z</time>
      </trkpt>
      <trkpt lat="48.40778" lon="2.65415">
        <ele>181</ele>
        <time>2015-05-26T07:55:57.332Z</time>
      </trkpt>
      <trkpt lat="48.4078" lon="2.65403">
        <ele>179</ele>
        <time>2015-05-26T07:56:04.324Z</time>
      </trkpt>
      <trkpt lat="48.4078" lon="2.65401">
        <ele>179</ele>
        <time>2015-05-26T07:56:05.339Z</time>
      </trkpt>
      <trkpt lat="48.40779" lon="2.65389">
        <ele>183</ele>
        <time>2015-05-26T07:56:14.341Z</time>
      </trkpt>
      <trkpt lat="48.40779" lon="2.65387">
        <ele>183</ele>
        <time>2015-05-26T07:56:15.333Z</time>
      </trkpt>
      <trkpt lat="48.40779" lon="2.65374">
        <ele>183</ele>
        <time>2015-05-26T07:56:24.337Z</time>
      </trkpt>
      <trkpt lat="48.40779" lon="2.65373">
        <ele>184</ele>
        <time>2015-05-26T07:56:25.334Z</time>
      </trkpt>
      <trkpt lat="48.40782" lon="2.65361">
        <ele>179</ele>
        <time>2015-05-26T07:56:33.328Z</time>
      </trkpt>
      <trkpt lat="48.40782" lon="2.6536">
        <ele>177</ele>
        <time>2015-05-26T07:56:34.342Z</time>
      </trkpt>
      <trkpt lat="48.40783" lon="2.65347">
        <ele>178</ele>
        <time>2015-05-26T07:56:40.334Z</time>
      </trkpt>
      <trkpt lat="48.40783" lon="2.65345">
        <ele>178</ele>
        <time>2015-05-26T07:56:41.340Z</time>
      </trkpt>
      <trkpt lat="48.40784" lon="2.65333">
        <ele>178</ele>
        <time>2015-05-26T07:56:48.340Z</time>
      </trkpt>
      <trkpt lat="48.40784" lon="2.65331">
        <ele>178</ele>
        <time>2015-05-26T07:56:49.332Z</time>
      </trkpt>
      <trkpt lat="48.40783" lon="2.65318">
        <ele>177</ele>
        <time>2015-05-26T07:56:56.330Z</time>
      </trkpt>
      <trkpt lat="48.40784" lon="2.65316">
        <ele>177</ele>
        <time>2015-05-26T07:56:57.335Z</time>
      </trkpt>
      <trkpt lat="48.40783" lon="2.65304">
        <ele>172</ele>
        <time>2015-05-26T07:57:05.337Z</time>
      </trkpt>
      <trkpt lat="48.40783" lon="2.65303">
        <ele>171</ele>
        <time>2015-05-26T07:57:06.330Z</time>
      </trkpt>
      <trkpt lat="48.40782" lon="2.65289">
        <ele>170</ele>
        <time>2015-05-26T07:57:14.331Z</time>
      </trkpt>
      <trkpt lat="48.40782" lon="2.65287">
        <ele>170</ele>
        <time>2015-05-26T07:57:15.332Z</time>
      </trkpt>
      <trkpt lat="48.40783" lon="2.65276">
        <ele>172</ele>
        <time>2015-05-26T07:57:20.334Z</time>
      </trkpt>
      <trkpt lat="48.40783" lon="2.65273">
        <ele>172</ele>
        <time>2015-05-26T07:57:21.331Z</time>
      </trkpt>
      <trkpt lat="48.40785" lon="2.6526">
        <ele>174</ele>
        <time>2015-05-26T07:57:29.332Z</time>
      </trkpt>
      <trkpt lat="48.40786" lon="2.65259">
        <ele>173</ele>
        <time>2015-05-26T07:57:30.325Z</time>
      </trkpt>
      <trkpt lat="48.40787" lon="2.65247">
        <ele>172</ele>
        <time>2015-05-26T07:57:37.315Z</time>
      </trkpt>
      <trkpt lat="48.40787" lon="2.65245">
        <ele>174</ele>
        <time>2015-05-26T07:57:38.335Z</time>
      </trkpt>
      <trkpt lat="48.4079" lon="2.65232">
        <ele>173</ele>
        <time>2015-05-26T07:57:45.326Z</time>
      </trkpt>
      <trkpt lat="48.4079" lon="2.6523">
        <ele>172</ele>
        <time>2015-05-26T07:57:46.318Z</time>
      </trkpt>
      <trkpt lat="48.40789" lon="2.65218">
        <ele>173</ele>
        <time>2015-05-26T07:57:51.317Z</time>
      </trkpt>
      <trkpt lat="48.40789" lon="2.65216">
        <ele>172</ele>
        <time>2015-05-26T07:57:52.329Z</time>
      </trkpt>
      <trkpt lat="48.40789" lon="2.65204">
        <ele>172</ele>
        <time>2015-05-26T07:58:00.332Z</time>
      </trkpt>
      <trkpt lat="48.40789" lon="2.65202">
        <ele>172</ele>
        <time>2015-05-26T07:58:01.317Z</time>
      </trkpt>
      <trkpt lat="48.40785" lon="2.6519">
        <ele>171</ele>
        <time>2015-05-26T07:58:10.331Z</time>
      </trkpt>
      <trkpt lat="48.40784" lon="2.65189">
        <ele>172</ele>
        <time>2015-05-26T07:58:11.315Z</time>
      </trkpt>
      <trkpt lat="48.40783" lon="2.65177">
        <ele>168</ele>
        <time>2015-05-26T07:58:17.332Z</time>
      </trkpt>
      <trkpt lat="48.40784" lon="2.65175">
        <ele>168</ele>
        <time>2015-05-26T07:58:18.335Z</time>
      </trkpt>
      <trkpt lat="48.4079" lon="2.65166">
        <ele>166</ele>
        <time>2015-05-26T07:58:25.330Z</time>
      </trkpt>
      <trkpt lat="48.40791" lon="2.65165">
        <ele>164</ele>
        <time>2015-05-26T07:58:26.330Z</time>
      </trkpt>
      <trkpt lat="48.4079" lon="2.65152">
        <ele>166</ele>
        <time>2015-05-26T07:58:34.324Z</time>
      </trkpt>
      <trkpt lat="48.4079" lon="2.6515">
        <ele>166</ele>
        <time>2015-05-26T07:58:35.315Z</time>
      </trkpt>
      <trkpt lat="48.40788" lon="2.65138">
        <ele>164</ele>
        <time>2015-05-26T07:58:42.331Z</time>
      </trkpt>
      <trkpt lat="48.40787" lon="2.65136">
        <ele>162</ele>
        <time>2015-05-26T07:58:43.319Z</time>
      </trkpt>
      <trkpt lat="48.40781" lon="2.65128">
        <ele>159</ele>
        <time>2015-05-26T07:58:49.339Z</time>
      </trkpt>
      <trkpt lat="48.4078" lon="2.65126">
        <ele>160</ele>
        <time>2015-05-26T07:58:50.332Z</time>
      </trkpt>
      <trkpt lat="48.40774" lon="2.65117">
        <ele>161</ele>
        <time>2015-05-26T07:58:57.320Z</time>
      </trkpt>
      <trkpt lat="48.40772" lon="2.65116">
        <ele>160</ele>
        <time>2015-05-26T07:58:58.338Z</time>
      </trkpt>
      <trkpt lat="48.40765" lon="2.6511">
        <ele>163</ele>
        <time>2015-05-26T07:59:05.339Z</time>
      </trkpt>
      <trkpt lat="48.40764" lon="2.65109">
        <ele>164</ele>
        <time>2015-05-26T07:59:06.334Z</time>
      </trkpt>
      <trkpt lat="48.40757" lon="2.65105">
        <ele>162</ele>
        <time>2015-05-26T07:59:12.346Z</time>
      </trkpt>
      <trkpt lat="48.40756" lon="2.65105">
        <ele>161</ele>
        <time>2015-05-26T07:59:13.335Z</time>
      </trkpt>
      <trkpt lat="48.40748" lon="2.65099">
        <ele>160</ele>
        <time>2015-05-26T07:59:22.335Z</time>
      </trkpt>
      <trkpt lat="48.40747" lon="2.65098">
        <ele>160</ele>
        <time>2015-05-26T07:59:23.332Z</time>
      </trkpt>
      <trkpt lat="48.4074" lon="2.65091">
        <ele>162</ele>
        <time>2015-05-26T07:59:30.338Z</time>
      </trkpt>
      <trkpt lat="48.40739" lon="2.6509">
        <ele>163</ele>
        <time>2015-05-26T07:59:31.325Z</time>
      </trkpt>
      <trkpt lat="48.40733" lon="2.65081">
        <ele>161</ele>
        <time>2015-05-26T07:59:40.340Z</time>
      </trkpt>
      <trkpt lat="48.40732" lon="2.6508">
        <ele>160</ele>
        <time>2015-05-26T07:59:41.313Z</time>
      </trkpt>
      <trkpt lat="48.40728" lon="2.65071">
        <ele>157</ele>
        <time>2015-05-26T07:59:50.335Z</time>
      </trkpt>
      <trkpt lat="48.40727" lon="2.65069">
        <ele>157</ele>
        <time>2015-05-26T07:59:51.321Z</time>
      </trkpt>
      <trkpt lat="48.40722" lon="2.65059">
        <ele>153</ele>
        <time>2015-05-26T07:59:57.335Z</time>
      </trkpt>
      <trkpt lat="48.40722" lon="2.65057">
        <ele>154</ele>
        <time>2015-05-26T07:59:58.336Z</time>
      </trkpt>
      <trkpt lat="48.4072" lon="2.65044">
        <ele>154</ele>
        <time>2015-05-26T08:00:06.323Z</time>
      </trkpt>
      <trkpt lat="48.4072" lon="2.65042">
        <ele>154</ele>
        <time>2015-05-26T08:00:07.327Z</time>
      </trkpt>
      <trkpt lat="48.40716" lon="2.65032">
        <ele>147</ele>
        <time>2015-05-26T08:00:15.333Z</time>
      </trkpt>
      <trkpt lat="48.40715" lon="2.65031">
        <ele>148</ele>
        <time>2015-05-26T08:00:16.331Z</time>
      </trkpt>
      <trkpt lat="48.40707" lon="2.65024">
        <ele>149</ele>
        <time>2015-05-26T08:00:22.329Z</time>
      </trkpt>
      <trkpt lat="48.40706" lon="2.65023">
        <ele>150</ele>
        <time>2015-05-26T08:00:23.334Z</time>
      </trkpt>
      <trkpt lat="48.407" lon="2.65016">
        <ele>152</ele>
        <time>2015-05-26T08:00:28.329Z</time>
      </trkpt>
      <trkpt lat="48.40699" lon="2.65014">
        <ele>152</ele>
        <time>2015-05-26T08:00:29.329Z</time>
      </trkpt>
      <trkpt lat="48.40699" lon="2.65002">
        <ele>153</ele>
        <time>2015-05-26T08:00:36.333Z</time>
      </trkpt>
      <trkpt lat="48.40698" lon="2.65">
        <ele>153</ele>
        <time>2015-05-26T08:00:37.326Z</time>
      </trkpt>
      <trkpt lat="48.40693" lon="2.64991">
        <ele>153</ele>
        <time>2015-05-26T08:00:43.334Z</time>
      </trkpt>
      <trkpt lat="48.40692" lon="2.64989">
        <ele>152</ele>
        <time>2015-05-26T08:00:44.366Z</time>
      </trkpt>
      <trkpt lat="48.40685" lon="2.64983">
        <ele>152</ele>
        <time>2015-05-26T08:00:49.324Z</time>
      </trkpt>
      <trkpt lat="48.40684" lon="2.64981">
        <ele>154</ele>
        <time>2015-05-26T08:00:50.316Z</time>
      </trkpt>
      <trkpt lat="48.4068" lon="2.64971">
        <ele>160</ele>
        <time>2015-05-26T08:00:56.331Z</time>
      </trkpt>
      <trkpt lat="48.40679" lon="2.64969">
        <ele>159</ele>
        <time>2015-05-26T08:00:57.335Z</time>
      </trkpt>
      <trkpt lat="48.40673" lon="2.6496">
        <ele>160</ele>
        <time>2015-05-26T08:01:06.341Z</time>
      </trkpt>
      <trkpt lat="48.40672" lon="2.64959">
        <ele>160</ele>
        <time>2015-05-26T08:01:07.333Z</time>
      </trkpt>
      <trkpt lat="48.40665" lon="2.64952">
        <ele>160</ele>
        <time>2015-05-26T08:01:12.329Z</time>
      </trkpt>
      <trkpt lat="48.40664" lon="2.64951">
        <ele>160</ele>
        <time>2015-05-26T08:01:13.332Z</time>
      </trkpt>
      <trkpt lat="48.40662" lon="2.64939">
        <ele>157</ele>
        <time>2015-05-26T08:01:19.333Z</time>
      </trkpt>
      <trkpt lat="48.40661" lon="2.64937">
        <ele>157</ele>
        <time>2015-05-26T08:01:20.332Z</time>
      </trkpt>
      <trkpt lat="48.40661" lon="2.64925">
        <ele>157</ele>
        <time>2015-05-26T08:01:25.333Z</time>
      </trkpt>
      <trkpt lat="48.40661" lon="2.64923">
        <ele>154</ele>
        <time>2015-05-26T08:01:26.332Z</time>
      </trkpt>
      <trkpt lat="48.40664" lon="2.64911">
        <ele>152</ele>
        <time>2015-05-26T08:01:32.323Z</time>
      </trkpt>
      <trkpt lat="48.40663" lon="2.6491">
        <ele>153</ele>
        <time>2015-05-26T08:01:33.332Z</time>
      </trkpt>
      <trkpt lat="48.4066" lon="2.64897">
        <ele>152</ele>
        <time>2015-05-26T08:01:42.315Z</time>
      </trkpt>
      <trkpt lat="48.4066" lon="2.64896">
        <ele>151</ele>
        <time>2015-05-26T08:01:43.327Z</time>
      </trkpt>
      <trkpt lat="48.40657" lon="2.64884">
        <ele>152</ele>
        <time>2015-05-26T08:01:52.325Z</time>
      </trkpt>
      <trkpt lat="48.40657" lon="2.64882">
        <ele>150</ele>
        <time>2015-05-26T08:01:53.348Z</time>
      </trkpt>
      <trkpt lat="48.40654" lon="2.6487">
        <ele>154</ele>
        <time>2015-05-26T08:02:13.338Z</time>
      </trkpt>
      <trkpt lat="48.40654" lon="2.64869">
        <ele>154</ele>
        <time>2015-05-26T08:02:14.329Z</time>
      </trkpt>
      <trkpt lat="48.4065" lon="2.64858">
        <ele>152</ele>
        <time>2015-05-26T08:02:26.330Z</time>
      </trkpt>
      <trkpt lat="48.40649" lon="2.64857">
        <ele>151</ele>
        <time>2015-05-26T08:02:27.325Z</time>
      </trkpt>
      <trkpt lat="48.40648" lon="2.64844">
        <ele>153</ele>
        <time>2015-05-26T08:02:38.332Z</time>
      </trkpt>
      <trkpt lat="48.40647" lon="2.64843">
        <ele>152</ele>
        <time>2015-05-26T08:02:39.337Z</time>
      </trkpt>
      <trkpt lat="48.40641" lon="2.64833">
        <ele>151</ele>
        <time>2015-05-26T08:02:45.329Z</time>
      </trkpt>
      <trkpt lat="48.4064" lon="2.64831">
        <ele>151</ele>
        <time>2015-05-26T08:02:46.324Z</time>
      </trkpt>
      <trkpt lat="48.40645" lon="2.6482">
        <ele>160</ele>
        <time>2015-05-26T08:03:10.326Z</time>
      </trkpt>
      <trkpt lat="48.40645" lon="2.64819">
        <ele>160</ele>
        <time>2015-05-26T08:03:11.317Z</time>
      </trkpt>
      <trkpt lat="48.40647" lon="2.64807">
        <ele>166</ele>
        <time>2015-05-26T08:04:43.340Z</time>
      </trkpt>
      <trkpt lat="48.40648" lon="2.64805">
        <ele>166</ele>
        <time>2015-05-26T08:04:44.335Z</time>
      </trkpt>
      <trkpt lat="48.40641" lon="2.64798">
        <ele>175</ele>
        <time>2015-05-26T08:05:54.315Z</time>
      </trkpt>
      <trkpt lat="48.4064" lon="2.64798">
        <ele>175</ele>
        <time>2015-05-26T08:05:55.332Z</time>
      </trkpt>
      <trkpt lat="48.40636" lon="2.64785">
        <ele>176</ele>
        <time>2015-05-26T08:06:08.334Z</time>
      </trkpt>
      <trkpt lat="48.40636" lon="2.64784">
        <ele>174</ele>
        <time>2015-05-26T08:06:09.332Z</time>
      </trkpt>
      <trkpt lat="48.40642" lon="2.64774">
        <ele>165</ele>
        <time>2015-05-26T08:06:22.332Z</time>
      </trkpt>
      <trkpt lat="48.40642" lon="2.64774">
        <ele>165</ele>
        <time>2015-05-26T08:06:23.334Z</time>
      </trkpt>
      <trkpt lat="48.40641" lon="2.64762">
        <ele>169</ele>
        <time>2015-05-26T08:06:35.326Z</time>
      </trkpt>
      <trkpt lat="48.40642" lon="2.64759">
        <ele>168</ele>
        <time>2015-05-26T08:06:36.327Z</time>
      </trkpt>
      <trkpt lat="48.40645" lon="2.64748">
        <ele>168</ele>
        <time>2015-05-26T08:06:43.335Z</time>
      </trkpt>
      <trkpt lat="48.40645" lon="2.64747">
        <ele>169</ele>
        <time>2015-05-26T08:06:44.341Z</time>
      </trkpt>
      <trkpt lat="48.40652" lon="2.64738">
        <ele>164</ele>
        <time>2015-05-26T08:07:17.336Z</time>
      </trkpt>
      <trkpt lat="48.40652" lon="2.64738">
        <ele>164</ele>
        <time>2015-05-26T08:07:18.333Z</time>
      </trkpt>
      <trkpt lat="48.40653" lon="2.64725">
        <ele>165</ele>
        <time>2015-05-26T08:08:26.322Z</time>
      </trkpt>
      <trkpt lat="48.40653" lon="2.64723">
        <ele>165</ele>
        <time>2015-05-26T08:08:27.359Z</time>
      </trkpt>
      <trkpt lat="48.40658" lon="2.64712">
        <ele>168</ele>
        <time>2015-05-26T08:08:35.316Z</time>
      </trkpt>
      <trkpt lat="48.40659" lon="2.64711">
        <ele>169</ele>
        <time>2015-05-26T08:08:36.335Z</time>
      </trkpt>
      <trkpt lat="48.40662" lon="2.647">
        <ele>175</ele>
        <time>2015-05-26T08:08:43.359Z</time>
      </trkpt>
      <trkpt lat="48.40662" lon="2.64697">
        <ele>173</ele>
        <time>2015-05-26T08:08:44.331Z</time>
      </trkpt>
      <trkpt lat="48.40661" lon="2.64684">
        <ele>175</ele>
        <time>2015-05-26T08:08:51.341Z</time>
      </trkpt>
      <trkpt lat="48.40661" lon="2.64683">
        <ele>174</ele>
        <time>2015-05-26T08:08:52.325Z</time>
      </trkpt>
      <trkpt lat="48.40666" lon="2.64672">
        <ele>182</ele>
        <time>2015-05-26T08:09:06.320Z</time>
      </trkpt>
      <trkpt lat="48.40667" lon="2.64672">
        <ele>182</ele>
        <time>2015-05-26T08:09:07.338Z</time>
      </trkpt>
      <trkpt lat="48.40673" lon="2.64664">
        <ele>188</ele>
        <time>2015-05-26T08:09:12.319Z</time>
      </trkpt>
      <trkpt lat="48.40673" lon="2.64662">
        <ele>188</ele>
        <time>2015-05-26T08:09:13.331Z</time>
      </trkpt>
      <trkpt lat="48.40675" lon="2.64649">
        <ele>183</ele>
        <time>2015-05-26T08:09:23.333Z</time>
      </trkpt>
      <trkpt lat="48.40675" lon="2.64648">
        <ele>183</ele>
        <time>2015-05-26T08:09:24.329Z</time>
      </trkpt>
      <trkpt lat="48.40672" lon="2.64636">
        <ele>181</ele>
        <time>2015-05-26T08:09:42.329Z</time>
      </trkpt>
      <trkpt lat="48.40672" lon="2.64636">
        <ele>181</ele>
        <time>2015-05-26T08:09:43.337Z</time>
      </trkpt>
      <trkpt lat="48.4067" lon="2.64623">
        <ele>184</ele>
        <time>2015-05-26T08:10:17.333Z</time>
      </trkpt>
      <trkpt lat="48.4067" lon="2.64622">
        <ele>186</ele>
        <time>2015-05-26T08:10:18.326Z</time>
      </trkpt>
      <trkpt lat="48.40672" lon="2.64609">
        <ele>187</ele>
        <time>2015-05-26T08:10:25.379Z</time>
      </trkpt>
      <trkpt lat="48.40672" lon="2.64608">
        <ele>186</ele>
        <time>2015-05-26T08:10:26.332Z</time>
      </trkpt>
      <trkpt lat="48.40667" lon="2.64597">
        <ele>182</ele>
        <time>2015-05-26T08:10:36.326Z</time>
      </trkpt>
      <trkpt lat="48.40667" lon="2.64596">
        <ele>182</ele>
        <time>2015-05-26T08:10:37.322Z</time>
      </trkpt>
      <trkpt lat="48.40665" lon="2.64584">
        <ele>176</ele>
        <time>2015-05-26T08:10:48.331Z</time>
      </trkpt>
      <trkpt lat="48.40665" lon="2.64583">
        <ele>177</ele>
        <time>2015-05-26T08:10:49.346Z</time>
      </trkpt>
      <trkpt lat="48.40662" lon="2.6457">
        <ele>181</ele>
        <time>2015-05-26T08:10:59.335Z</time>
      </trkpt>
      <trkpt lat="48.40662" lon="2.64569">
        <ele>181</ele>
        <time>2015-05-26T08:11:00.341Z</time>
      </trkpt>
      <trkpt lat="48.40664" lon="2.64557">
        <ele>183</ele>
        <time>2015-05-26T08:11:08.324Z</time>
      </trkpt>
      <trkpt lat="48.40664" lon="2.64555">
        <ele>183</ele>
        <time>2015-05-26T08:11:09.333Z</time>
      </trkpt>
      <trkpt lat="48.40661" lon="2.64543">
        <ele>180</ele>
        <time>2015-05-26T08:11:17.329Z</time>
      </trkpt>
      <trkpt lat="48.4066" lon="2.64542">
        <ele>180</ele>
        <time>2015-05-26T08:11:18.332Z</time>
      </trkpt>
      <trkpt lat="48.40659" lon="2.64529">
        <ele>185</ele>
        <time>2015-05-26T08:11:36.319Z</time>
      </trkpt>
      <trkpt lat="48.40659" lon="2.64529">
        <ele>185</ele>
        <time>2015-05-26T08:11:37.323Z</time>
      </trkpt>
      <trkpt lat="48.40654" lon="2.64518">
        <ele>193</ele>
        <time>2015-05-26T08:13:47.315Z</time>
      </trkpt>
      <trkpt lat="48.40654" lon="2.64518">
        <ele>193</ele>
        <time>2015-05-26T08:13:48.316Z</time>
      </trkpt>
      <trkpt lat="48.40645" lon="2.64519">
        <ele>192</ele>
        <time>2015-05-26T08:14:14.333Z</time>
      </trkpt>
      <trkpt lat="48.40645" lon="2.64518">
        <ele>194</ele>
        <time>2015-05-26T08:14:15.334Z</time>
      </trkpt>
      <trkpt lat="48.40638" lon="2.64509">
        <ele>182</ele>
        <time>2015-05-26T08:14:51.334Z</time>
      </trkpt>
      <trkpt lat="48.40638" lon="2.64508">
        <ele>181</ele>
        <time>2015-05-26T08:14:52.326Z</time>
      </trkpt>
      <trkpt lat="48.40631" lon="2.645">
        <ele>179</ele>
        <time>2015-05-26T08:14:59.333Z</time>
      </trkpt>
      <trkpt lat="48.4063" lon="2.64499">
        <ele>180</ele>
        <time>2015-05-26T08:15:00.345Z</time>
      </trkpt>
      <trkpt lat="48.40635" lon="2.64488">
        <ele>183</ele>
        <time>2015-05-26T08:15:46.316Z</time>
      </trkpt>
      <trkpt lat="48.40636" lon="2.64487">
        <ele>181</ele>
        <time>2015-05-26T08:15:47.315Z</time>
      </trkpt>
      <trkpt lat="48.40643" lon="2.64481">
        <ele>188</ele>
        <time>2015-05-26T08:15:52.440Z</time>
      </trkpt>
      <trkpt lat="48.40644" lon="2.6448">
        <ele>188</ele>
        <time>2015-05-26T08:15:53.333Z</time>
      </trkpt>
      <trkpt lat="48.40649" lon="2.64469">
        <ele>185</ele>
        <time>2015-05-26T08:15:59.335Z</time>
      </trkpt>
      <trkpt lat="48.4065" lon="2.64467">
        <ele>185</ele>
        <time>2015-05-26T08:16:00.335Z</time>
      </trkpt>
      <trkpt lat="48.40655" lon="2.64458">
        <ele>186</ele>
        <time>2015-05-26T08:16:05.318Z</time>
      </trkpt>
      <trkpt lat="48.40656" lon="2.64457">
        <ele>187</ele>
        <time>2015-05-26T08:16:06.332Z</time>
      </trkpt>
      <trkpt lat="48.40659" lon="2.64444">
        <ele>183</ele>
        <time>2015-05-26T08:16:13.333Z</time>
      </trkpt>
      <trkpt lat="48.40659" lon="2.64443">
        <ele>183</ele>
        <time>2015-05-26T08:16:14.317Z</time>
      </trkpt>
      <trkpt lat="48.40663" lon="2.64431">
        <ele>183</ele>
        <time>2015-05-26T08:16:24.339Z</time>
      </trkpt>
      <trkpt lat="48.40664" lon="2.6443">
        <ele>184</ele>
        <time>2015-05-26T08:16:25.380Z</time>
      </trkpt>
      <trkpt lat="48.40668" lon="2.64419">
        <ele>183</ele>
        <time>2015-05-26T08:16:33.330Z</time>
      </trkpt>
      <trkpt lat="48.40668" lon="2.64417">
        <ele>183</ele>
        <time>2015-05-26T08:16:34.333Z</time>
      </trkpt>
      <trkpt lat="48.40669" lon="2.64404">
        <ele>177</ele>
        <time>2015-05-26T08:16:47.330Z</time>
      </trkpt>
      <trkpt lat="48.4067" lon="2.64403">
        <ele>177</ele>
        <time>2015-05-26T08:16:48.332Z</time>
      </trkpt>
      <trkpt lat="48.40671" lon="2.64391">
        <ele>176</ele>
        <time>2015-05-26T08:16:55.316Z</time>
      </trkpt>
      <trkpt lat="48.40671" lon="2.64389">
        <ele>175</ele>
        <time>2015-05-26T08:16:56.329Z</time>
      </trkpt>
      <trkpt lat="48.40669" lon="2.64376">
        <ele>173</ele>
        <time>2015-05-26T08:17:11.315Z</time>
      </trkpt>
      <trkpt lat="48.40669" lon="2.64375">
        <ele>173</ele>
        <time>2015-05-26T08:17:12.327Z</time>
      </trkpt>
      <trkpt lat="48.40673" lon="2.64364">
        <ele>179</ele>
        <time>2015-05-26T08:17:18.324Z</time>
      </trkpt>
      <trkpt lat="48.40674" lon="2.64361">
        <ele>179</ele>
        <time>2015-05-26T08:17:19.332Z</time>
      </trkpt>
      <trkpt lat="48.40676" lon="2.64349">
        <ele>179</ele>
        <time>2015-05-26T08:17:24.333Z</time>
      </trkpt>
      <trkpt lat="48.40676" lon="2.64347">
        <ele>178</ele>
        <time>2015-05-26T08:17:25.381Z</time>
      </trkpt>
      <trkpt lat="48.40678" lon="2.64334">
        <ele>173</ele>
        <time>2015-05-26T08:17:31.318Z</time>
      </trkpt>
      <trkpt lat="48.40678" lon="2.64333">
        <ele>173</ele>
        <time>2015-05-26T08:17:32.319Z</time>
      </trkpt>
      <trkpt lat="48.40676" lon="2.6432">
        <ele>172</ele>
        <time>2015-05-26T08:17:43.339Z</time>
      </trkpt>
      <trkpt lat="48.40676" lon="2.64319">
        <ele>171</ele>
        <time>2015-05-26T08:17:44.325Z</time>
      </trkpt>
      <trkpt lat="48.40672" lon="2.64307">
        <ele>172</ele>
        <time>2015-05-26T08:17:54.320Z</time>
      </trkpt>
      <trkpt lat="48.40671" lon="2.64306">
        <ele>173</ele>
        <time>2015-05-26T08:17:55.329Z</time>
      </trkpt>
      <trkpt lat="48.40664" lon="2.64299">
        <ele>170</ele>
        <time>2015-05-26T08:18:11.335Z</time>
      </trkpt>
      <trkpt lat="48.40664" lon="2.64299">
        <ele>169</ele>
        <time>2015-05-26T08:18:12.329Z</time>
      </trkpt>
      <trkpt lat="48.40663" lon="2.64286">
        <ele>173</ele>
        <time>2015-05-26T08:18:49.337Z</time>
      </trkpt>
      <trkpt lat="48.40663" lon="2.64285">
        <ele>174</ele>
        <time>2015-05-26T08:18:50.341Z</time>
      </trkpt>
      <trkpt lat="48.4066" lon="2.64273">
        <ele>177</ele>
        <time>2015-05-26T08:19:15.343Z</time>
      </trkpt>
      <trkpt lat="48.4066" lon="2.64272">
        <ele>177</ele>
        <time>2015-05-26T08:19:16.328Z</time>
      </trkpt>
      <trkpt lat="48.40659" lon="2.64259">
        <ele>180</ele>
        <time>2015-05-26T08:19:26.335Z</time>
      </trkpt>
      <trkpt lat="48.40659" lon="2.64257">
        <ele>181</ele>
        <time>2015-05-26T08:19:27.326Z</time>
      </trkpt>
      <trkpt lat="48.40656" lon="2.64246">
        <ele>179</ele>
        <time>2015-05-26T08:19:37.338Z</time>
      </trkpt>
      <trkpt lat="48.40655" lon="2.64244">
        <ele>179</ele>
        <time>2015-05-26T08:19:38.335Z</time>
      </trkpt>
      <trkpt lat="48.40653" lon="2.64232">
        <ele>172</ele>
        <time>2015-05-26T08:19:46.333Z</time>
      </trkpt>
      <trkpt lat="48.40653" lon="2.6423">
        <ele>174</ele>
        <time>2015-05-26T08:19:47.349Z</time>
      </trkpt>
      <trkpt lat="48.40652" lon="2.64218">
        <ele>179</ele>
        <time>2015-05-26T08:19:54.350Z</time>
      </trkpt>
      <trkpt lat="48.40651" lon="2.64217">
        <ele>178</ele>
        <time>2015-05-26T08:19:55.340Z</time>
      </trkpt>
      <trkpt lat="48.40651" lon="2.64205">
        <ele>178</ele>
        <time>2015-05-26T08:20:06.344Z</time>
      </trkpt>
      <trkpt lat="48.40651" lon="2.64203">
        <ele>177</ele>
        <time>2015-05-26T08:20:07.323Z</time>
      </trkpt>
      <trkpt lat="48.4065" lon="2.6419">
        <ele>179</ele>
        <time>2015-05-26T08:20:14.316Z</time>
      </trkpt>
      <trkpt lat="48.4065" lon="2.64188">
        <ele>180</ele>
        <time>2015-05-26T08:20:15.318Z</time>
      </trkpt>
      <trkpt lat="48.40648" lon="2.64175">
        <ele>181</ele>
        <time>2015-05-26T08:20:24.325Z</time>
      </trkpt>
      <trkpt lat="48.40648" lon="2.64174">
        <ele>182</ele>
        <time>2015-05-26T08:20:25.327Z</time>
      </trkpt>
      <trkpt lat="48.40646" lon="2.64161">
        <ele>184</ele>
        <time>2015-05-26T08:20:35.327Z</time>
      </trkpt>
      <trkpt lat="48.40646" lon="2.64159">
        <ele>184</ele>
        <time>2015-05-26T08:20:36.342Z</time>
      </trkpt>
      <trkpt lat="48.40642" lon="2.64147">
        <ele>184</ele>
        <time>2015-05-26T08:20:43.341Z</time>
      </trkpt>
      <trkpt lat="48.40642" lon="2.64146">
        <ele>184</ele>
        <time>2015-05-26T08:20:44.331Z</time>
      </trkpt>
      <trkpt lat="48.40639" lon="2.64133">
        <ele>181</ele>
        <time>2015-05-26T08:20:54.323Z</time>
      </trkpt>
      <trkpt lat="48.40639" lon="2.64132">
        <ele>182</ele>
        <time>2015-05-26T08:20:55.328Z</time>
      </trkpt>
      <trkpt lat="48.40635" lon="2.6412">
        <ele>182</ele>
        <time>2015-05-26T08:21:02.336Z</time>
      </trkpt>
      <trkpt lat="48.40635" lon="2.64119">
        <ele>180</ele>
        <time>2015-05-26T08:21:03.362Z</time>
      </trkpt>
      <trkpt lat="48.40635" lon="2.64106">
        <ele>180</ele>
        <time>2015-05-26T08:21:11.316Z</time>
      </trkpt>
      <trkpt lat="48.40635" lon="2.64105">
        <ele>180</ele>
        <time>2015-05-26T08:21:12.326Z</time>
      </trkpt>
      <trkpt lat="48.40633" lon="2.64092">
        <ele>177</ele>
        <time>2015-05-26T08:21:26.316Z</time>
      </trkpt>
      <trkpt lat="48.40633" lon="2.6409">
        <ele>177</ele>
        <time>2015-05-26T08:21:27.315Z</time>
      </trkpt>
      <trkpt lat="48.40633" lon="2.64078">
        <ele>171</ele>
        <time>2015-05-26T08:21:35.346Z</time>
      </trkpt>
      <trkpt lat="48.40633" lon="2.64075">
        <ele>169</ele>
        <time>2015-05-26T08:21:36.337Z</time>
      </trkpt>
      <trkpt lat="48.4063" lon="2.64065">
        <ele>165</ele>
        <time>2015-05-26T08:21:42.319Z</time>
      </trkpt>
      <trkpt lat="48.40629" lon="2.64062">
        <ele>165</ele>
        <time>2015-05-26T08:21:43.332Z</time>
      </trkpt>
      <trkpt lat="48.40627" lon="2.6405">
        <ele>166</ele>
        <time>2015-05-26T08:21:49.325Z</time>
      </trkpt>
      <trkpt lat="48.40627" lon="2.64048">
        <ele>165</ele>
        <time>2015-05-26T08:21:50.333Z</time>
      </trkpt>
      <trkpt lat="48.40624" lon="2.64035">
        <ele>162</ele>
        <time>2015-05-26T08:21:57.327Z</time>
      </trkpt>
      <trkpt lat="48.40624" lon="2.64033">
        <ele>162</ele>
        <time>2015-05-26T08:21:58.319Z</time>
      </trkpt>
      <trkpt lat="48.40619" lon="2.64024">
        <ele>164</ele>
        <time>2015-05-26T08:22:04.331Z</time>
      </trkpt>
      <trkpt lat="48.40618" lon="2.64022">
        <ele>165</ele>
        <time>2015-05-26T08:22:05.343Z</time>
      </trkpt>
      <trkpt lat="48.40615" lon="2.6401">
        <ele>168</ele>
        <time>2015-05-26T08:22:12.329Z</time>
      </trkpt>
      <trkpt lat="48.40615" lon="2.64009">
        <ele>169</ele>
        <time>2015-05-26T08:22:13.322Z</time>
      </trkpt>
      <trkpt lat="48.40612" lon="2.63997">
        <ele>173</ele>
        <time>2015-05-26T08:22:22.338Z</time>
      </trkpt>
      <trkpt lat="48.40611" lon="2.63996">
        <ele>174</ele>
        <time>2015-05-26T08:22:23.333Z</time>
      </trkpt>
      <trkpt lat="48.40608" lon="2.63984">
        <ele>169</ele>
        <time>2015-05-26T08:22:33.337Z</time>
      </trkpt>
      <trkpt lat="48.40607" lon="2.63982">
        <ele>168</ele>
        <time>2015-05-26T08:22:34.342Z</time>
      </trkpt>
      <trkpt lat="48.40603" lon="2.63971">
        <ele>176</ele>
        <time>2015-05-26T08:22:42.337Z</time>
      </trkpt>
      <trkpt lat="48.40603" lon="2.63969">
        <ele>176</ele>
        <time>2015-05-26T08:22:43.346Z</time>
      </trkpt>
      <trkpt lat="48.406" lon="2.63956">
        <ele>179</ele>
        <time>2015-05-26T08:22:52.330Z</time>
      </trkpt>
      <trkpt lat="48.406" lon="2.63955">
        <ele>180</ele>
        <time>2015-05-26T08:22:53.343Z</time>
      </trkpt>
      <trkpt lat="48.40599" lon="2.63942">
        <ele>185</ele>
        <time>2015-05-26T08:23:01.325Z</time>
      </trkpt>
      <trkpt lat="48.40599" lon="2.63941">
        <ele>185</ele>
        <time>2015-05-26T08:23:02.316Z</time>
      </trkpt>
      <trkpt lat="48.40598" lon="2.63929">
        <ele>181</ele>
        <time>2015-05-26T08:23:10.336Z</time>
      </trkpt>
      <trkpt lat="48.40598" lon="2.63927">
        <ele>181</ele>
        <time>2015-05-26T08:23:11.334Z</time>
      </trkpt>
      <trkpt lat="48.40597" lon="2.63914">
        <ele>183</ele>
        <time>2015-05-26T08:23:17.335Z</time>
      </trkpt>
      <trkpt lat="48.40597" lon="2.63912">
        <ele>183</ele>
        <time>2015-05-26T08:23:18.338Z</time>
      </trkpt>
      <trkpt lat="48.40596" lon="2.63898">
        <ele>179</ele>
        <time>2015-05-26T08:23:25.342Z</time>
      </trkpt>
      <trkpt lat="48.40595" lon="2.63896">
        <ele>179</ele>
        <time>2015-05-26T08:23:26.319Z</time>
      </trkpt>
      <trkpt lat="48.40589" lon="2.63887">
        <ele>178</ele>
        <time>2015-05-26T08:23:46.316Z</time>
      </trkpt>
      <trkpt lat="48.40588" lon="2.63887">
        <ele>176</ele>
        <time>2015-05-26T08:23:47.334Z</time>
      </trkpt>
      <trkpt lat="48.40585" lon="2.63874">
        <ele>171</ele>
        <time>2015-05-26T08:23:57.328Z</time>
      </trkpt>
      <trkpt lat="48.40585" lon="2.63873">
        <ele>172</ele>
        <time>2015-05-26T08:23:58.333Z</time>
      </trkpt>
      <trkpt lat="48.40584" lon="2.63861">
        <ele>170</ele>
        <time>2015-05-26T08:24:06.333Z</time>
      </trkpt>
      <trkpt lat="48.40583" lon="2.63859">
        <ele>171</ele>
        <time>2015-05-26T08:24:07.328Z</time>
      </trkpt>
      <trkpt lat="48.40579" lon="2.63849">
        <ele>168</ele>
        <time>2015-05-26T08:24:15.337Z</time>
      </trkpt>
      <trkpt lat="48.40578" lon="2.63848">
        <ele>168</ele>
        <time>2015-05-26T08:24:16.331Z</time>
      </trkpt>
      <trkpt lat="48.40576" lon="2.63836">
        <ele>170</ele>
        <time>2015-05-26T08:24:25.323Z</time>
      </trkpt>
      <trkpt lat="48.40575" lon="2.63835">
        <ele>170</ele>
        <time>2015-05-26T08:24:27.317Z</time>
      </trkpt>
      <trkpt lat="48.4057" lon="2.63824">
        <ele>174</ele>
        <time>2015-05-26T08:24:40.316Z</time>
      </trkpt>
      <trkpt lat="48.4057" lon="2.63823">
        <ele>172</ele>
        <time>2015-05-26T08:24:41.333Z</time>
      </trkpt>
      <trkpt lat="48.40569" lon="2.6381">
        <ele>176</ele>
        <time>2015-05-26T08:24:51.332Z</time>
      </trkpt>
      <trkpt lat="48.40569" lon="2.63808">
        <ele>176</ele>
        <time>2015-05-26T08:24:52.334Z</time>
      </trkpt>
      <trkpt lat="48.40567" lon="2.63797">
        <ele>175</ele>
        <time>2015-05-26T08:24:59.333Z</time>
      </trkpt>
      <trkpt lat="48.40567" lon="2.63795">
        <ele>177</ele>
        <time>2015-05-26T08:25:00.338Z</time>
      </trkpt>
      <trkpt lat="48.40565" lon="2.63783">
        <ele>179</ele>
        <time>2015-05-26T08:25:08.418Z</time>
      </trkpt>
      <trkpt lat="48.40564" lon="2.63782">
        <ele>178</ele>
        <time>2015-05-26T08:25:09.326Z</time>
      </trkpt>
      <trkpt lat="48.4056" lon="2.6377">
        <ele>183</ele>
        <time>2015-05-26T08:26:14.335Z</time>
      </trkpt>
      <trkpt lat="48.40561" lon="2.63768">
        <ele>181</ele>
        <time>2015-05-26T08:26:15.334Z</time>
      </trkpt>
      <trkpt lat="48.4056" lon="2.63755">
        <ele>180</ele>
        <time>2015-05-26T08:26:21.330Z</time>
      </trkpt>
      <trkpt lat="48.40559" lon="2.63752">
        <ele>181</ele>
        <time>2015-05-26T08:26:22.325Z</time>
      </trkpt>
      <trkpt lat="48.40559" lon="2.6374">
        <ele>180</ele>
        <time>2015-05-26T08:26:28.340Z</time>
      </trkpt>
      <trkpt lat="48.40559" lon="2.63738">
        <ele>180</ele>
        <time>2015-05-26T08:26:29.332Z</time>
      </trkpt>
      <trkpt lat="48.40555" lon="2.63727">
        <ele>177</ele>
        <time>2015-05-26T08:26:46.344Z</time>
      </trkpt>
      <trkpt lat="48.40554" lon="2.63726">
        <ele>178</ele>
        <time>2015-05-26T08:26:47.327Z</time>
      </trkpt>
      <trkpt lat="48.40547" lon="2.6372">
        <ele>183</ele>
        <time>2015-05-26T08:26:53.327Z</time>
      </trkpt>
      <trkpt lat="48.40546" lon="2.63719">
        <ele>183</ele>
        <time>2015-05-26T08:26:54.326Z</time>
      </trkpt>
      <trkpt lat="48.40543" lon="2.63708">
        <ele>185</ele>
        <time>2015-05-26T08:27:02.339Z</time>
      </trkpt>
      <trkpt lat="48.40542" lon="2.63707">
        <ele>185</ele>
        <time>2015-05-26T08:27:03.346Z</time>
      </trkpt>
      <trkpt lat="48.40538" lon="2.63695">
        <ele>188</ele>
        <time>2015-05-26T08:27:12.331Z</time>
      </trkpt>
      <trkpt lat="48.40538" lon="2.63694">
        <ele>188</ele>
        <time>2015-05-26T08:27:13.320Z</time>
      </trkpt>
      <trkpt lat="48.40534" lon="2.63683">
        <ele>181</ele>
        <time>2015-05-26T08:27:22.330Z</time>
      </trkpt>
      <trkpt lat="48.40533" lon="2.63682">
        <ele>180</ele>
        <time>2015-05-26T08:27:23.325Z</time>
      </trkpt>
      <trkpt lat="48.4053" lon="2.6367">
        <ele>180</ele>
        <time>2015-05-26T08:27:32.317Z</time>
      </trkpt>
      <trkpt lat="48.4053" lon="2.63669">
        <ele>180</ele>
        <time>2015-05-26T08:27:33.325Z</time>
      </trkpt>
      <trkpt lat="48.40531" lon="2.63656">
        <ele>175</ele>
        <time>2015-05-26T08:27:43.332Z</time>
      </trkpt>
      <trkpt lat="48.4053" lon="2.63656">
        <ele>175</ele>
        <time>2015-05-26T08:27:44.317Z</time>
      </trkpt>
      <trkpt lat="48.4053" lon="2.63643">
        <ele>176</ele>
        <time>2015-05-26T08:28:01.336Z</time>
      </trkpt>
      <trkpt lat="48.4053" lon="2.63641">
        <ele>176</ele>
        <time>2015-05-26T08:28:02.331Z</time>
      </trkpt>
      <trkpt lat="48.40527" lon="2.63628">
        <ele>178</ele>
        <time>2015-05-26T08:28:09.332Z</time>
      </trkpt>
      <trkpt lat="48.40527" lon="2.63626">
        <ele>179</ele>
        <time>2015-05-26T08:28:10.344Z</time>
      </trkpt>
      <trkpt lat="48.40527" lon="2.63613">
        <ele>176</ele>
        <time>2015-05-26T08:28:21.319Z</time>
      </trkpt>
      <trkpt lat="48.40528" lon="2.63612">
        <ele>176</ele>
        <time>2015-05-26T08:28:22.326Z</time>
      </trkpt>
      <trkpt lat="48.40533" lon="2.63603">
        <ele>178</ele>
        <time>2015-05-26T08:28:52.333Z</time>
      </trkpt>
      <trkpt lat="48.40534" lon="2.63602">
        <ele>177</ele>
        <time>2015-05-26T08:28:53.333Z</time>
      </trkpt>
      <trkpt lat="48.40538" lon="2.63591">
        <ele>175</ele>
        <time>2015-05-26T08:28:59.325Z</time>
      </trkpt>
      <trkpt lat="48.4054" lon="2.6359">
        <ele>178</ele>
        <time>2015-05-26T08:29:00.331Z</time>
      </trkpt>
      <trkpt lat="48.40548" lon="2.63584">
        <ele>181</ele>
        <time>2015-05-26T08:29:07.332Z</time>
      </trkpt>
      <trkpt lat="48.40549" lon="2.63584">
        <ele>181</ele>
        <time>2015-05-26T08:29:08.325Z</time>
      </trkpt>
      <trkpt lat="48.40555" lon="2.63591">
        <ele>186</ele>
        <time>2015-05-26T08:29:14.338Z</time>
      </trkpt>
      <trkpt lat="48.40557" lon="2.63592">
        <ele>186</ele>
        <time>2015-05-26T08:29:15.334Z</time>
      </trkpt>
      <trkpt lat="48.40563" lon="2.63585">
        <ele>179</ele>
        <time>2015-05-26T08:29:21.326Z</time>
      </trkpt>
      <trkpt lat="48.40563" lon="2.63583">
        <ele>180</ele>
        <time>2015-05-26T08:29:22.328Z</time>
      </trkpt>
      <trkpt lat="48.40572" lon="2.63584">
        <ele>188</ele>
        <time>2015-05-26T08:29:55.317Z</time>
      </trkpt>
      <trkpt lat="48.40573" lon="2.63585">
        <ele>189</ele>
        <time>2015-05-26T08:29:56.356Z</time>
      </trkpt>
      <trkpt lat="48.4058" lon="2.63593">
        <ele>188</ele>
        <time>2015-05-26T08:30:12.331Z</time>
      </trkpt>
      <trkpt lat="48.40581" lon="2.63593">
        <ele>188</ele>
        <time>2015-05-26T08:30:13.334Z</time>
      </trkpt>
      <trkpt lat="48.40589" lon="2.636">
        <ele>183</ele>
        <time>2015-05-26T08:30:32.333Z</time>
      </trkpt>
      <trkpt lat="48.4059" lon="2.636">
        <ele>181</ele>
        <time>2015-05-26T08:30:33.317Z</time>
      </trkpt>
      <trkpt lat="48.40598" lon="2.63602">
        <ele>174</ele>
        <time>2015-05-26T08:30:41.322Z</time>
      </trkpt>
      <trkpt lat="48.40599" lon="2.63602">
        <ele>175</ele>
        <time>2015-05-26T08:30:42.330Z</time>
      </trkpt>
      <trkpt lat="48.40607" lon="2.63608">
        <ele>176</ele>
        <time>2015-05-26T08:30:47.333Z</time>
      </trkpt>
      <trkpt lat="48.40609" lon="2.63609">
        <ele>177</ele>
        <time>2015-05-26T08:30:48.316Z</time>
      </trkpt>
      <trkpt lat="48.40618" lon="2.63609">
        <ele>178</ele>
        <time>2015-05-26T08:30:51.330Z</time>
      </trkpt>
      <trkpt lat="48.4062" lon="2.63608">
        <ele>179</ele>
        <time>2015-05-26T08:30:52.347Z</time>
      </trkpt>
      <trkpt lat="48.40629" lon="2.63609">
        <ele>183</ele>
        <time>2015-05-26T08:30:56.336Z</time>
      </trkpt>
      <trkpt lat="48.4063" lon="2.6361">
        <ele>183</ele>
        <time>2015-05-26T08:30:57.333Z</time>
      </trkpt>
      <trkpt lat="48.40637" lon="2.63613">
        <ele>180</ele>
        <time>2015-05-26T08:31:03.315Z</time>
      </trkpt>
      <trkpt lat="48.40639" lon="2.63615">
        <ele>180</ele>
        <time>2015-05-26T08:31:04.327Z</time>
      </trkpt>
      <trkpt lat="48.40646" lon="2.63613">
        <ele>176</ele>
        <time>2015-05-26T08:31:19.336Z</time>
      </trkpt>
      <trkpt lat="48.40648" lon="2.63612">
        <ele>176</ele>
        <time>2015-05-26T08:31:20.334Z</time>
      </trkpt>
      <trkpt lat="48.40656" lon="2.63611">
        <ele>179</ele>
        <time>2015-05-26T08:31:26.341Z</time>
      </trkpt>
      <trkpt lat="48.40657" lon="2.63611">
        <ele>177</ele>
        <time>2015-05-26T08:31:27.335Z</time>
      </trkpt>
      <trkpt lat="48.40665" lon="2.63605">
        <ele>174</ele>
        <time>2015-05-26T08:31:38.330Z</time>
      </trkpt>
      <trkpt lat="48.40665" lon="2.63603">
        <ele>176</ele>
        <time>2015-05-26T08:31:39.346Z</time>
      </trkpt>
      <trkpt lat="48.40659" lon="2.63594">
        <ele>180</ele>
        <time>2015-05-26T08:37:48.330Z</time>
      </trkpt>
      <trkpt lat="48.40659" lon="2.63594">
        <ele>181</ele>
        <time>2015-05-26T08:37:49.339Z</time>
      </trkpt>
      <trkpt lat="48.40667" lon="2.63598">
        <ele>178</ele>
        <time>2015-05-26T08:42:21.335Z</time>
      </trkpt>
      <trkpt lat="48.40667" lon="2.63598">
        <ele>178</ele>
        <time>2015-05-26T08:42:22.347Z</time>
      </trkpt>
      <trkpt lat="48.40672" lon="2.63587">
        <ele>181</ele>
        <time>2015-05-26T08:44:17.558Z</time>
      </trkpt>
      <trkpt lat="48.40672" lon="2.63587">
        <ele>180</ele>
        <time>2015-05-26T08:44:18.321Z</time>
      </trkpt>
      <trkpt lat="48.40666" lon="2.63596">
        <ele>180</ele>
        <time>2015-05-26T08:49:22.337Z</time>
      </trkpt>
      <trkpt lat="48.40666" lon="2.63597">
        <ele>180</ele>
        <time>2015-05-26T08:49:23.333Z</time>
      </trkpt>
      <trkpt lat="48.4067" lon="2.63608">
        <ele>179</ele>
        <time>2015-05-26T08:50:17.332Z</time>
      </trkpt>
      <trkpt lat="48.40671" lon="2.63609">
        <ele>178</ele>
        <time>2015-05-26T08:50:18.333Z</time>
      </trkpt>
      <trkpt lat="48.40677" lon="2.63618">
        <ele>177</ele>
        <time>2015-05-26T08:50:25.337Z</time>
      </trkpt>
      <trkpt lat="48.40678" lon="2.6362">
        <ele>176</ele>
        <time>2015-05-26T08:50:26.319Z</time>
      </trkpt>
      <trkpt lat="48.40685" lon="2.63625">
        <ele>178</ele>
        <time>2015-05-26T08:50:33.318Z</time>
      </trkpt>
      <trkpt lat="48.40687" lon="2.63625">
        <ele>179</ele>
        <time>2015-05-26T08:50:34.318Z</time>
      </trkpt>
      <trkpt lat="48.40695" lon="2.6363">
        <ele>181</ele>
        <time>2015-05-26T08:50:41.319Z</time>
      </trkpt>
      <trkpt lat="48.40696" lon="2.63631">
        <ele>180</ele>
        <time>2015-05-26T08:50:42.336Z</time>
      </trkpt>
      <trkpt lat="48.40695" lon="2.63644">
        <ele>179</ele>
        <time>2015-05-26T08:50:54.337Z</time>
      </trkpt>
      <trkpt lat="48.40695" lon="2.63645">
        <ele>179</ele>
        <time>2015-05-26T08:50:55.338Z</time>
      </trkpt>
      <trkpt lat="48.40698" lon="2.63658">
        <ele>180</ele>
        <time>2015-05-26T08:51:03.331Z</time>
      </trkpt>
      <trkpt lat="48.40699" lon="2.63659">
        <ele>180</ele>
        <time>2015-05-26T08:51:04.346Z</time>
      </trkpt>
      <trkpt lat="48.40707" lon="2.63663">
        <ele>182</ele>
        <time>2015-05-26T08:51:12.332Z</time>
      </trkpt>
      <trkpt lat="48.40709" lon="2.63662">
        <ele>183</ele>
        <time>2015-05-26T08:51:13.341Z</time>
      </trkpt>
      <trkpt lat="48.40716" lon="2.63657">
        <ele>181</ele>
        <time>2015-05-26T08:51:18.344Z</time>
      </trkpt>
      <trkpt lat="48.40717" lon="2.63656">
        <ele>181</ele>
        <time>2015-05-26T08:51:19.336Z</time>
      </trkpt>
      <trkpt lat="48.40725" lon="2.63652">
        <ele>181</ele>
        <time>2015-05-26T08:51:27.334Z</time>
      </trkpt>
      <trkpt lat="48.40726" lon="2.63652">
        <ele>181</ele>
        <time>2015-05-26T08:51:28.343Z</time>
      </trkpt>
      <trkpt lat="48.40734" lon="2.63647">
        <ele>179</ele>
        <time>2015-05-26T08:51:36.327Z</time>
      </trkpt>
      <trkpt lat="48.40735" lon="2.63646">
        <ele>178</ele>
        <time>2015-05-26T08:51:37.330Z</time>
      </trkpt>
      <trkpt lat="48.40739" lon="2.63638">
        <ele>179</ele>
        <time>2015-05-26T08:51:41.327Z</time>
      </trkpt>
      <trkpt lat="48.40741" lon="2.63635">
        <ele>179</ele>
        <time>2015-05-26T08:51:42.329Z</time>
      </trkpt>
      <trkpt lat="48.40747" lon="2.63629">
        <ele>180</ele>
        <time>2015-05-26T08:51:46.328Z</time>
      </trkpt>
      <trkpt lat="48.40748" lon="2.63628">
        <ele>180</ele>
        <time>2015-05-26T08:51:47.325Z</time>
      </trkpt>
      <trkpt lat="48.40754" lon="2.63636">
        <ele>177</ele>
        <time>2015-05-26T08:51:59.347Z</time>
      </trkpt>
      <trkpt lat="48.40755" lon="2.63638">
        <ele>178</ele>
        <time>2015-05-26T08:52:00.330Z</time>
      </trkpt>
      <trkpt lat="48.4076" lon="2.63644">
        <ele>178</ele>
        <time>2015-05-26T08:52:04.335Z</time>
      </trkpt>
      <trkpt lat="48.40763" lon="2.63646">
        <ele>177</ele>
        <time>2015-05-26T08:52:05.340Z</time>
      </trkpt>
      <trkpt lat="48.40769" lon="2.63652">
        <ele>174</ele>
        <time>2015-05-26T08:52:09.338Z</time>
      </trkpt>
      <trkpt lat="48.4077" lon="2.63653">
        <ele>173</ele>
        <time>2015-05-26T08:52:10.340Z</time>
      </trkpt>
      <trkpt lat="48.40772" lon="2.63666">
        <ele>173</ele>
        <time>2015-05-26T08:52:16.335Z</time>
      </trkpt>
      <trkpt lat="48.40772" lon="2.63668">
        <ele>173</ele>
        <time>2015-05-26T08:52:17.336Z</time>
      </trkpt>
      <trkpt lat="48.40777" lon="2.63678">
        <ele>175</ele>
        <time>2015-05-26T08:52:22.317Z</time>
      </trkpt>
      <trkpt lat="48.40778" lon="2.63681">
        <ele>175</ele>
        <time>2015-05-26T08:52:23.333Z</time>
      </trkpt>
      <trkpt lat="48.40782" lon="2.6369">
        <ele>175</ele>
        <time>2015-05-26T08:52:28.332Z</time>
      </trkpt>
      <trkpt lat="48.40783" lon="2.63692">
        <ele>175</ele>
        <time>2015-05-26T08:52:29.332Z</time>
      </trkpt>
      <trkpt lat="48.40787" lon="2.63703">
        <ele>175</ele>
        <time>2015-05-26T08:52:36.336Z</time>
      </trkpt>
      <trkpt lat="48.40787" lon="2.63705">
        <ele>175</ele>
        <time>2015-05-26T08:52:37.328Z</time>
      </trkpt>
      <trkpt lat="48.40795" lon="2.63711">
        <ele>169</ele>
        <time>2015-05-26T08:52:49.339Z</time>
      </trkpt>
      <trkpt lat="48.40795" lon="2.63711">
        <ele>169</ele>
        <time>2015-05-26T08:52:50.338Z</time>
      </trkpt>
      <trkpt lat="48.40802" lon="2.63709">
        <ele>172</ele>
        <time>2015-05-26T08:52:56.327Z</time>
      </trkpt>
      <trkpt lat="48.40804" lon="2.63709">
        <ele>173</ele>
        <time>2015-05-26T08:52:57.328Z</time>
      </trkpt>
      <trkpt lat="48.40811" lon="2.63717">
        <ele>173</ele>
        <time>2015-05-26T08:53:06.338Z</time>
      </trkpt>
      <trkpt lat="48.40811" lon="2.63718">
        <ele>174</ele>
        <time>2015-05-26T08:53:07.329Z</time>
      </trkpt>
      <trkpt lat="48.40814" lon="2.6373">
        <ele>177</ele>
        <time>2015-05-26T08:53:14.350Z</time>
      </trkpt>
      <trkpt lat="48.40815" lon="2.63732">
        <ele>176</ele>
        <time>2015-05-26T08:53:15.338Z</time>
      </trkpt>
      <trkpt lat="48.40819" lon="2.63742">
        <ele>176</ele>
        <time>2015-05-26T08:53:21.326Z</time>
      </trkpt>
      <trkpt lat="48.40818" lon="2.63744">
        <ele>174</ele>
        <time>2015-05-26T08:53:22.340Z</time>
      </trkpt>
      <trkpt lat="48.40817" lon="2.63756">
        <ele>174</ele>
        <time>2015-05-26T08:53:29.339Z</time>
      </trkpt>
      <trkpt lat="48.40817" lon="2.63758">
        <ele>173</ele>
        <time>2015-05-26T08:53:30.336Z</time>
      </trkpt>
      <trkpt lat="48.40822" lon="2.63768">
        <ele>172</ele>
        <time>2015-05-26T08:53:36.330Z</time>
      </trkpt>
      <trkpt lat="48.40823" lon="2.6377">
        <ele>173</ele>
        <time>2015-05-26T08:53:37.329Z</time>
      </trkpt>
      <trkpt lat="48.40827" lon="2.63782">
        <ele>174</ele>
        <time>2015-05-26T08:53:43.339Z</time>
      </trkpt>
      <trkpt lat="48.40828" lon="2.63784">
        <ele>174</ele>
        <time>2015-05-26T08:53:44.343Z</time>
      </trkpt>
      <trkpt lat="48.40832" lon="2.63795">
        <ele>174</ele>
        <time>2015-05-26T08:53:52.326Z</time>
      </trkpt>
      <trkpt lat="48.40833" lon="2.63796">
        <ele>173</ele>
        <time>2015-05-26T08:53:53.332Z</time>
      </trkpt>
      <trkpt lat="48.40838" lon="2.63806">
        <ele>174</ele>
        <time>2015-05-26T08:54:03.319Z</time>
      </trkpt>
      <trkpt lat="48.40838" lon="2.63807">
        <ele>175</ele>
        <time>2015-05-26T08:54:04.321Z</time>
      </trkpt>
      <trkpt lat="48.40841" lon="2.63818">
        <ele>173</ele>
        <time>2015-05-26T08:54:12.333Z</time>
      </trkpt>
      <trkpt lat="48.40841" lon="2.6382">
        <ele>173</ele>
        <time>2015-05-26T08:54:13.352Z</time>
      </trkpt>
      <trkpt lat="48.40841" lon="2.63833">
        <ele>171</ele>
        <time>2015-05-26T08:54:20.333Z</time>
      </trkpt>
      <trkpt lat="48.40841" lon="2.63834">
        <ele>170</ele>
        <time>2015-05-26T08:54:21.329Z</time>
      </trkpt>
      <trkpt lat="48.40842" lon="2.63846">
        <ele>172</ele>
        <time>2015-05-26T08:54:28.322Z</time>
      </trkpt>
      <trkpt lat="48.40843" lon="2.63848">
        <ele>172</ele>
        <time>2015-05-26T08:54:29.345Z</time>
      </trkpt>
      <trkpt lat="48.40842" lon="2.6386">
        <ele>181</ele>
        <time>2015-05-26T08:54:34.322Z</time>
      </trkpt>
      <trkpt lat="48.40842" lon="2.63862">
        <ele>181</ele>
        <time>2015-05-26T08:54:35.332Z</time>
      </trkpt>
      <trkpt lat="48.40838" lon="2.63874">
        <ele>181</ele>
        <time>2015-05-26T08:55:26.321Z</time>
      </trkpt>
      <trkpt lat="48.40838" lon="2.63875">
        <ele>179</ele>
        <time>2015-05-26T08:55:27.334Z</time>
      </trkpt>
      <trkpt lat="48.40839" lon="2.63887">
        <ele>178</ele>
        <time>2015-05-26T08:55:37.330Z</time>
      </trkpt>
      <trkpt lat="48.40839" lon="2.63889">
        <ele>179</ele>
        <time>2015-05-26T08:55:38.340Z</time>
      </trkpt>
      <trkpt lat="48.40835" lon="2.639">
        <ele>180</ele>
        <time>2015-05-26T08:55:45.338Z</time>
      </trkpt>
      <trkpt lat="48.40835" lon="2.63902">
        <ele>179</ele>
        <time>2015-05-26T08:55:46.320Z</time>
      </trkpt>
      <trkpt lat="48.40838" lon="2.63914">
        <ele>182</ele>
        <time>2015-05-26T08:56:05.339Z</time>
      </trkpt>
      <trkpt lat="48.40839" lon="2.63914">
        <ele>182</ele>
        <time>2015-05-26T08:56:06.336Z</time>
      </trkpt>
      <trkpt lat="48.40847" lon="2.63919">
        <ele>185</ele>
        <time>2015-05-26T08:56:16.337Z</time>
      </trkpt>
      <trkpt lat="48.40848" lon="2.63919">
        <ele>185</ele>
        <time>2015-05-26T08:56:17.338Z</time>
      </trkpt>
      <trkpt lat="48.40856" lon="2.63916">
        <ele>186</ele>
        <time>2015-05-26T08:56:35.319Z</time>
      </trkpt>
      <trkpt lat="48.40857" lon="2.63917">
        <ele>186</ele>
        <time>2015-05-26T08:56:36.318Z</time>
      </trkpt>
      <trkpt lat="48.40863" lon="2.63927">
        <ele>184</ele>
        <time>2015-05-26T08:56:44.322Z</time>
      </trkpt>
      <trkpt lat="48.40863" lon="2.63928">
        <ele>184</ele>
        <time>2015-05-26T08:56:45.318Z</time>
      </trkpt>
      <trkpt lat="48.4087" lon="2.63935">
        <ele>186</ele>
        <time>2015-05-26T08:56:54.328Z</time>
      </trkpt>
      <trkpt lat="48.4087" lon="2.63937">
        <ele>187</ele>
        <time>2015-05-26T08:56:55.319Z</time>
      </trkpt>
      <trkpt lat="48.40863" lon="2.63942">
        <ele>186</ele>
        <time>2015-05-26T08:56:59.334Z</time>
      </trkpt>
      <trkpt lat="48.40862" lon="2.63944">
        <ele>185</ele>
        <time>2015-05-26T08:57:00.318Z</time>
      </trkpt>
      <trkpt lat="48.40863" lon="2.63956">
        <ele>183</ele>
        <time>2015-05-26T08:57:06.319Z</time>
      </trkpt>
      <trkpt lat="48.40863" lon="2.63957">
        <ele>182</ele>
        <time>2015-05-26T08:57:07.333Z</time>
      </trkpt>
      <trkpt lat="48.40864" lon="2.6397">
        <ele>178</ele>
        <time>2015-05-26T08:57:17.322Z</time>
      </trkpt>
      <trkpt lat="48.40864" lon="2.63972">
        <ele>179</ele>
        <time>2015-05-26T08:57:18.331Z</time>
      </trkpt>
      <trkpt lat="48.40863" lon="2.63985">
        <ele>180</ele>
        <time>2015-05-26T08:57:27.322Z</time>
      </trkpt>
      <trkpt lat="48.40863" lon="2.63987">
        <ele>180</ele>
        <time>2015-05-26T08:57:28.339Z</time>
      </trkpt>
      <trkpt lat="48.40864" lon="2.64">
        <ele>175</ele>
        <time>2015-05-26T08:57:37.318Z</time>
      </trkpt>
      <trkpt lat="48.40865" lon="2.64001">
        <ele>177</ele>
        <time>2015-05-26T08:57:38.337Z</time>
      </trkpt>
      <trkpt lat="48.40868" lon="2.64012">
        <ele>180</ele>
        <time>2015-05-26T08:57:45.335Z</time>
      </trkpt>
      <trkpt lat="48.40868" lon="2.64014">
        <ele>181</ele>
        <time>2015-05-26T08:57:46.320Z</time>
      </trkpt>
      <trkpt lat="48.40868" lon="2.64028">
        <ele>182</ele>
        <time>2015-05-26T08:57:52.331Z</time>
      </trkpt>
      <trkpt lat="48.40868" lon="2.6403">
        <ele>183</ele>
        <time>2015-05-26T08:57:53.336Z</time>
      </trkpt>
      <trkpt lat="48.40869" lon="2.64043">
        <ele>183</ele>
        <time>2015-05-26T08:57:59.325Z</time>
      </trkpt>
      <trkpt lat="48.40869" lon="2.64046">
        <ele>184</ele>
        <time>2015-05-26T08:58:00.319Z</time>
      </trkpt>
      <trkpt lat="48.40871" lon="2.64058">
        <ele>185</ele>
        <time>2015-05-26T08:58:07.337Z</time>
      </trkpt>
      <trkpt lat="48.4087" lon="2.6406">
        <ele>185</ele>
        <time>2015-05-26T08:58:08.328Z</time>
      </trkpt>
      <trkpt lat="48.4087" lon="2.64072">
        <ele>181</ele>
        <time>2015-05-26T08:58:16.336Z</time>
      </trkpt>
      <trkpt lat="48.40869" lon="2.64074">
        <ele>180</ele>
        <time>2015-05-26T08:58:17.328Z</time>
      </trkpt>
      <trkpt lat="48.40869" lon="2.64087">
        <ele>182</ele>
        <time>2015-05-26T08:58:24.339Z</time>
      </trkpt>
      <trkpt lat="48.4087" lon="2.64089">
        <ele>182</ele>
        <time>2015-05-26T08:58:25.337Z</time>
      </trkpt>
      <trkpt lat="48.40872" lon="2.64101">
        <ele>179</ele>
        <time>2015-05-26T08:58:31.328Z</time>
      </trkpt>
      <trkpt lat="48.40871" lon="2.64103">
        <ele>180</ele>
        <time>2015-05-26T08:58:32.326Z</time>
      </trkpt>
      <trkpt lat="48.4087" lon="2.64116">
        <ele>180</ele>
        <time>2015-05-26T08:58:39.336Z</time>
      </trkpt>
      <trkpt lat="48.4087" lon="2.64118">
        <ele>182</ele>
        <time>2015-05-26T08:58:40.336Z</time>
      </trkpt>
      <trkpt lat="48.40869" lon="2.6413">
        <ele>179</ele>
        <time>2015-05-26T08:58:46.328Z</time>
      </trkpt>
      <trkpt lat="48.40868" lon="2.64132">
        <ele>178</ele>
        <time>2015-05-26T08:58:47.328Z</time>
      </trkpt>
      <trkpt lat="48.40869" lon="2.64144">
        <ele>177</ele>
        <time>2015-05-26T08:58:56.328Z</time>
      </trkpt>
      <trkpt lat="48.40869" lon="2.64146">
        <ele>177</ele>
        <time>2015-05-26T08:58:57.329Z</time>
      </trkpt>
      <trkpt lat="48.40868" lon="2.6416">
        <ele>179</ele>
        <time>2015-05-26T08:59:04.340Z</time>
      </trkpt>
      <trkpt lat="48.40868" lon="2.64161">
        <ele>179</ele>
        <time>2015-05-26T08:59:05.337Z</time>
      </trkpt>
      <trkpt lat="48.40869" lon="2.64174">
        <ele>180</ele>
        <time>2015-05-26T08:59:14.349Z</time>
      </trkpt>
      <trkpt lat="48.4087" lon="2.64175">
        <ele>180</ele>
        <time>2015-05-26T08:59:15.338Z</time>
      </trkpt>
      <trkpt lat="48.4087" lon="2.64187">
        <ele>176</ele>
        <time>2015-05-26T08:59:24.338Z</time>
      </trkpt>
      <trkpt lat="48.4087" lon="2.64189">
        <ele>175</ele>
        <time>2015-05-26T08:59:25.335Z</time>
      </trkpt>
      <trkpt lat="48.40871" lon="2.64202">
        <ele>174</ele>
        <time>2015-05-26T08:59:32.318Z</time>
      </trkpt>
      <trkpt lat="48.40872" lon="2.64203">
        <ele>174</ele>
        <time>2015-05-26T08:59:33.339Z</time>
      </trkpt>
      <trkpt lat="48.40874" lon="2.64216">
        <ele>177</ele>
        <time>2015-05-26T08:59:40.330Z</time>
      </trkpt>
      <trkpt lat="48.40874" lon="2.64217">
        <ele>178</ele>
        <time>2015-05-26T08:59:41.327Z</time>
      </trkpt>
      <trkpt lat="48.40873" lon="2.64231">
        <ele>182</ele>
        <time>2015-05-26T08:59:48.322Z</time>
      </trkpt>
      <trkpt lat="48.40873" lon="2.64232">
        <ele>183</ele>
        <time>2015-05-26T08:59:49.344Z</time>
      </trkpt>
      <trkpt lat="48.40874" lon="2.64244">
        <ele>181</ele>
        <time>2015-05-26T08:59:55.340Z</time>
      </trkpt>
      <trkpt lat="48.40874" lon="2.64247">
        <ele>182</ele>
        <time>2015-05-26T08:59:56.329Z</time>
      </trkpt>
      <trkpt lat="48.40872" lon="2.64259">
        <ele>183</ele>
        <time>2015-05-26T09:00:02.333Z</time>
      </trkpt>
      <trkpt lat="48.40872" lon="2.64261">
        <ele>182</ele>
        <time>2015-05-26T09:00:03.321Z</time>
      </trkpt>
      <trkpt lat="48.40873" lon="2.64274">
        <ele>178</ele>
        <time>2015-05-26T09:00:11.334Z</time>
      </trkpt>
      <trkpt lat="48.40873" lon="2.64276">
        <ele>180</ele>
        <time>2015-05-26T09:00:12.341Z</time>
      </trkpt>
      <trkpt lat="48.40874" lon="2.64289">
        <ele>178</ele>
        <time>2015-05-26T09:00:19.332Z</time>
      </trkpt>
      <trkpt lat="48.40874" lon="2.6429">
        <ele>178</ele>
        <time>2015-05-26T09:00:20.324Z</time>
      </trkpt>
      <trkpt lat="48.40876" lon="2.64302">
        <ele>181</ele>
        <time>2015-05-26T09:00:27.336Z</time>
      </trkpt>
      <trkpt lat="48.40876" lon="2.64303">
        <ele>181</ele>
        <time>2015-05-26T09:00:28.332Z</time>
      </trkpt>
      <trkpt lat="48.40876" lon="2.64316">
        <ele>180</ele>
        <time>2015-05-26T09:00:36.330Z</time>
      </trkpt>
      <trkpt lat="48.40877" lon="2.64317">
        <ele>179</ele>
        <time>2015-05-26T09:00:37.329Z</time>
      </trkpt>
      <trkpt lat="48.40878" lon="2.6433">
        <ele>179</ele>
        <time>2015-05-26T09:00:45.390Z</time>
      </trkpt>
      <trkpt lat="48.40878" lon="2.64332">
        <ele>178</ele>
        <time>2015-05-26T09:00:46.321Z</time>
      </trkpt>
      <trkpt lat="48.40877" lon="2.64345">
        <ele>178</ele>
        <time>2015-05-26T09:00:54.336Z</time>
      </trkpt>
      <trkpt lat="48.40877" lon="2.64347">
        <ele>177</ele>
        <time>2015-05-26T09:00:55.333Z</time>
      </trkpt>
      <trkpt lat="48.40876" lon="2.64359">
        <ele>176</ele>
        <time>2015-05-26T09:01:03.341Z</time>
      </trkpt>
      <trkpt lat="48.40876" lon="2.64361">
        <ele>175</ele>
        <time>2015-05-26T09:01:04.337Z</time>
      </trkpt>
      <trkpt lat="48.40877" lon="2.64374">
        <ele>176</ele>
        <time>2015-05-26T09:01:11.338Z</time>
      </trkpt>
      <trkpt lat="48.40877" lon="2.64375">
        <ele>176</ele>
        <time>2015-05-26T09:01:12.341Z</time>
      </trkpt>
      <trkpt lat="48.40879" lon="2.64386">
        <ele>177</ele>
        <time>2015-05-26T09:01:17.326Z</time>
      </trkpt>
      <trkpt lat="48.4088" lon="2.64388">
        <ele>177</ele>
        <time>2015-05-26T09:01:18.424Z</time>
      </trkpt>
      <trkpt lat="48.40881" lon="2.64401">
        <ele>177</ele>
        <time>2015-05-26T09:01:27.326Z</time>
      </trkpt>
      <trkpt lat="48.4088" lon="2.64402">
        <ele>177</ele>
        <time>2015-05-26T09:01:28.337Z</time>
      </trkpt>
      <trkpt lat="48.40879" lon="2.64415">
        <ele>177</ele>
        <time>2015-05-26T09:01:34.325Z</time>
      </trkpt>
      <trkpt lat="48.40879" lon="2.64417">
        <ele>176</ele>
        <time>2015-05-26T09:01:35.335Z</time>
      </trkpt>
      <trkpt lat="48.40879" lon="2.64428">
        <ele>176</ele>
        <time>2015-05-26T09:01:43.338Z</time>
      </trkpt>
      <trkpt lat="48.40879" lon="2.64431">
        <ele>176</ele>
        <time>2015-05-26T09:01:44.322Z</time>
      </trkpt>
      <trkpt lat="48.40878" lon="2.64444">
        <ele>177</ele>
        <time>2015-05-26T09:01:50.329Z</time>
      </trkpt>
      <trkpt lat="48.40878" lon="2.64445">
        <ele>177</ele>
        <time>2015-05-26T09:01:51.330Z</time>
      </trkpt>
      <trkpt lat="48.40877" lon="2.64458">
        <ele>180</ele>
        <time>2015-05-26T09:01:58.336Z</time>
      </trkpt>
      <trkpt lat="48.40878" lon="2.6446">
        <ele>181</ele>
        <time>2015-05-26T09:01:59.347Z</time>
      </trkpt>
      <trkpt lat="48.40878" lon="2.64472">
        <ele>182</ele>
        <time>2015-05-26T09:02:05.467Z</time>
      </trkpt>
      <trkpt lat="48.40878" lon="2.64474">
        <ele>181</ele>
        <time>2015-05-26T09:02:06.333Z</time>
      </trkpt>
      <trkpt lat="48.4088" lon="2.64487">
        <ele>179</ele>
        <time>2015-05-26T09:02:15.336Z</time>
      </trkpt>
      <trkpt lat="48.4088" lon="2.64488">
        <ele>179</ele>
        <time>2015-05-26T09:02:16.336Z</time>
      </trkpt>
      <trkpt lat="48.40883" lon="2.645">
        <ele>180</ele>
        <time>2015-05-26T09:02:25.338Z</time>
      </trkpt>
      <trkpt lat="48.40883" lon="2.64501">
        <ele>180</ele>
        <time>2015-05-26T09:02:26.328Z</time>
      </trkpt>
      <trkpt lat="48.40881" lon="2.64514">
        <ele>179</ele>
        <time>2015-05-26T09:02:32.332Z</time>
      </trkpt>
      <trkpt lat="48.40881" lon="2.64516">
        <ele>180</ele>
        <time>2015-05-26T09:02:33.334Z</time>
      </trkpt>
      <trkpt lat="48.40882" lon="2.64529">
        <ele>178</ele>
        <time>2015-05-26T09:02:40.339Z</time>
      </trkpt>
      <trkpt lat="48.40882" lon="2.64531">
        <ele>178</ele>
        <time>2015-05-26T09:02:41.328Z</time>
      </trkpt>
      <trkpt lat="48.40884" lon="2.64543">
        <ele>175</ele>
        <time>2015-05-26T09:02:49.337Z</time>
      </trkpt>
      <trkpt lat="48.40884" lon="2.64544">
        <ele>174</ele>
        <time>2015-05-26T09:02:50.340Z</time>
      </trkpt>
      <trkpt lat="48.40882" lon="2.64555">
        <ele>177</ele>
        <time>2015-05-26T09:02:56.328Z</time>
      </trkpt>
      <trkpt lat="48.40882" lon="2.64558">
        <ele>178</ele>
        <time>2015-05-26T09:02:57.342Z</time>
      </trkpt>
      <trkpt lat="48.40881" lon="2.6457">
        <ele>176</ele>
        <time>2015-05-26T09:03:04.342Z</time>
      </trkpt>
      <trkpt lat="48.40881" lon="2.64571">
        <ele>177</ele>
        <time>2015-05-26T09:03:05.333Z</time>
      </trkpt>
      <trkpt lat="48.40883" lon="2.64583">
        <ele>175</ele>
        <time>2015-05-26T09:03:12.333Z</time>
      </trkpt>
      <trkpt lat="48.40884" lon="2.64586">
        <ele>176</ele>
        <time>2015-05-26T09:03:13.332Z</time>
      </trkpt>
      <trkpt lat="48.40883" lon="2.64598">
        <ele>177</ele>
        <time>2015-05-26T09:03:20.334Z</time>
      </trkpt>
      <trkpt lat="48.40884" lon="2.64599">
        <ele>176</ele>
        <time>2015-05-26T09:03:21.326Z</time>
      </trkpt>
      <trkpt lat="48.40887" lon="2.64612">
        <ele>179</ele>
        <time>2015-05-26T09:03:28.337Z</time>
      </trkpt>
      <trkpt lat="48.40887" lon="2.64614">
        <ele>180</ele>
        <time>2015-05-26T09:03:29.344Z</time>
      </trkpt>
      <trkpt lat="48.40884" lon="2.64624">
        <ele>182</ele>
        <time>2015-05-26T09:03:33.337Z</time>
      </trkpt>
      <trkpt lat="48.40883" lon="2.64627">
        <ele>182</ele>
        <time>2015-05-26T09:03:34.343Z</time>
      </trkpt>
      <trkpt lat="48.40884" lon="2.6464">
        <ele>184</ele>
        <time>2015-05-26T09:03:40.339Z</time>
      </trkpt>
      <trkpt lat="48.40884" lon="2.64642">
        <ele>184</ele>
        <time>2015-05-26T09:03:41.323Z</time>
      </trkpt>
      <trkpt lat="48.40887" lon="2.64654">
        <ele>181</ele>
        <time>2015-05-26T09:03:50.338Z</time>
      </trkpt>
      <trkpt lat="48.40887" lon="2.64656">
        <ele>181</ele>
        <time>2015-05-26T09:03:51.339Z</time>
      </trkpt>
      <trkpt lat="48.40888" lon="2.64669">
        <ele>182</ele>
        <time>2015-05-26T09:03:58.340Z</time>
      </trkpt>
      <trkpt lat="48.40888" lon="2.64671">
        <ele>181</ele>
        <time>2015-05-26T09:03:59.333Z</time>
      </trkpt>
      <trkpt lat="48.40886" lon="2.64683">
        <ele>182</ele>
        <time>2015-05-26T09:04:06.329Z</time>
      </trkpt>
      <trkpt lat="48.40886" lon="2.64685">
        <ele>181</ele>
        <time>2015-05-26T09:04:07.341Z</time>
      </trkpt>
      <trkpt lat="48.40885" lon="2.64696">
        <ele>179</ele>
        <time>2015-05-26T09:04:13.332Z</time>
      </trkpt>
      <trkpt lat="48.40885" lon="2.64699">
        <ele>178</ele>
        <time>2015-05-26T09:04:14.339Z</time>
      </trkpt>
      <trkpt lat="48.40887" lon="2.6471">
        <ele>177</ele>
        <time>2015-05-26T09:04:20.335Z</time>
      </trkpt>
      <trkpt lat="48.40887" lon="2.64712">
        <ele>178</ele>
        <time>2015-05-26T09:04:21.335Z</time>
      </trkpt>
      <trkpt lat="48.40889" lon="2.64725">
        <ele>175</ele>
        <time>2015-05-26T09:04:29.328Z</time>
      </trkpt>
      <trkpt lat="48.40889" lon="2.64727">
        <ele>175</ele>
        <time>2015-05-26T09:04:30.350Z</time>
      </trkpt>
      <trkpt lat="48.40889" lon="2.6474">
        <ele>178</ele>
        <time>2015-05-26T09:04:36.339Z</time>
      </trkpt>
      <trkpt lat="48.40889" lon="2.64743">
        <ele>179</ele>
        <time>2015-05-26T09:04:37.329Z</time>
      </trkpt>
      <trkpt lat="48.40887" lon="2.64755">
        <ele>182</ele>
        <time>2015-05-26T09:04:43.331Z</time>
      </trkpt>
      <trkpt lat="48.40886" lon="2.64756">
        <ele>182</ele>
        <time>2015-05-26T09:04:44.336Z</time>
      </trkpt>
      <trkpt lat="48.40886" lon="2.64768">
        <ele>180</ele>
        <time>2015-05-26T09:04:52.334Z</time>
      </trkpt>
      <trkpt lat="48.40888" lon="2.6477">
        <ele>179</ele>
        <time>2015-05-26T09:04:53.342Z</time>
      </trkpt>
      <trkpt lat="48.40894" lon="2.64779">
        <ele>181</ele>
        <time>2015-05-26T09:04:59.334Z</time>
      </trkpt>
      <trkpt lat="48.40895" lon="2.6478">
        <ele>181</ele>
        <time>2015-05-26T09:05:00.321Z</time>
      </trkpt>
      <trkpt lat="48.40901" lon="2.64788">
        <ele>180</ele>
        <time>2015-05-26T09:05:06.333Z</time>
      </trkpt>
      <trkpt lat="48.40902" lon="2.64789">
        <ele>181</ele>
        <time>2015-05-26T09:05:07.334Z</time>
      </trkpt>
      <trkpt lat="48.40902" lon="2.64802">
        <ele>176</ele>
        <time>2015-05-26T09:05:15.322Z</time>
      </trkpt>
      <trkpt lat="48.40903" lon="2.64804">
        <ele>177</ele>
        <time>2015-05-26T09:05:16.334Z</time>
      </trkpt>
      <trkpt lat="48.40905" lon="2.64816">
        <ele>177</ele>
        <time>2015-05-26T09:05:22.327Z</time>
      </trkpt>
      <trkpt lat="48.40906" lon="2.64818">
        <ele>179</ele>
        <time>2015-05-26T09:05:23.338Z</time>
      </trkpt>
      <trkpt lat="48.40909" lon="2.64831">
        <ele>181</ele>
        <time>2015-05-26T09:05:29.343Z</time>
      </trkpt>
      <trkpt lat="48.40909" lon="2.64832">
        <ele>182</ele>
        <time>2015-05-26T09:05:30.344Z</time>
      </trkpt>
      <trkpt lat="48.40915" lon="2.64842">
        <ele>176</ele>
        <time>2015-05-26T09:05:40.339Z</time>
      </trkpt>
      <trkpt lat="48.40915" lon="2.64843">
        <ele>175</ele>
        <time>2015-05-26T09:05:41.321Z</time>
      </trkpt>
      <trkpt lat="48.40921" lon="2.64854">
        <ele>175</ele>
        <time>2015-05-26T09:05:50.346Z</time>
      </trkpt>
      <trkpt lat="48.40921" lon="2.64855">
        <ele>174</ele>
        <time>2015-05-26T09:05:51.360Z</time>
      </trkpt>
      <trkpt lat="48.40925" lon="2.64867">
        <ele>174</ele>
        <time>2015-05-26T09:06:00.328Z</time>
      </trkpt>
      <trkpt lat="48.40925" lon="2.64868">
        <ele>174</ele>
        <time>2015-05-26T09:06:01.357Z</time>
      </trkpt>
      <trkpt lat="48.40926" lon="2.6488">
        <ele>174</ele>
        <time>2015-05-26T09:06:09.319Z</time>
      </trkpt>
      <trkpt lat="48.40927" lon="2.64881">
        <ele>173</ele>
        <time>2015-05-26T09:06:10.335Z</time>
      </trkpt>
      <trkpt lat="48.40931" lon="2.64892">
        <ele>173</ele>
        <time>2015-05-26T09:06:17.337Z</time>
      </trkpt>
      <trkpt lat="48.40932" lon="2.64893">
        <ele>173</ele>
        <time>2015-05-26T09:06:18.342Z</time>
      </trkpt>
      <trkpt lat="48.40935" lon="2.64905">
        <ele>173</ele>
        <time>2015-05-26T09:06:24.340Z</time>
      </trkpt>
      <trkpt lat="48.40937" lon="2.64906">
        <ele>173</ele>
        <time>2015-05-26T09:06:25.342Z</time>
      </trkpt>
      <trkpt lat="48.40939" lon="2.64919">
        <ele>174</ele>
        <time>2015-05-26T09:06:31.329Z</time>
      </trkpt>
      <trkpt lat="48.40939" lon="2.64921">
        <ele>176</ele>
        <time>2015-05-26T09:06:32.330Z</time>
      </trkpt>
      <trkpt lat="48.40942" lon="2.64933">
        <ele>178</ele>
        <time>2015-05-26T09:06:38.336Z</time>
      </trkpt>
      <trkpt lat="48.40943" lon="2.64935">
        <ele>177</ele>
        <time>2015-05-26T09:06:39.343Z</time>
      </trkpt>
      <trkpt lat="48.40945" lon="2.64946">
        <ele>180</ele>
        <time>2015-05-26T09:06:44.337Z</time>
      </trkpt>
      <trkpt lat="48.40946" lon="2.64948">
        <ele>180</ele>
        <time>2015-05-26T09:06:45.343Z</time>
      </trkpt>
      <trkpt lat="48.40952" lon="2.64957">
        <ele>182</ele>
        <time>2015-05-26T09:06:51.330Z</time>
      </trkpt>
      <trkpt lat="48.40953" lon="2.64959">
        <ele>182</ele>
        <time>2015-05-26T09:06:52.330Z</time>
      </trkpt>
      <trkpt lat="48.40957" lon="2.64971">
        <ele>178</ele>
        <time>2015-05-26T09:07:00.339Z</time>
      </trkpt>
      <trkpt lat="48.40957" lon="2.64972">
        <ele>177</ele>
        <time>2015-05-26T09:07:01.365Z</time>
      </trkpt>
      <trkpt lat="48.40961" lon="2.64982">
        <ele>176</ele>
        <time>2015-05-26T09:07:09.339Z</time>
      </trkpt>
      <trkpt lat="48.40961" lon="2.64984">
        <ele>177</ele>
        <time>2015-05-26T09:07:10.341Z</time>
      </trkpt>
      <trkpt lat="48.40966" lon="2.64996">
        <ele>176</ele>
        <time>2015-05-26T09:07:17.340Z</time>
      </trkpt>
      <trkpt lat="48.40967" lon="2.64998">
        <ele>177</ele>
        <time>2015-05-26T09:07:18.334Z</time>
      </trkpt>
      <trkpt lat="48.40969" lon="2.65009">
        <ele>177</ele>
        <time>2015-05-26T09:07:24.340Z</time>
      </trkpt>
      <trkpt lat="48.40969" lon="2.65011">
        <ele>176</ele>
        <time>2015-05-26T09:07:25.339Z</time>
      </trkpt>
      <trkpt lat="48.40974" lon="2.65021">
        <ele>174</ele>
        <time>2015-05-26T09:07:34.330Z</time>
      </trkpt>
      <trkpt lat="48.40974" lon="2.65023">
        <ele>175</ele>
        <time>2015-05-26T09:07:35.328Z</time>
      </trkpt>
      <trkpt lat="48.40977" lon="2.65035">
        <ele>178</ele>
        <time>2015-05-26T09:07:41.329Z</time>
      </trkpt>
      <trkpt lat="48.40977" lon="2.65037">
        <ele>178</ele>
        <time>2015-05-26T09:07:42.338Z</time>
      </trkpt>
      <trkpt lat="48.40981" lon="2.65048">
        <ele>177</ele>
        <time>2015-05-26T09:07:48.417Z</time>
      </trkpt>
      <trkpt lat="48.40982" lon="2.65049">
        <ele>177</ele>
        <time>2015-05-26T09:07:49.330Z</time>
      </trkpt>
      <trkpt lat="48.40986" lon="2.6506">
        <ele>179</ele>
        <time>2015-05-26T09:07:55.335Z</time>
      </trkpt>
      <trkpt lat="48.40987" lon="2.65061">
        <ele>179</ele>
        <time>2015-05-26T09:07:56.327Z</time>
      </trkpt>
      <trkpt lat="48.40992" lon="2.65072">
        <ele>178</ele>
        <time>2015-05-26T09:08:03.348Z</time>
      </trkpt>
      <trkpt lat="48.40992" lon="2.65074">
        <ele>179</ele>
        <time>2015-05-26T09:08:04.338Z</time>
      </trkpt>
      <trkpt lat="48.40997" lon="2.65085">
        <ele>178</ele>
        <time>2015-05-26T09:08:11.333Z</time>
      </trkpt>
      <trkpt lat="48.40998" lon="2.65087">
        <ele>180</ele>
        <time>2015-05-26T09:08:12.323Z</time>
      </trkpt>
      <trkpt lat="48.41003" lon="2.65098">
        <ele>177</ele>
        <time>2015-05-26T09:08:19.343Z</time>
      </trkpt>
      <trkpt lat="48.41003" lon="2.65099">
        <ele>178</ele>
        <time>2015-05-26T09:08:20.342Z</time>
      </trkpt>
      <trkpt lat="48.41006" lon="2.65111">
        <ele>176</ele>
        <time>2015-05-26T09:08:29.337Z</time>
      </trkpt>
      <trkpt lat="48.41006" lon="2.65112">
        <ele>176</ele>
        <time>2015-05-26T09:08:30.337Z</time>
      </trkpt>
      <trkpt lat="48.41012" lon="2.65122">
        <ele>172</ele>
        <time>2015-05-26T09:08:39.335Z</time>
      </trkpt>
      <trkpt lat="48.41012" lon="2.65123">
        <ele>172</ele>
        <time>2015-05-26T09:08:40.323Z</time>
      </trkpt>
      <trkpt lat="48.41017" lon="2.65134">
        <ele>173</ele>
        <time>2015-05-26T09:08:47.590Z</time>
      </trkpt>
      <trkpt lat="48.41016" lon="2.65137">
        <ele>174</ele>
        <time>2015-05-26T09:08:48.606Z</time>
      </trkpt>
      <trkpt lat="48.41013" lon="2.65149">
        <ele>175</ele>
        <time>2015-05-26T09:08:53.588Z</time>
      </trkpt>
      <trkpt lat="48.41012" lon="2.65151">
        <ele>174</ele>
        <time>2015-05-26T09:08:54.586Z</time>
      </trkpt>
      <trkpt lat="48.41008" lon="2.65161">
        <ele>173</ele>
        <time>2015-05-26T09:09:02.589Z</time>
      </trkpt>
      <trkpt lat="48.41007" lon="2.65163">
        <ele>174</ele>
        <time>2015-05-26T09:09:03.596Z</time>
      </trkpt>
      <trkpt lat="48.41003" lon="2.65173">
        <ele>176</ele>
        <time>2015-05-26T09:09:08.608Z</time>
      </trkpt>
      <trkpt lat="48.41001" lon="2.65175">
        <ele>176</ele>
        <time>2015-05-26T09:09:09.606Z</time>
      </trkpt>
      <trkpt lat="48.40995" lon="2.65183">
        <ele>175</ele>
        <time>2015-05-26T09:09:16.600Z</time>
      </trkpt>
      <trkpt lat="48.40994" lon="2.65184">
        <ele>175</ele>
        <time>2015-05-26T09:09:17.604Z</time>
      </trkpt>
      <trkpt lat="48.40987" lon="2.65191">
        <ele>177</ele>
        <time>2015-05-26T09:09:23.602Z</time>
      </trkpt>
      <trkpt lat="48.40986" lon="2.65193">
        <ele>176</ele>
        <time>2015-05-26T09:09:24.592Z</time>
      </trkpt>
      <trkpt lat="48.40981" lon="2.65203">
        <ele>179</ele>
        <time>2015-05-26T09:09:29.596Z</time>
      </trkpt>
      <trkpt lat="48.4098" lon="2.65204">
        <ele>178</ele>
        <time>2015-05-26T09:09:30.594Z</time>
      </trkpt>
      <trkpt lat="48.40972" lon="2.65211">
        <ele>176</ele>
        <time>2015-05-26T09:09:38.595Z</time>
      </trkpt>
      <trkpt lat="48.40971" lon="2.65212">
        <ele>175</ele>
        <time>2015-05-26T09:09:39.603Z</time>
      </trkpt>
      <trkpt lat="48.40967" lon="2.65221">
        <ele>177</ele>
        <time>2015-05-26T09:09:45.604Z</time>
      </trkpt>
      <trkpt lat="48.40966" lon="2.65222">
        <ele>178</ele>
        <time>2015-05-26T09:09:46.595Z</time>
      </trkpt>
      <trkpt lat="48.4096" lon="2.65231">
        <ele>180</ele>
        <time>2015-05-26T09:09:51.595Z</time>
      </trkpt>
      <trkpt lat="48.40959" lon="2.65232">
        <ele>180</ele>
        <time>2015-05-26T09:09:52.592Z</time>
      </trkpt>
      <trkpt lat="48.40954" lon="2.65243">
        <ele>177</ele>
        <time>2015-05-26T09:10:00.606Z</time>
      </trkpt>
      <trkpt lat="48.40953" lon="2.65244">
        <ele>177</ele>
        <time>2015-05-26T09:10:01.592Z</time>
      </trkpt>
      <trkpt lat="48.40949" lon="2.65254">
        <ele>177</ele>
        <time>2015-05-26T09:10:07.595Z</time>
      </trkpt>
      <trkpt lat="48.40948" lon="2.65255">
        <ele>177</ele>
        <time>2015-05-26T09:10:08.603Z</time>
      </trkpt>
      <trkpt lat="48.40941" lon="2.65263">
        <ele>178</ele>
        <time>2015-05-26T09:10:15.606Z</time>
      </trkpt>
      <trkpt lat="48.4094" lon="2.65264">
        <ele>178</ele>
        <time>2015-05-26T09:10:16.607Z</time>
      </trkpt>
      <trkpt lat="48.40935" lon="2.65272">
        <ele>182</ele>
        <time>2015-05-26T09:10:23.607Z</time>
      </trkpt>
      <trkpt lat="48.40934" lon="2.65274">
        <ele>182</ele>
        <time>2015-05-26T09:10:24.612Z</time>
      </trkpt>
      <trkpt lat="48.40928" lon="2.65283">
        <ele>181</ele>
        <time>2015-05-26T09:10:30.597Z</time>
      </trkpt>
      <trkpt lat="48.40927" lon="2.65284">
        <ele>181</ele>
        <time>2015-05-26T09:10:31.610Z</time>
      </trkpt>
      <trkpt lat="48.40921" lon="2.65293">
        <ele>180</ele>
        <time>2015-05-26T09:10:38.616Z</time>
      </trkpt>
      <trkpt lat="48.4092" lon="2.65294">
        <ele>180</ele>
        <time>2015-05-26T09:10:39.597Z</time>
      </trkpt>
      <trkpt lat="48.40915" lon="2.65303">
        <ele>182</ele>
        <time>2015-05-26T09:10:46.592Z</time>
      </trkpt>
      <trkpt lat="48.40914" lon="2.65305">
        <ele>182</ele>
        <time>2015-05-26T09:10:47.606Z</time>
      </trkpt>
      <trkpt lat="48.40908" lon="2.65313">
        <ele>180</ele>
        <time>2015-05-26T09:10:54.601Z</time>
      </trkpt>
      <trkpt lat="48.40907" lon="2.65314">
        <ele>182</ele>
        <time>2015-05-26T09:10:55.606Z</time>
      </trkpt>
      <trkpt lat="48.40902" lon="2.65323">
        <ele>181</ele>
        <time>2015-05-26T09:11:02.596Z</time>
      </trkpt>
      <trkpt lat="48.40901" lon="2.65325">
        <ele>181</ele>
        <time>2015-05-26T09:11:03.604Z</time>
      </trkpt>
      <trkpt lat="48.40895" lon="2.65334">
        <ele>183</ele>
        <time>2015-05-26T09:11:10.609Z</time>
      </trkpt>
      <trkpt lat="48.40893" lon="2.65334">
        <ele>183</ele>
        <time>2015-05-26T09:11:11.600Z</time>
      </trkpt>
      <trkpt lat="48.40887" lon="2.65343">
        <ele>183</ele>
        <time>2015-05-26T09:11:19.601Z</time>
      </trkpt>
      <trkpt lat="48.40886" lon="2.65344">
        <ele>183</ele>
        <time>2015-05-26T09:11:20.611Z</time>
      </trkpt>
      <trkpt lat="48.4088" lon="2.65352">
        <ele>181</ele>
        <time>2015-05-26T09:11:28.604Z</time>
      </trkpt>
      <trkpt lat="48.40879" lon="2.65353">
        <ele>181</ele>
        <time>2015-05-26T09:11:29.604Z</time>
      </trkpt>
      <trkpt lat="48.40874" lon="2.65363">
        <ele>181</ele>
        <time>2015-05-26T09:11:41.601Z</time>
      </trkpt>
      <trkpt lat="48.40873" lon="2.65364">
        <ele>180</ele>
        <time>2015-05-26T09:11:42.596Z</time>
      </trkpt>
      <trkpt lat="48.40868" lon="2.65373">
        <ele>181</ele>
        <time>2015-05-26T09:11:51.605Z</time>
      </trkpt>
      <trkpt lat="48.40867" lon="2.65375">
        <ele>180</ele>
        <time>2015-05-26T09:11:52.600Z</time>
      </trkpt>
      <trkpt lat="48.40861" lon="2.65383">
        <ele>181</ele>
        <time>2015-05-26T09:11:58.601Z</time>
      </trkpt>
      <trkpt lat="48.4086" lon="2.65385">
        <ele>181</ele>
        <time>2015-05-26T09:11:59.599Z</time>
      </trkpt>
      <trkpt lat="48.40855" lon="2.65394">
        <ele>180</ele>
        <time>2015-05-26T09:12:03.602Z</time>
      </trkpt>
      <trkpt lat="48.40853" lon="2.65395">
        <ele>181</ele>
        <time>2015-05-26T09:12:04.610Z</time>
      </trkpt>
      <trkpt lat="48.40847" lon="2.65404">
        <ele>184</ele>
        <time>2015-05-26T09:12:09.604Z</time>
      </trkpt>
      <trkpt lat="48.40847" lon="2.65406">
        <ele>183</ele>
        <time>2015-05-26T09:12:10.606Z</time>
      </trkpt>
      <trkpt lat="48.40841" lon="2.65416">
        <ele>184</ele>
        <time>2015-05-26T09:12:17.592Z</time>
      </trkpt>
      <trkpt lat="48.4084" lon="2.65418">
        <ele>184</ele>
        <time>2015-05-26T09:12:18.602Z</time>
      </trkpt>
      <trkpt lat="48.40834" lon="2.65424">
        <ele>182</ele>
        <time>2015-05-26T09:12:24.606Z</time>
      </trkpt>
      <trkpt lat="48.40833" lon="2.65425">
        <ele>180</ele>
        <time>2015-05-26T09:12:25.600Z</time>
      </trkpt>
      <trkpt lat="48.40826" lon="2.65433">
        <ele>181</ele>
        <time>2015-05-26T09:12:33.605Z</time>
      </trkpt>
      <trkpt lat="48.40825" lon="2.65433">
        <ele>181</ele>
        <time>2015-05-26T09:12:34.605Z</time>
      </trkpt>
      <trkpt lat="48.4082" lon="2.65443">
        <ele>182</ele>
        <time>2015-05-26T09:12:43.606Z</time>
      </trkpt>
      <trkpt lat="48.40819" lon="2.65445">
        <ele>182</ele>
        <time>2015-05-26T09:12:44.603Z</time>
      </trkpt>
      <trkpt lat="48.40815" lon="2.65454">
        <ele>181</ele>
        <time>2015-05-26T09:12:49.609Z</time>
      </trkpt>
      <trkpt lat="48.40814" lon="2.65456">
        <ele>181</ele>
        <time>2015-05-26T09:12:50.605Z</time>
      </trkpt>
      <trkpt lat="48.4081" lon="2.65467">
        <ele>182</ele>
        <time>2015-05-26T09:12:56.591Z</time>
      </trkpt>
      <trkpt lat="48.4081" lon="2.65469">
        <ele>182</ele>
        <time>2015-05-26T09:12:57.602Z</time>
      </trkpt>
      <trkpt lat="48.40808" lon="2.65482">
        <ele>180</ele>
        <time>2015-05-26T09:13:03.605Z</time>
      </trkpt>
      <trkpt lat="48.40807" lon="2.65484">
        <ele>180</ele>
        <time>2015-05-26T09:13:04.597Z</time>
      </trkpt>
      <trkpt lat="48.4081" lon="2.65496">
        <ele>179</ele>
        <time>2015-05-26T09:13:11.607Z</time>
      </trkpt>
      <trkpt lat="48.40811" lon="2.65498">
        <ele>179</ele>
        <time>2015-05-26T09:13:12.588Z</time>
      </trkpt>
      <trkpt lat="48.40815" lon="2.65509">
        <ele>173</ele>
        <time>2015-05-26T09:13:21.592Z</time>
      </trkpt>
      <trkpt lat="48.40815" lon="2.6551">
        <ele>173</ele>
        <time>2015-05-26T09:13:22.610Z</time>
      </trkpt>
      <trkpt lat="48.40818" lon="2.65522">
        <ele>169</ele>
        <time>2015-05-26T09:13:32.595Z</time>
      </trkpt>
      <trkpt lat="48.40818" lon="2.65523">
        <ele>170</ele>
        <time>2015-05-26T09:13:33.605Z</time>
      </trkpt>
      <trkpt lat="48.40818" lon="2.65535">
        <ele>173</ele>
        <time>2015-05-26T09:13:40.607Z</time>
      </trkpt>
      <trkpt lat="48.40818" lon="2.65538">
        <ele>171</ele>
        <time>2015-05-26T09:13:41.588Z</time>
      </trkpt>
      <trkpt lat="48.40819" lon="2.65551">
        <ele>176</ele>
        <time>2015-05-26T09:13:47.588Z</time>
      </trkpt>
      <trkpt lat="48.40819" lon="2.65553">
        <ele>177</ele>
        <time>2015-05-26T09:13:48.604Z</time>
      </trkpt>
      <trkpt lat="48.40817" lon="2.65566">
        <ele>178</ele>
        <time>2015-05-26T09:14:09.599Z</time>
      </trkpt>
      <trkpt lat="48.40817" lon="2.65567">
        <ele>177</ele>
        <time>2015-05-26T09:14:10.609Z</time>
      </trkpt>
      <trkpt lat="48.40818" lon="2.65579">
        <ele>176</ele>
        <time>2015-05-26T09:14:36.588Z</time>
      </trkpt>
      <trkpt lat="48.40818" lon="2.65582">
        <ele>175</ele>
        <time>2015-05-26T09:14:37.599Z</time>
      </trkpt>
      <trkpt lat="48.4082" lon="2.65594">
        <ele>175</ele>
        <time>2015-05-26T09:14:41.597Z</time>
      </trkpt>
      <trkpt lat="48.40821" lon="2.65596">
        <ele>173</ele>
        <time>2015-05-26T09:14:42.606Z</time>
      </trkpt>
      <trkpt lat="48.40823" lon="2.65609">
        <ele>173</ele>
        <time>2015-05-26T09:14:47.596Z</time>
      </trkpt>
      <trkpt lat="48.40823" lon="2.65611">
        <ele>174</ele>
        <time>2015-05-26T09:14:48.602Z</time>
      </trkpt>
      <trkpt lat="48.40823" lon="2.65623">
        <ele>174</ele>
        <time>2015-05-26T09:14:55.618Z</time>
      </trkpt>
      <trkpt lat="48.40823" lon="2.65626">
        <ele>175</ele>
        <time>2015-05-26T09:14:56.588Z</time>
      </trkpt>
      <trkpt lat="48.40822" lon="2.65636">
        <ele>176</ele>
        <time>2015-05-26T09:14:59.606Z</time>
      </trkpt>
      <trkpt lat="48.40822" lon="2.6564">
        <ele>178</ele>
        <time>2015-05-26T09:15:00.602Z</time>
      </trkpt>
      <trkpt lat="48.40821" lon="2.65654">
        <ele>181</ele>
        <time>2015-05-26T09:15:04.601Z</time>
      </trkpt>
      <trkpt lat="48.40822" lon="2.65654">
        <ele>180</ele>
        <time>2015-05-26T09:15:05.607Z</time>
      </trkpt>
      <trkpt lat="48.40829" lon="2.65661">
        <ele>179</ele>
        <time>2015-05-26T09:15:13.609Z</time>
      </trkpt>
      <trkpt lat="48.40829" lon="2.65662">
        <ele>178</ele>
        <time>2015-05-26T09:15:14.605Z</time>
      </trkpt>
      <trkpt lat="48.40832" lon="2.65674">
        <ele>176</ele>
        <time>2015-05-26T09:15:21.598Z</time>
      </trkpt>
      <trkpt lat="48.40832" lon="2.65676">
        <ele>176</ele>
        <time>2015-05-26T09:15:22.602Z</time>
      </trkpt>
      <trkpt lat="48.40832" lon="2.65688">
        <ele>176</ele>
        <time>2015-05-26T09:15:28.605Z</time>
      </trkpt>
      <trkpt lat="48.40833" lon="2.6569">
        <ele>175</ele>
        <time>2015-05-26T09:15:29.588Z</time>
      </trkpt>
      <trkpt lat="48.40835" lon="2.65702">
        <ele>175</ele>
        <time>2015-05-26T09:15:35.606Z</time>
      </trkpt>
      <trkpt lat="48.40835" lon="2.65704">
        <ele>175</ele>
        <time>2015-05-26T09:15:36.607Z</time>
      </trkpt>
      <trkpt lat="48.40837" lon="2.65716">
        <ele>177</ele>
        <time>2015-05-26T09:15:42.591Z</time>
      </trkpt>
      <trkpt lat="48.40837" lon="2.65719">
        <ele>178</ele>
        <time>2015-05-26T09:15:43.654Z</time>
      </trkpt>
      <trkpt lat="48.40837" lon="2.65732">
        <ele>181</ele>
        <time>2015-05-26T09:15:48.601Z</time>
      </trkpt>
      <trkpt lat="48.40837" lon="2.65734">
        <ele>181</ele>
        <time>2015-05-26T09:15:49.601Z</time>
      </trkpt>
      <trkpt lat="48.4084" lon="2.65746">
        <ele>184</ele>
        <time>2015-05-26T09:15:56.588Z</time>
      </trkpt>
      <trkpt lat="48.40841" lon="2.65748">
        <ele>183</ele>
        <time>2015-05-26T09:15:57.587Z</time>
      </trkpt>
      <trkpt lat="48.40843" lon="2.6576">
        <ele>181</ele>
        <time>2015-05-26T09:16:04.604Z</time>
      </trkpt>
      <trkpt lat="48.40843" lon="2.65761">
        <ele>180</ele>
        <time>2015-05-26T09:16:05.594Z</time>
      </trkpt>
      <trkpt lat="48.40845" lon="2.65775">
        <ele>182</ele>
        <time>2015-05-26T09:16:13.608Z</time>
      </trkpt>
      <trkpt lat="48.40845" lon="2.65776">
        <ele>182</ele>
        <time>2015-05-26T09:16:14.595Z</time>
      </trkpt>
      <trkpt lat="48.40849" lon="2.65788">
        <ele>179</ele>
        <time>2015-05-26T09:16:21.587Z</time>
      </trkpt>
      <trkpt lat="48.40849" lon="2.6579">
        <ele>179</ele>
        <time>2015-05-26T09:16:22.605Z</time>
      </trkpt>
      <trkpt lat="48.40848" lon="2.65802">
        <ele>178</ele>
        <time>2015-05-26T09:16:28.606Z</time>
      </trkpt>
      <trkpt lat="48.40847" lon="2.65805">
        <ele>177</ele>
        <time>2015-05-26T09:16:29.586Z</time>
      </trkpt>
      <trkpt lat="48.40848" lon="2.65818">
        <ele>176</ele>
        <time>2015-05-26T09:16:34.595Z</time>
      </trkpt>
      <trkpt lat="48.40848" lon="2.6582">
        <ele>177</ele>
        <time>2015-05-26T09:16:35.611Z</time>
      </trkpt>
      <trkpt lat="48.40851" lon="2.65831">
        <ele>176</ele>
        <time>2015-05-26T09:16:40.598Z</time>
      </trkpt>
      <trkpt lat="48.40852" lon="2.65833">
        <ele>176</ele>
        <time>2015-05-26T09:16:41.588Z</time>
      </trkpt>
      <trkpt lat="48.40855" lon="2.65843">
        <ele>176</ele>
        <time>2015-05-26T09:16:46.591Z</time>
      </trkpt>
      <trkpt lat="48.40855" lon="2.65845">
        <ele>177</ele>
        <time>2015-05-26T09:16:47.616Z</time>
      </trkpt>
      <trkpt lat="48.40854" lon="2.65858">
        <ele>175</ele>
        <time>2015-05-26T09:16:52.595Z</time>
      </trkpt>
      <trkpt lat="48.40854" lon="2.65861">
        <ele>173</ele>
        <time>2015-05-26T09:16:53.610Z</time>
      </trkpt>
      <trkpt lat="48.40854" lon="2.65873">
        <ele>172</ele>
        <time>2015-05-26T09:16:58.600Z</time>
      </trkpt>
      <trkpt lat="48.40855" lon="2.65875">
        <ele>172</ele>
        <time>2015-05-26T09:16:59.612Z</time>
      </trkpt>
      <trkpt lat="48.40859" lon="2.65884">
        <ele>172</ele>
        <time>2015-05-26T09:17:03.604Z</time>
      </trkpt>
      <trkpt lat="48.4086" lon="2.65886">
        <ele>171</ele>
        <time>2015-05-26T09:17:04.614Z</time>
      </trkpt>
      <trkpt lat="48.40864" lon="2.65897">
        <ele>168</ele>
        <time>2015-05-26T09:17:09.608Z</time>
      </trkpt>
      <trkpt lat="48.40864" lon="2.65898">
        <ele>168</ele>
        <time>2015-05-26T09:17:10.607Z</time>
      </trkpt>
      <trkpt lat="48.40868" lon="2.65909">
        <ele>172</ele>
        <time>2015-05-26T09:17:16.596Z</time>
      </trkpt>
      <trkpt lat="48.40868" lon="2.65911">
        <ele>173</ele>
        <time>2015-05-26T09:17:17.595Z</time>
      </trkpt>
      <trkpt lat="48.40869" lon="2.65924">
        <ele>175</ele>
        <time>2015-05-26T09:17:22.598Z</time>
      </trkpt>
      <trkpt lat="48.4087" lon="2.65927">
        <ele>176</ele>
        <time>2015-05-26T09:17:23.607Z</time>
      </trkpt>
      <trkpt lat="48.4087" lon="2.65939">
        <ele>180</ele>
        <time>2015-05-26T09:17:28.605Z</time>
      </trkpt>
      <trkpt lat="48.40869" lon="2.65941">
        <ele>180</ele>
        <time>2015-05-26T09:17:29.607Z</time>
      </trkpt>
      <trkpt lat="48.40871" lon="2.65954">
        <ele>177</ele>
        <time>2015-05-26T09:17:36.596Z</time>
      </trkpt>
      <trkpt lat="48.40871" lon="2.65955">
        <ele>178</ele>
        <time>2015-05-26T09:17:37.586Z</time>
      </trkpt>
      <trkpt lat="48.40879" lon="2.65959">
        <ele>172</ele>
        <time>2015-05-26T09:17:45.606Z</time>
      </trkpt>
      <trkpt lat="48.4088" lon="2.65958">
        <ele>172</ele>
        <time>2015-05-26T09:17:46.619Z</time>
      </trkpt>
      <trkpt lat="48.40888" lon="2.65957">
        <ele>170</ele>
        <time>2015-05-26T09:17:53.625Z</time>
      </trkpt>
      <trkpt lat="48.40889" lon="2.65957">
        <ele>171</ele>
        <time>2015-05-26T09:17:54.625Z</time>
      </trkpt>
      <trkpt lat="48.40897" lon="2.6596">
        <ele>167</ele>
        <time>2015-05-26T09:18:00.622Z</time>
      </trkpt>
      <trkpt lat="48.40899" lon="2.65961">
        <ele>168</ele>
        <time>2015-05-26T09:18:01.627Z</time>
      </trkpt>
      <trkpt lat="48.40906" lon="2.65962">
        <ele>171</ele>
        <time>2015-05-26T09:18:05.628Z</time>
      </trkpt>
      <trkpt lat="48.40908" lon="2.65962">
        <ele>172</ele>
        <time>2015-05-26T09:18:06.615Z</time>
      </trkpt>
      <trkpt lat="48.40915" lon="2.6596">
        <ele>171</ele>
        <time>2015-05-26T09:18:10.635Z</time>
      </trkpt>
      <trkpt lat="48.40917" lon="2.6596">
        <ele>170</ele>
        <time>2015-05-26T09:18:11.628Z</time>
      </trkpt>
      <trkpt lat="48.40925" lon="2.65959">
        <ele>169</ele>
        <time>2015-05-26T09:18:18.624Z</time>
      </trkpt>
      <trkpt lat="48.40926" lon="2.65959">
        <ele>169</ele>
        <time>2015-05-26T09:18:19.628Z</time>
      </trkpt>
      <trkpt lat="48.40934" lon="2.65958">
        <ele>171</ele>
        <time>2015-05-26T09:18:25.627Z</time>
      </trkpt>
      <trkpt lat="48.40935" lon="2.65958">
        <ele>171</ele>
        <time>2015-05-26T09:18:26.625Z</time>
      </trkpt>
      <trkpt lat="48.40943" lon="2.65952">
        <ele>175</ele>
        <time>2015-05-26T09:19:47.614Z</time>
      </trkpt>
      <trkpt lat="48.40944" lon="2.65952">
        <ele>173</ele>
        <time>2015-05-26T09:19:48.624Z</time>
      </trkpt>
      <trkpt lat="48.40951" lon="2.65953">
        <ele>174</ele>
        <time>2015-05-26T09:19:52.613Z</time>
      </trkpt>
      <trkpt lat="48.40953" lon="2.65953">
        <ele>173</ele>
        <time>2015-05-26T09:19:53.631Z</time>
      </trkpt>
      <trkpt lat="48.40961" lon="2.65952">
        <ele>172</ele>
        <time>2015-05-26T09:19:57.622Z</time>
      </trkpt>
      <trkpt lat="48.40963" lon="2.65952">
        <ele>171</ele>
        <time>2015-05-26T09:19:58.623Z</time>
      </trkpt>
      <trkpt lat="48.40971" lon="2.65951">
        <ele>170</ele>
        <time>2015-05-26T09:20:04.631Z</time>
      </trkpt>
      <trkpt lat="48.40973" lon="2.65951">
        <ele>170</ele>
        <time>2015-05-26T09:20:05.618Z</time>
      </trkpt>
      <trkpt lat="48.40981" lon="2.65954">
        <ele>168</ele>
        <time>2015-05-26T09:20:10.624Z</time>
      </trkpt>
      <trkpt lat="48.40982" lon="2.65955">
        <ele>169</ele>
        <time>2015-05-26T09:20:11.623Z</time>
      </trkpt>
      <trkpt lat="48.4099" lon="2.65957">
        <ele>170</ele>
        <time>2015-05-26T09:20:16.622Z</time>
      </trkpt>
      <trkpt lat="48.40992" lon="2.65957">
        <ele>170</ele>
        <time>2015-05-26T09:20:17.621Z</time>
      </trkpt>
      <trkpt lat="48.41" lon="2.65956">
        <ele>170</ele>
        <time>2015-05-26T09:20:24.624Z</time>
      </trkpt>
      <trkpt lat="48.41002" lon="2.65956">
        <ele>171</ele>
        <time>2015-05-26T09:20:25.626Z</time>
      </trkpt>
      <trkpt lat="48.4101" lon="2.65955">
        <ele>173</ele>
        <time>2015-05-26T09:20:31.623Z</time>
      </trkpt>
      <trkpt lat="48.41012" lon="2.65954">
        <ele>174</ele>
        <time>2015-05-26T09:20:32.629Z</time>
      </trkpt>
      <trkpt lat="48.41019" lon="2.65952">
        <ele>173</ele>
        <time>2015-05-26T09:20:38.629Z</time>
      </trkpt>
      <trkpt lat="48.41021" lon="2.65952">
        <ele>174</ele>
        <time>2015-05-26T09:20:39.702Z</time>
      </trkpt>
      <trkpt lat="48.41028" lon="2.65958">
        <ele>171</ele>
        <time>2015-05-26T09:20:47.632Z</time>
      </trkpt>
      <trkpt lat="48.41028" lon="2.65959">
        <ele>170</ele>
        <time>2015-05-26T09:20:48.616Z</time>
      </trkpt>
      <trkpt lat="48.41022" lon="2.65967">
        <ele>168</ele>
        <time>2015-05-26T09:20:55.623Z</time>
      </trkpt>
      <trkpt lat="48.41021" lon="2.65969">
        <ele>168</ele>
        <time>2015-05-26T09:20:56.634Z</time>
      </trkpt>
      <trkpt lat="48.41016" lon="2.65978">
        <ele>168</ele>
        <time>2015-05-26T09:21:02.608Z</time>
      </trkpt>
      <trkpt lat="48.41015" lon="2.6598">
        <ele>169</ele>
        <time>2015-05-26T09:21:03.612Z</time>
      </trkpt>
      <trkpt lat="48.41009" lon="2.6599">
        <ele>168</ele>
        <time>2015-05-26T09:21:09.623Z</time>
      </trkpt>
      <trkpt lat="48.41008" lon="2.65991">
        <ele>167</ele>
        <time>2015-05-26T09:21:10.634Z</time>
      </trkpt>
      <trkpt lat="48.41003" lon="2.66">
        <ele>169</ele>
        <time>2015-05-26T09:21:17.621Z</time>
      </trkpt>
      <trkpt lat="48.41002" lon="2.66003">
        <ele>169</ele>
        <time>2015-05-26T09:21:18.625Z</time>
      </trkpt>
      <trkpt lat="48.40995" lon="2.66011">
        <ele>169</ele>
        <time>2015-05-26T09:21:23.628Z</time>
      </trkpt>
      <trkpt lat="48.40993" lon="2.66012">
        <ele>169</ele>
        <time>2015-05-26T09:21:24.627Z</time>
      </trkpt>
      <trkpt lat="48.40989" lon="2.66023">
        <ele>170</ele>
        <time>2015-05-26T09:21:31.617Z</time>
      </trkpt>
      <trkpt lat="48.40989" lon="2.66025">
        <ele>171</ele>
        <time>2015-05-26T09:21:32.632Z</time>
      </trkpt>
      <trkpt lat="48.40987" lon="2.66036">
        <ele>174</ele>
        <time>2015-05-26T09:21:37.628Z</time>
      </trkpt>
      <trkpt lat="48.40987" lon="2.66039">
        <ele>175</ele>
        <time>2015-05-26T09:21:38.630Z</time>
      </trkpt>
      <trkpt lat="48.40981" lon="2.66048">
        <ele>174</ele>
        <time>2015-05-26T09:21:43.628Z</time>
      </trkpt>
      <trkpt lat="48.4098" lon="2.6605">
        <ele>175</ele>
        <time>2015-05-26T09:21:44.625Z</time>
      </trkpt>
      <trkpt lat="48.40977" lon="2.66062">
        <ele>175</ele>
        <time>2015-05-26T09:21:49.629Z</time>
      </trkpt>
      <trkpt lat="48.40976" lon="2.66063">
        <ele>176</ele>
        <time>2015-05-26T09:21:50.623Z</time>
      </trkpt>
      <trkpt lat="48.40969" lon="2.66072">
        <ele>175</ele>
        <time>2015-05-26T09:21:56.616Z</time>
      </trkpt>
      <trkpt lat="48.40969" lon="2.66074">
        <ele>176</ele>
        <time>2015-05-26T09:21:57.607Z</time>
      </trkpt>
      <trkpt lat="48.40967" lon="2.66087">
        <ele>172</ele>
        <time>2015-05-26T09:22:05.621Z</time>
      </trkpt>
      <trkpt lat="48.40967" lon="2.66088">
        <ele>173</ele>
        <time>2015-05-26T09:22:06.617Z</time>
      </trkpt>
      <trkpt lat="48.40962" lon="2.66097">
        <ele>174</ele>
        <time>2015-05-26T09:22:12.624Z</time>
      </trkpt>
      <trkpt lat="48.4096" lon="2.66098">
        <ele>175</ele>
        <time>2015-05-26T09:22:13.634Z</time>
      </trkpt>
      <trkpt lat="48.40958" lon="2.66111">
        <ele>174</ele>
        <time>2015-05-26T09:22:19.631Z</time>
      </trkpt>
      <trkpt lat="48.40958" lon="2.66112">
        <ele>174</ele>
        <time>2015-05-26T09:22:20.639Z</time>
      </trkpt>
      <trkpt lat="48.40953" lon="2.6612">
        <ele>178</ele>
        <time>2015-05-26T09:22:26.608Z</time>
      </trkpt>
      <trkpt lat="48.40952" lon="2.66123">
        <ele>178</ele>
        <time>2015-05-26T09:22:27.628Z</time>
      </trkpt>
      <trkpt lat="48.40948" lon="2.66133">
        <ele>180</ele>
        <time>2015-05-26T09:22:30.609Z</time>
      </trkpt>
      <trkpt lat="48.40947" lon="2.66135">
        <ele>179</ele>
        <time>2015-05-26T09:22:31.616Z</time>
      </trkpt>
      <trkpt lat="48.4094" lon="2.66144">
        <ele>182</ele>
        <time>2015-05-26T09:22:37.624Z</time>
      </trkpt>
      <trkpt lat="48.4094" lon="2.66146">
        <ele>182</ele>
        <time>2015-05-26T09:22:38.632Z</time>
      </trkpt>
      <trkpt lat="48.40936" lon="2.66158">
        <ele>182</ele>
        <time>2015-05-26T09:22:44.609Z</time>
      </trkpt>
      <trkpt lat="48.40935" lon="2.66159">
        <ele>181</ele>
        <time>2015-05-26T09:22:45.624Z</time>
      </trkpt>
      <trkpt lat="48.40928" lon="2.66165">
        <ele>182</ele>
        <time>2015-05-26T09:22:51.608Z</time>
      </trkpt>
      <trkpt lat="48.40926" lon="2.66166">
        <ele>182</ele>
        <time>2015-05-26T09:22:52.610Z</time>
      </trkpt>
      <trkpt lat="48.40919" lon="2.66173">
        <ele>179</ele>
        <time>2015-05-26T09:22:58.623Z</time>
      </trkpt>
      <trkpt lat="48.40919" lon="2.66174">
        <ele>180</ele>
        <time>2015-05-26T09:22:59.622Z</time>
      </trkpt>
      <trkpt lat="48.40915" lon="2.66186">
        <ele>181</ele>
        <time>2015-05-26T09:23:07.620Z</time>
      </trkpt>
      <trkpt lat="48.40915" lon="2.66187">
        <ele>181</ele>
        <time>2015-05-26T09:23:08.610Z</time>
      </trkpt>
      <trkpt lat="48.4091" lon="2.66196">
        <ele>180</ele>
        <time>2015-05-26T09:23:13.625Z</time>
      </trkpt>
      <trkpt lat="48.40908" lon="2.66198">
        <ele>178</ele>
        <time>2015-05-26T09:23:14.627Z</time>
      </trkpt>
      <trkpt lat="48.40903" lon="2.66206">
        <ele>176</ele>
        <time>2015-05-26T09:23:18.622Z</time>
      </trkpt>
      <trkpt lat="48.40902" lon="2.66208">
        <ele>178</ele>
        <time>2015-05-26T09:23:19.623Z</time>
      </trkpt>
      <trkpt lat="48.40896" lon="2.66216">
        <ele>181</ele>
        <time>2015-05-26T09:23:24.623Z</time>
      </trkpt>
      <trkpt lat="48.40894" lon="2.66218">
        <ele>182</ele>
        <time>2015-05-26T09:23:25.610Z</time>
      </trkpt>
      <trkpt lat="48.40898" lon="2.66229">
        <ele>178</ele>
        <time>2015-05-26T09:23:34.625Z</time>
      </trkpt>
      <trkpt lat="48.409" lon="2.6623">
        <ele>177</ele>
        <time>2015-05-26T09:23:35.607Z</time>
      </trkpt>
      <trkpt lat="48.40907" lon="2.66236">
        <ele>169</ele>
        <time>2015-05-26T09:23:42.609Z</time>
      </trkpt>
      <trkpt lat="48.40908" lon="2.66237">
        <ele>168</ele>
        <time>2015-05-26T09:23:43.626Z</time>
      </trkpt>
      <trkpt lat="48.40915" lon="2.66244">
        <ele>169</ele>
        <time>2015-05-26T09:23:49.623Z</time>
      </trkpt>
      <trkpt lat="48.40916" lon="2.66245">
        <ele>168</ele>
        <time>2015-05-26T09:23:50.631Z</time>
      </trkpt>
      <trkpt lat="48.40923" lon="2.66249">
        <ele>167</ele>
        <time>2015-05-26T09:23:56.606Z</time>
      </trkpt>
      <trkpt lat="48.40924" lon="2.6625">
        <ele>167</ele>
        <time>2015-05-26T09:23:57.611Z</time>
      </trkpt>
      <trkpt lat="48.40932" lon="2.66255">
        <ele>161</ele>
        <time>2015-05-26T09:24:03.624Z</time>
      </trkpt>
      <trkpt lat="48.40933" lon="2.66256">
        <ele>159</ele>
        <time>2015-05-26T09:24:04.624Z</time>
      </trkpt>
      <trkpt lat="48.40939" lon="2.66265">
        <ele>160</ele>
        <time>2015-05-26T09:24:14.630Z</time>
      </trkpt>
      <trkpt lat="48.4094" lon="2.66266">
        <ele>161</ele>
        <time>2015-05-26T09:24:15.610Z</time>
      </trkpt>
      <trkpt lat="48.40947" lon="2.66275">
        <ele>162</ele>
        <time>2015-05-26T09:24:22.614Z</time>
      </trkpt>
      <trkpt lat="48.40948" lon="2.66276">
        <ele>162</ele>
        <time>2015-05-26T09:24:23.625Z</time>
      </trkpt>
      <trkpt lat="48.40955" lon="2.66283">
        <ele>162</ele>
        <time>2015-05-26T09:24:30.627Z</time>
      </trkpt>
      <trkpt lat="48.40956" lon="2.66285">
        <ele>161</ele>
        <time>2015-05-26T09:24:31.610Z</time>
      </trkpt>
      <trkpt lat="48.40961" lon="2.66296">
        <ele>165</ele>
        <time>2015-05-26T09:24:38.622Z</time>
      </trkpt>
      <trkpt lat="48.40962" lon="2.66297">
        <ele>163</ele>
        <time>2015-05-26T09:24:39.624Z</time>
      </trkpt>
      <trkpt lat="48.40969" lon="2.66303">
        <ele>165</ele>
        <time>2015-05-26T09:24:46.610Z</time>
      </trkpt>
      <trkpt lat="48.4097" lon="2.66304">
        <ele>166</ele>
        <time>2015-05-26T09:24:47.608Z</time>
      </trkpt>
      <trkpt lat="48.40978" lon="2.66312">
        <ele>172</ele>
        <time>2015-05-26T09:24:54.622Z</time>
      </trkpt>
      <trkpt lat="48.40979" lon="2.66313">
        <ele>173</ele>
        <time>2015-05-26T09:24:55.633Z</time>
      </trkpt>
      <trkpt lat="48.40986" lon="2.66318">
        <ele>178</ele>
        <time>2015-05-26T09:24:59.609Z</time>
      </trkpt>
      <trkpt lat="48.40988" lon="2.66319">
        <ele>176</ele>
        <time>2015-05-26T09:25:00.628Z</time>
      </trkpt>
      <trkpt lat="48.40995" lon="2.66321">
        <ele>179</ele>
        <time>2015-05-26T09:25:04.623Z</time>
      </trkpt>
      <trkpt lat="48.40997" lon="2.66321">
        <ele>179</ele>
        <time>2015-05-26T09:25:05.626Z</time>
      </trkpt>
      <trkpt lat="48.41005" lon="2.66325">
        <ele>181</ele>
        <time>2015-05-26T09:25:07.612Z</time>
      </trkpt>
      <trkpt lat="48.41007" lon="2.66326">
        <ele>181</ele>
        <time>2015-05-26T09:25:08.612Z</time>
      </trkpt>
      <trkpt lat="48.41014" lon="2.66335">
        <ele>179</ele>
        <time>2015-05-26T09:25:13.611Z</time>
      </trkpt>
      <trkpt lat="48.41014" lon="2.66337">
        <ele>178</ele>
        <time>2015-05-26T09:25:14.624Z</time>
      </trkpt>
      <trkpt lat="48.41015" lon="2.66349">
        <ele>175</ele>
        <time>2015-05-26T09:25:22.629Z</time>
      </trkpt>
      <trkpt lat="48.41015" lon="2.66351">
        <ele>173</ele>
        <time>2015-05-26T09:25:23.610Z</time>
      </trkpt>
      <trkpt lat="48.41014" lon="2.66363">
        <ele>172</ele>
        <time>2015-05-26T09:25:33.628Z</time>
      </trkpt>
      <trkpt lat="48.41013" lon="2.66365">
        <ele>172</ele>
        <time>2015-05-26T09:25:34.623Z</time>
      </trkpt>
      <trkpt lat="48.41013" lon="2.66378">
        <ele>173</ele>
        <time>2015-05-26T09:25:44.622Z</time>
      </trkpt>
      <trkpt lat="48.41013" lon="2.66379">
        <ele>173</ele>
        <time>2015-05-26T09:25:45.612Z</time>
      </trkpt>
      <trkpt lat="48.41014" lon="2.66391">
        <ele>171</ele>
        <time>2015-05-26T09:25:54.608Z</time>
      </trkpt>
      <trkpt lat="48.41014" lon="2.66393">
        <ele>171</ele>
        <time>2015-05-26T09:25:55.625Z</time>
      </trkpt>
      <trkpt lat="48.41013" lon="2.66407">
        <ele>169</ele>
        <time>2015-05-26T09:26:01.671Z</time>
      </trkpt>
      <trkpt lat="48.41013" lon="2.66409">
        <ele>170</ele>
        <time>2015-05-26T09:26:02.612Z</time>
      </trkpt>
      <trkpt lat="48.41013" lon="2.66421">
        <ele>170</ele>
        <time>2015-05-26T09:26:12.612Z</time>
      </trkpt>
      <trkpt lat="48.41012" lon="2.66422">
        <ele>171</ele>
        <time>2015-05-26T09:26:13.618Z</time>
      </trkpt>
      <trkpt lat="48.41009" lon="2.66434">
        <ele>169</ele>
        <time>2015-05-26T09:26:21.610Z</time>
      </trkpt>
      <trkpt lat="48.41008" lon="2.66436">
        <ele>170</ele>
        <time>2015-05-26T09:26:22.613Z</time>
      </trkpt>
      <trkpt lat="48.41004" lon="2.66447">
        <ele>167</ele>
        <time>2015-05-26T09:26:28.618Z</time>
      </trkpt>
      <trkpt lat="48.41003" lon="2.66448">
        <ele>168</ele>
        <time>2015-05-26T09:26:29.611Z</time>
      </trkpt>
      <trkpt lat="48.41002" lon="2.66461">
        <ele>174</ele>
        <time>2015-05-26T09:26:36.630Z</time>
      </trkpt>
      <trkpt lat="48.41001" lon="2.66462">
        <ele>172</ele>
        <time>2015-05-26T09:26:37.607Z</time>
      </trkpt>
      <trkpt lat="48.40998" lon="2.66474">
        <ele>167</ele>
        <time>2015-05-26T09:26:50.628Z</time>
      </trkpt>
      <trkpt lat="48.40998" lon="2.66476">
        <ele>167</ele>
        <time>2015-05-26T09:26:51.625Z</time>
      </trkpt>
      <trkpt lat="48.40999" lon="2.66489">
        <ele>169</ele>
        <time>2015-05-26T09:26:56.629Z</time>
      </trkpt>
      <trkpt lat="48.40999" lon="2.66493">
        <ele>168</ele>
        <time>2015-05-26T09:26:57.630Z</time>
      </trkpt>
      <trkpt lat="48.41" lon="2.66505">
        <ele>171</ele>
        <time>2015-05-26T09:27:00.636Z</time>
      </trkpt>
      <trkpt lat="48.41001" lon="2.66507">
        <ele>171</ele>
        <time>2015-05-26T09:27:01.626Z</time>
      </trkpt>
      <trkpt lat="48.41008" lon="2.66512">
        <ele>173</ele>
        <time>2015-05-26T09:27:07.613Z</time>
      </trkpt>
      <trkpt lat="48.41009" lon="2.66512">
        <ele>174</ele>
        <time>2015-05-26T09:27:08.629Z</time>
      </trkpt>
      <trkpt lat="48.41017" lon="2.66519">
        <ele>169</ele>
        <time>2015-05-26T09:27:16.609Z</time>
      </trkpt>
      <trkpt lat="48.41017" lon="2.6652">
        <ele>168</ele>
        <time>2015-05-26T09:27:17.623Z</time>
      </trkpt>
      <trkpt lat="48.41022" lon="2.6653">
        <ele>166</ele>
        <time>2015-05-26T09:27:26.610Z</time>
      </trkpt>
      <trkpt lat="48.41023" lon="2.66532">
        <ele>166</ele>
        <time>2015-05-26T09:27:27.610Z</time>
      </trkpt>
      <trkpt lat="48.41027" lon="2.66542">
        <ele>166</ele>
        <time>2015-05-26T09:27:35.607Z</time>
      </trkpt>
      <trkpt lat="48.41027" lon="2.66544">
        <ele>165</ele>
        <time>2015-05-26T09:27:36.606Z</time>
      </trkpt>
      <trkpt lat="48.41031" lon="2.66555">
        <ele>163</ele>
        <time>2015-05-26T09:27:44.623Z</time>
      </trkpt>
      <trkpt lat="48.41031" lon="2.66556">
        <ele>162</ele>
        <time>2015-05-26T09:27:45.622Z</time>
      </trkpt>
      <trkpt lat="48.41038" lon="2.66561">
        <ele>163</ele>
        <time>2015-05-26T09:27:51.611Z</time>
      </trkpt>
      <trkpt lat="48.4104" lon="2.66561">
        <ele>165</ele>
        <time>2015-05-26T09:27:52.625Z</time>
      </trkpt>
      <trkpt lat="48.41048" lon="2.66563">
        <ele>166</ele>
        <time>2015-05-26T09:27:57.627Z</time>
      </trkpt>
      <trkpt lat="48.41049" lon="2.66565">
        <ele>167</ele>
        <time>2015-05-26T09:27:58.627Z</time>
      </trkpt>
      <trkpt lat="48.41056" lon="2.66571">
        <ele>170</ele>
        <time>2015-05-26T09:28:01.610Z</time>
      </trkpt>
      <trkpt lat="48.41059" lon="2.66572">
        <ele>172</ele>
        <time>2015-05-26T09:28:02.608Z</time>
      </trkpt>
      <trkpt lat="48.41064" lon="2.66581">
        <ele>170</ele>
        <time>2015-05-26T09:28:09.618Z</time>
      </trkpt>
      <trkpt lat="48.41065" lon="2.66583">
        <ele>171</ele>
        <time>2015-05-26T09:28:10.613Z</time>
      </trkpt>
      <trkpt lat="48.41068" lon="2.66595">
        <ele>171</ele>
        <time>2015-05-26T09:28:20.626Z</time>
      </trkpt>
      <trkpt lat="48.41069" lon="2.66596">
        <ele>172</ele>
        <time>2015-05-26T09:28:21.610Z</time>
      </trkpt>
      <trkpt lat="48.41076" lon="2.66599">
        <ele>171</ele>
        <time>2015-05-26T09:28:25.628Z</time>
      </trkpt>
      <trkpt lat="48.41078" lon="2.666">
        <ele>174</ele>
        <time>2015-05-26T09:28:26.609Z</time>
      </trkpt>
      <trkpt lat="48.4108" lon="2.66612">
        <ele>167</ele>
        <time>2015-05-26T09:28:35.630Z</time>
      </trkpt>
      <trkpt lat="48.41079" lon="2.66614">
        <ele>167</ele>
        <time>2015-05-26T09:28:36.611Z</time>
      </trkpt>
      <trkpt lat="48.41076" lon="2.66624">
        <ele>160</ele>
        <time>2015-05-26T09:28:44.623Z</time>
      </trkpt>
      <trkpt lat="48.41075" lon="2.66626">
        <ele>159</ele>
        <time>2015-05-26T09:28:45.625Z</time>
      </trkpt>
      <trkpt lat="48.41073" lon="2.66636">
        <ele>154</ele>
        <time>2015-05-26T09:29:11.623Z</time>
      </trkpt>
      <trkpt lat="48.41073" lon="2.6664">
        <ele>157</ele>
        <time>2015-05-26T09:29:12.620Z</time>
      </trkpt>
      <trkpt lat="48.41074" lon="2.66652">
        <ele>158</ele>
        <time>2015-05-26T09:29:16.619Z</time>
      </trkpt>
      <trkpt lat="48.41075" lon="2.66654">
        <ele>159</ele>
        <time>2015-05-26T09:29:17.624Z</time>
      </trkpt>
      <trkpt lat="48.41079" lon="2.66665">
        <ele>157</ele>
        <time>2015-05-26T09:29:23.616Z</time>
      </trkpt>
      <trkpt lat="48.4108" lon="2.66667">
        <ele>158</ele>
        <time>2015-05-26T09:29:24.613Z</time>
      </trkpt>
      <trkpt lat="48.4108" lon="2.66679">
        <ele>158</ele>
        <time>2015-05-26T09:29:29.627Z</time>
      </trkpt>
      <trkpt lat="48.41079" lon="2.66681">
        <ele>158</ele>
        <time>2015-05-26T09:29:30.630Z</time>
      </trkpt>
      <trkpt lat="48.41082" lon="2.66693">
        <ele>160</ele>
        <time>2015-05-26T09:29:35.623Z</time>
      </trkpt>
      <trkpt lat="48.41082" lon="2.66696">
        <ele>161</ele>
        <time>2015-05-26T09:29:36.611Z</time>
      </trkpt>
      <trkpt lat="48.41082" lon="2.66707">
        <ele>157</ele>
        <time>2015-05-26T09:29:41.611Z</time>
      </trkpt>
      <trkpt lat="48.41082" lon="2.66709">
        <ele>156</ele>
        <time>2015-05-26T09:29:42.609Z</time>
      </trkpt>
      <trkpt lat="48.41085" lon="2.66722">
        <ele>155</ele>
        <time>2015-05-26T09:29:51.610Z</time>
      </trkpt>
      <trkpt lat="48.41085" lon="2.66723">
        <ele>154</ele>
        <time>2015-05-26T09:29:52.609Z</time>
      </trkpt>
      <trkpt lat="48.41086" lon="2.66736">
        <ele>153</ele>
        <time>2015-05-26T09:30:00.625Z</time>
      </trkpt>
      <trkpt lat="48.41086" lon="2.66737">
        <ele>153</ele>
        <time>2015-05-26T09:30:01.609Z</time>
      </trkpt>
      <trkpt lat="48.41088" lon="2.66749">
        <ele>155</ele>
        <time>2015-05-26T09:30:09.619Z</time>
      </trkpt>
      <trkpt lat="48.41089" lon="2.66751">
        <ele>155</ele>
        <time>2015-05-26T09:30:10.626Z</time>
      </trkpt>
      <trkpt lat="48.41092" lon="2.66764">
        <ele>154</ele>
        <time>2015-05-26T09:30:17.634Z</time>
      </trkpt>
      <trkpt lat="48.41091" lon="2.66765">
        <ele>153</ele>
        <time>2015-05-26T09:30:18.620Z</time>
      </trkpt>
      <trkpt lat="48.41093" lon="2.66778">
        <ele>151</ele>
        <time>2015-05-26T09:30:25.625Z</time>
      </trkpt>
      <trkpt lat="48.41093" lon="2.66779">
        <ele>150</ele>
        <time>2015-05-26T09:30:26.627Z</time>
      </trkpt>
      <trkpt lat="48.41098" lon="2.66791">
        <ele>153</ele>
        <time>2015-05-26T09:30:35.626Z</time>
      </trkpt>
      <trkpt lat="48.41099" lon="2.66792">
        <ele>151</ele>
        <time>2015-05-26T09:30:36.622Z</time>
      </trkpt>
      <trkpt lat="48.41101" lon="2.66804">
        <ele>151</ele>
        <time>2015-05-26T09:30:44.626Z</time>
      </trkpt>
      <trkpt lat="48.41101" lon="2.66805">
        <ele>152</ele>
        <time>2015-05-26T09:30:45.609Z</time>
      </trkpt>
      <trkpt lat="48.411" lon="2.66818">
        <ele>153</ele>
        <time>2015-05-26T09:30:52.625Z</time>
      </trkpt>
      <trkpt lat="48.41099" lon="2.66819">
        <ele>153</ele>
        <time>2015-05-26T09:30:53.613Z</time>
      </trkpt>
      <trkpt lat="48.41096" lon="2.66832">
        <ele>149</ele>
        <time>2015-05-26T09:31:05.625Z</time>
      </trkpt>
      <trkpt lat="48.41096" lon="2.66832">
        <ele>149</ele>
        <time>2015-05-26T09:31:06.620Z</time>
      </trkpt>
      <trkpt lat="48.41089" lon="2.66829">
        <ele>149</ele>
        <time>2015-05-26T09:31:21.610Z</time>
      </trkpt>
      <trkpt lat="48.41087" lon="2.66829">
        <ele>147</ele>
        <time>2015-05-26T09:31:22.621Z</time>
      </trkpt>
      <trkpt lat="48.4108" lon="2.66827">
        <ele>146</ele>
        <time>2015-05-26T09:31:25.628Z</time>
      </trkpt>
      <trkpt lat="48.41077" lon="2.66826">
        <ele>148</ele>
        <time>2015-05-26T09:31:26.610Z</time>
      </trkpt>
      <trkpt lat="48.41071" lon="2.66826">
        <ele>146</ele>
        <time>2015-05-26T09:31:28.627Z</time>
      </trkpt>
      <trkpt lat="48.41068" lon="2.66826">
        <ele>147</ele>
        <time>2015-05-26T09:31:29.628Z</time>
      </trkpt>
      <trkpt lat="48.4106" lon="2.66825">
        <ele>145</ele>
        <time>2015-05-26T09:31:32.629Z</time>
      </trkpt>
      <trkpt lat="48.41059" lon="2.66825">
        <ele>144</ele>
        <time>2015-05-26T09:31:33.624Z</time>
      </trkpt>
      <trkpt lat="48.41051" lon="2.66824">
        <ele>150</ele>
        <time>2015-05-26T09:31:39.623Z</time>
      </trkpt>
      <trkpt lat="48.4105" lon="2.66824">
        <ele>150</ele>
        <time>2015-05-26T09:31:40.607Z</time>
      </trkpt>
      <trkpt lat="48.41041" lon="2.66822">
        <ele>148</ele>
        <time>2015-05-26T09:31:49.629Z</time>
      </trkpt>
      <trkpt lat="48.41041" lon="2.66823">
        <ele>148</ele>
        <time>2015-05-26T09:31:50.622Z</time>
      </trkpt>
      <trkpt lat="48.41032" lon="2.66822">
        <ele>151</ele>
        <time>2015-05-26T09:32:03.625Z</time>
      </trkpt>
      <trkpt lat="48.41031" lon="2.66821">
        <ele>151</ele>
        <time>2015-05-26T09:32:04.627Z</time>
      </trkpt>
      <trkpt lat="48.41022" lon="2.6682">
        <ele>152</ele>
        <time>2015-05-26T09:32:13.625Z</time>
      </trkpt>
      <trkpt lat="48.41021" lon="2.6682">
        <ele>152</ele>
        <time>2015-05-26T09:32:14.630Z</time>
      </trkpt>
      <trkpt lat="48.41012" lon="2.66817">
        <ele>156</ele>
        <time>2015-05-26T09:32:21.608Z</time>
      </trkpt>
      <trkpt lat="48.41011" lon="2.66817">
        <ele>157</ele>
        <time>2015-05-26T09:32:22.623Z</time>
      </trkpt>
      <trkpt lat="48.41003" lon="2.66821">
        <ele>158</ele>
        <time>2015-05-26T09:32:29.627Z</time>
      </trkpt>
      <trkpt lat="48.41002" lon="2.66822">
        <ele>156</ele>
        <time>2015-05-26T09:32:30.625Z</time>
      </trkpt>
      <trkpt lat="48.40995" lon="2.66826">
        <ele>163</ele>
        <time>2015-05-26T09:32:37.608Z</time>
      </trkpt>
      <trkpt lat="48.40993" lon="2.66826">
        <ele>164</ele>
        <time>2015-05-26T09:32:38.624Z</time>
      </trkpt>
      <trkpt lat="48.40984" lon="2.66824">
        <ele>164</ele>
        <time>2015-05-26T09:32:47.612Z</time>
      </trkpt>
      <trkpt lat="48.40983" lon="2.66823">
        <ele>164</ele>
        <time>2015-05-26T09:32:48.612Z</time>
      </trkpt>
      <trkpt lat="48.40976" lon="2.6683">
        <ele>162</ele>
        <time>2015-05-26T09:33:03.613Z</time>
      </trkpt>
      <trkpt lat="48.40975" lon="2.6683">
        <ele>162</ele>
        <time>2015-05-26T09:33:04.622Z</time>
      </trkpt>
      <trkpt lat="48.40967" lon="2.66829">
        <ele>164</ele>
        <time>2015-05-26T09:33:12.611Z</time>
      </trkpt>
      <trkpt lat="48.40966" lon="2.66831">
        <ele>163</ele>
        <time>2015-05-26T09:33:13.629Z</time>
      </trkpt>
      <trkpt lat="48.40966" lon="2.66844">
        <ele>163</ele>
        <time>2015-05-26T09:33:19.609Z</time>
      </trkpt>
      <trkpt lat="48.40967" lon="2.66845">
        <ele>164</ele>
        <time>2015-05-26T09:33:20.611Z</time>
      </trkpt>
      <trkpt lat="48.40969" lon="2.66858">
        <ele>167</ele>
        <time>2015-05-26T09:33:27.626Z</time>
      </trkpt>
      <trkpt lat="48.4097" lon="2.6686">
        <ele>167</ele>
        <time>2015-05-26T09:33:28.629Z</time>
      </trkpt>
      <trkpt lat="48.40971" lon="2.66873">
        <ele>170</ele>
        <time>2015-05-26T09:33:34.611Z</time>
      </trkpt>
      <trkpt lat="48.40971" lon="2.66875">
        <ele>170</ele>
        <time>2015-05-26T09:33:35.624Z</time>
      </trkpt>
      <trkpt lat="48.40974" lon="2.66886">
        <ele>168</ele>
        <time>2015-05-26T09:33:42.618Z</time>
      </trkpt>
      <trkpt lat="48.40974" lon="2.66888">
        <ele>167</ele>
        <time>2015-05-26T09:33:43.624Z</time>
      </trkpt>
      <trkpt lat="48.40974" lon="2.669">
        <ele>167</ele>
        <time>2015-05-26T09:33:49.610Z</time>
      </trkpt>
      <trkpt lat="48.40974" lon="2.66902">
        <ele>167</ele>
        <time>2015-05-26T09:33:50.638Z</time>
      </trkpt>
      <trkpt lat="48.40978" lon="2.66913">
        <ele>162</ele>
        <time>2015-05-26T09:34:02.610Z</time>
      </trkpt>
      <trkpt lat="48.40978" lon="2.66915">
        <ele>164</ele>
        <time>2015-05-26T09:34:03.627Z</time>
      </trkpt>
      <trkpt lat="48.40982" lon="2.66927">
        <ele>160</ele>
        <time>2015-05-26T09:34:13.633Z</time>
      </trkpt>
      <trkpt lat="48.40983" lon="2.66928">
        <ele>160</ele>
        <time>2015-05-26T09:34:14.628Z</time>
      </trkpt>
      <trkpt lat="48.40985" lon="2.66938">
        <ele>162</ele>
        <time>2015-05-26T09:34:19.631Z</time>
      </trkpt>
      <trkpt lat="48.40985" lon="2.66941">
        <ele>164</ele>
        <time>2015-05-26T09:34:20.626Z</time>
      </trkpt>
      <trkpt lat="48.40986" lon="2.66954">
        <ele>164</ele>
        <time>2015-05-26T09:34:25.625Z</time>
      </trkpt>
      <trkpt lat="48.40986" lon="2.66955">
        <ele>163</ele>
        <time>2015-05-26T09:34:26.611Z</time>
      </trkpt>
      <trkpt lat="48.40989" lon="2.66966">
        <ele>163</ele>
        <time>2015-05-26T09:36:13.626Z</time>
      </trkpt>
      <trkpt lat="48.40989" lon="2.66968">
        <ele>163</ele>
        <time>2015-05-26T09:36:14.625Z</time>
      </trkpt>
      <trkpt lat="48.40988" lon="2.6698">
        <ele>160</ele>
        <time>2015-05-26T09:36:20.612Z</time>
      </trkpt>
      <trkpt lat="48.40988" lon="2.66982">
        <ele>160</ele>
        <time>2015-05-26T09:36:21.618Z</time>
      </trkpt>
      <trkpt lat="48.4099" lon="2.66995">
        <ele>158</ele>
        <time>2015-05-26T09:36:28.630Z</time>
      </trkpt>
      <trkpt lat="48.4099" lon="2.66996">
        <ele>159</ele>
        <time>2015-05-26T09:36:29.628Z</time>
      </trkpt>
      <trkpt lat="48.4099" lon="2.67008">
        <ele>160</ele>
        <time>2015-05-26T09:36:35.626Z</time>
      </trkpt>
      <trkpt lat="48.4099" lon="2.6701">
        <ele>159</ele>
        <time>2015-05-26T09:36:36.607Z</time>
      </trkpt>
      <trkpt lat="48.40991" lon="2.67022">
        <ele>159</ele>
        <time>2015-05-26T09:36:42.625Z</time>
      </trkpt>
      <trkpt lat="48.40991" lon="2.67024">
        <ele>157</ele>
        <time>2015-05-26T09:36:43.631Z</time>
      </trkpt>
      <trkpt lat="48.40992" lon="2.67035">
        <ele>154</ele>
        <time>2015-05-26T09:36:50.628Z</time>
      </trkpt>
      <trkpt lat="48.40993" lon="2.67037">
        <ele>154</ele>
        <time>2015-05-26T09:36:51.620Z</time>
      </trkpt>
      <trkpt lat="48.40995" lon="2.67048">
        <ele>152</ele>
        <time>2015-05-26T09:36:58.637Z</time>
      </trkpt>
      <trkpt lat="48.40995" lon="2.6705">
        <ele>153</ele>
        <time>2015-05-26T09:36:59.622Z</time>
      </trkpt>
      <trkpt lat="48.40996" lon="2.67063">
        <ele>149</ele>
        <time>2015-05-26T09:37:05.629Z</time>
      </trkpt>
      <trkpt lat="48.40996" lon="2.67066">
        <ele>149</ele>
        <time>2015-05-26T09:37:06.622Z</time>
      </trkpt>
      <trkpt lat="48.40999" lon="2.67078">
        <ele>147</ele>
        <time>2015-05-26T09:37:13.629Z</time>
      </trkpt>
      <trkpt lat="48.41" lon="2.6708">
        <ele>148</ele>
        <time>2015-05-26T09:37:14.633Z</time>
      </trkpt>
      <trkpt lat="48.41002" lon="2.67092">
        <ele>144</ele>
        <time>2015-05-26T09:37:22.609Z</time>
      </trkpt>
      <trkpt lat="48.41002" lon="2.67094">
        <ele>143</ele>
        <time>2015-05-26T09:37:23.625Z</time>
      </trkpt>
      <trkpt lat="48.41002" lon="2.67106">
        <ele>144</ele>
        <time>2015-05-26T09:37:28.635Z</time>
      </trkpt>
      <trkpt lat="48.41003" lon="2.67109">
        <ele>144</ele>
        <time>2015-05-26T09:37:29.628Z</time>
      </trkpt>
      <trkpt lat="48.41004" lon="2.67122">
        <ele>145</ele>
        <time>2015-05-26T09:37:34.631Z</time>
      </trkpt>
      <trkpt lat="48.41005" lon="2.67124">
        <ele>146</ele>
        <time>2015-05-26T09:37:35.629Z</time>
      </trkpt>
      <trkpt lat="48.41006" lon="2.67136">
        <ele>147</ele>
        <time>2015-05-26T09:37:40.635Z</time>
      </trkpt>
      <trkpt lat="48.41006" lon="2.67138">
        <ele>148</ele>
        <time>2015-05-26T09:37:41.610Z</time>
      </trkpt>
      <trkpt lat="48.41007" lon="2.67151">
        <ele>148</ele>
        <time>2015-05-26T09:37:48.626Z</time>
      </trkpt>
      <trkpt lat="48.41007" lon="2.67152">
        <ele>147</ele>
        <time>2015-05-26T09:37:49.625Z</time>
      </trkpt>
      <trkpt lat="48.41008" lon="2.67164">
        <ele>147</ele>
        <time>2015-05-26T09:37:57.613Z</time>
      </trkpt>
      <trkpt lat="48.41008" lon="2.67166">
        <ele>146</ele>
        <time>2015-05-26T09:37:58.624Z</time>
      </trkpt>
      <trkpt lat="48.41009" lon="2.67178">
        <ele>144</ele>
        <time>2015-05-26T09:38:04.625Z</time>
      </trkpt>
      <trkpt lat="48.41009" lon="2.6718">
        <ele>144</ele>
        <time>2015-05-26T09:38:05.615Z</time>
      </trkpt>
      <trkpt lat="48.41013" lon="2.67192">
        <ele>145</ele>
        <time>2015-05-26T09:38:14.622Z</time>
      </trkpt>
      <trkpt lat="48.41013" lon="2.67193">
        <ele>145</ele>
        <time>2015-05-26T09:38:15.625Z</time>
      </trkpt>
      <trkpt lat="48.41014" lon="2.67204">
        <ele>147</ele>
        <time>2015-05-26T09:38:22.610Z</time>
      </trkpt>
      <trkpt lat="48.41014" lon="2.67206">
        <ele>147</ele>
        <time>2015-05-26T09:38:23.625Z</time>
      </trkpt>
      <trkpt lat="48.41016" lon="2.67218">
        <ele>148</ele>
        <time>2015-05-26T09:38:28.627Z</time>
      </trkpt>
      <trkpt lat="48.41017" lon="2.67221">
        <ele>149</ele>
        <time>2015-05-26T09:38:29.611Z</time>
      </trkpt>
      <trkpt lat="48.41018" lon="2.67232">
        <ele>148</ele>
        <time>2015-05-26T09:38:34.627Z</time>
      </trkpt>
      <trkpt lat="48.41018" lon="2.67235">
        <ele>149</ele>
        <time>2015-05-26T09:38:35.624Z</time>
      </trkpt>
      <trkpt lat="48.41018" lon="2.67247">
        <ele>148</ele>
        <time>2015-05-26T09:38:40.631Z</time>
      </trkpt>
      <trkpt lat="48.41018" lon="2.67248">
        <ele>146</ele>
        <time>2015-05-26T09:38:41.611Z</time>
      </trkpt>
      <trkpt lat="48.4102" lon="2.67261">
        <ele>149</ele>
        <time>2015-05-26T09:38:47.610Z</time>
      </trkpt>
      <trkpt lat="48.4102" lon="2.67263">
        <ele>148</ele>
        <time>2015-05-26T09:38:48.626Z</time>
      </trkpt>
      <trkpt lat="48.41022" lon="2.67276">
        <ele>146</ele>
        <time>2015-05-26T09:38:56.611Z</time>
      </trkpt>
      <trkpt lat="48.41022" lon="2.67278">
        <ele>146</ele>
        <time>2015-05-26T09:38:57.610Z</time>
      </trkpt>
      <trkpt lat="48.41023" lon="2.6729">
        <ele>145</ele>
        <time>2015-05-26T09:39:03.627Z</time>
      </trkpt>
      <trkpt lat="48.41023" lon="2.67292">
        <ele>144</ele>
        <time>2015-05-26T09:39:04.627Z</time>
      </trkpt>
      <trkpt lat="48.41023" lon="2.67305">
        <ele>142</ele>
        <time>2015-05-26T09:39:12.610Z</time>
      </trkpt>
      <trkpt lat="48.41023" lon="2.67307">
        <ele>142</ele>
        <time>2015-05-26T09:39:13.624Z</time>
      </trkpt>
      <trkpt lat="48.41021" lon="2.67319">
        <ele>143</ele>
        <time>2015-05-26T09:39:19.628Z</time>
      </trkpt>
      <trkpt lat="48.41021" lon="2.67321">
        <ele>142</ele>
        <time>2015-05-26T09:39:20.632Z</time>
      </trkpt>
      <trkpt lat="48.41018" lon="2.67333">
        <ele>144</ele>
        <time>2015-05-26T09:39:27.611Z</time>
      </trkpt>
      <trkpt lat="48.41017" lon="2.67335">
        <ele>145</ele>
        <time>2015-05-26T09:39:28.632Z</time>
      </trkpt>
      <trkpt lat="48.41018" lon="2.67347">
        <ele>146</ele>
        <time>2015-05-26T09:39:34.634Z</time>
      </trkpt>
      <trkpt lat="48.41018" lon="2.67349">
        <ele>145</ele>
        <time>2015-05-26T09:39:35.629Z</time>
      </trkpt>
      <trkpt lat="48.41014" lon="2.6736">
        <ele>140</ele>
        <time>2015-05-26T09:39:42.613Z</time>
      </trkpt>
      <trkpt lat="48.41013" lon="2.67361">
        <ele>140</ele>
        <time>2015-05-26T09:39:43.629Z</time>
      </trkpt>
      <trkpt lat="48.41013" lon="2.67374">
        <ele>144</ele>
        <time>2015-05-26T09:39:49.618Z</time>
      </trkpt>
      <trkpt lat="48.41013" lon="2.67377">
        <ele>145</ele>
        <time>2015-05-26T09:39:50.634Z</time>
      </trkpt>
      <trkpt lat="48.41019" lon="2.67385">
        <ele>143</ele>
        <time>2015-05-26T09:39:55.623Z</time>
      </trkpt>
      <trkpt lat="48.4102" lon="2.67386">
        <ele>143</ele>
        <time>2015-05-26T09:39:56.609Z</time>
      </trkpt>
      <trkpt lat="48.41021" lon="2.67398">
        <ele>141</ele>
        <time>2015-05-26T09:40:05.610Z</time>
      </trkpt>
      <trkpt lat="48.41021" lon="2.674">
        <ele>139</ele>
        <time>2015-05-26T09:40:06.624Z</time>
      </trkpt>
      <trkpt lat="48.41015" lon="2.67409">
        <ele>136</ele>
        <time>2015-05-26T09:40:13.631Z</time>
      </trkpt>
      <trkpt lat="48.41014" lon="2.6741">
        <ele>136</ele>
        <time>2015-05-26T09:40:14.613Z</time>
      </trkpt>
      <trkpt lat="48.4101" lon="2.67421">
        <ele>137</ele>
        <time>2015-05-26T09:40:20.632Z</time>
      </trkpt>
      <trkpt lat="48.41009" lon="2.67424">
        <ele>137</ele>
        <time>2015-05-26T09:40:21.612Z</time>
      </trkpt>
      <trkpt lat="48.41009" lon="2.67437">
        <ele>138</ele>
        <time>2015-05-26T09:40:26.608Z</time>
      </trkpt>
      <trkpt lat="48.41009" lon="2.6744">
        <ele>141</ele>
        <time>2015-05-26T09:40:27.610Z</time>
      </trkpt>
      <trkpt lat="48.41006" lon="2.67452">
        <ele>142</ele>
        <time>2015-05-26T09:40:32.611Z</time>
      </trkpt>
      <trkpt lat="48.41005" lon="2.67453">
        <ele>143</ele>
        <time>2015-05-26T09:40:33.629Z</time>
      </trkpt>
      <trkpt lat="48.40997" lon="2.67458">
        <ele>137</ele>
        <time>2015-05-26T09:40:41.612Z</time>
      </trkpt>
      <trkpt lat="48.40996" lon="2.67459">
        <ele>136</ele>
        <time>2015-05-26T09:40:42.609Z</time>
      </trkpt>
      <trkpt lat="48.40991" lon="2.67469">
        <ele>135</ele>
        <time>2015-05-26T09:40:49.629Z</time>
      </trkpt>
      <trkpt lat="48.4099" lon="2.67471">
        <ele>135</ele>
        <time>2015-05-26T09:40:50.624Z</time>
      </trkpt>
      <trkpt lat="48.40989" lon="2.67483">
        <ele>139</ele>
        <time>2015-05-26T09:40:56.611Z</time>
      </trkpt>
      <trkpt lat="48.40988" lon="2.67485">
        <ele>141</ele>
        <time>2015-05-26T09:40:57.610Z</time>
      </trkpt>
      <trkpt lat="48.40985" lon="2.67496">
        <ele>138</ele>
        <time>2015-05-26T09:41:03.625Z</time>
      </trkpt>
      <trkpt lat="48.40985" lon="2.67497">
        <ele>139</ele>
        <time>2015-05-26T09:41:04.628Z</time>
      </trkpt>
      <trkpt lat="48.40982" lon="2.67509">
        <ele>138</ele>
        <time>2015-05-26T09:41:09.628Z</time>
      </trkpt>
      <trkpt lat="48.40981" lon="2.67511">
        <ele>138</ele>
        <time>2015-05-26T09:41:10.624Z</time>
      </trkpt>
      <trkpt lat="48.40976" lon="2.67521">
        <ele>140</ele>
        <time>2015-05-26T09:41:16.627Z</time>
      </trkpt>
      <trkpt lat="48.40975" lon="2.67522">
        <ele>140</ele>
        <time>2015-05-26T09:41:17.610Z</time>
      </trkpt>
      <trkpt lat="48.40969" lon="2.67532">
        <ele>139</ele>
        <time>2015-05-26T09:41:25.628Z</time>
      </trkpt>
      <trkpt lat="48.40968" lon="2.67534">
        <ele>139</ele>
        <time>2015-05-26T09:41:26.608Z</time>
      </trkpt>
      <trkpt lat="48.40962" lon="2.67543">
        <ele>138</ele>
        <time>2015-05-26T09:41:30.629Z</time>
      </trkpt>
      <trkpt lat="48.40961" lon="2.67547">
        <ele>139</ele>
        <time>2015-05-26T09:41:31.609Z</time>
      </trkpt>
      <trkpt lat="48.4096" lon="2.6756">
        <ele>140</ele>
        <time>2015-05-26T09:41:39.610Z</time>
      </trkpt>
      <trkpt lat="48.4096" lon="2.67561">
        <ele>141</ele>
        <time>2015-05-26T09:41:40.623Z</time>
      </trkpt>
      <trkpt lat="48.40955" lon="2.67571">
        <ele>138</ele>
        <time>2015-05-26T09:41:47.622Z</time>
      </trkpt>
      <trkpt lat="48.40954" lon="2.67572">
        <ele>137</ele>
        <time>2015-05-26T09:41:48.631Z</time>
      </trkpt>
      <trkpt lat="48.40948" lon="2.67581">
        <ele>133</ele>
        <time>2015-05-26T09:41:55.626Z</time>
      </trkpt>
      <trkpt lat="48.40947" lon="2.67584">
        <ele>134</ele>
        <time>2015-05-26T09:41:56.632Z</time>
      </trkpt>
      <trkpt lat="48.40942" lon="2.67593">
        <ele>131</ele>
        <time>2015-05-26T09:42:03.611Z</time>
      </trkpt>
      <trkpt lat="48.40941" lon="2.67595">
        <ele>133</ele>
        <time>2015-05-26T09:42:04.610Z</time>
      </trkpt>
      <trkpt lat="48.40938" lon="2.67606">
        <ele>132</ele>
        <time>2015-05-26T09:42:12.610Z</time>
      </trkpt>
      <trkpt lat="48.40938" lon="2.67608">
        <ele>132</ele>
        <time>2015-05-26T09:42:13.611Z</time>
      </trkpt>
      <trkpt lat="48.40935" lon="2.67619">
        <ele>132</ele>
        <time>2015-05-26T09:42:18.620Z</time>
      </trkpt>
      <trkpt lat="48.40934" lon="2.67622">
        <ele>133</ele>
        <time>2015-05-26T09:42:19.612Z</time>
      </trkpt>
      <trkpt lat="48.40931" lon="2.67632">
        <ele>134</ele>
        <time>2015-05-26T09:42:24.611Z</time>
      </trkpt>
      <trkpt lat="48.40931" lon="2.67634">
        <ele>134</ele>
        <time>2015-05-26T09:42:25.611Z</time>
      </trkpt>
      <trkpt lat="48.40927" lon="2.67645">
        <ele>135</ele>
        <time>2015-05-26T09:42:30.610Z</time>
      </trkpt>
      <trkpt lat="48.40927" lon="2.67648">
        <ele>134</ele>
        <time>2015-05-26T09:42:31.612Z</time>
      </trkpt>
      <trkpt lat="48.40922" lon="2.67659">
        <ele>130</ele>
        <time>2015-05-26T09:42:36.660Z</time>
      </trkpt>
      <trkpt lat="48.40921" lon="2.67661">
        <ele>130</ele>
        <time>2015-05-26T09:42:37.612Z</time>
      </trkpt>
      <trkpt lat="48.40916" lon="2.67672">
        <ele>130</ele>
        <time>2015-05-26T09:42:43.619Z</time>
      </trkpt>
      <trkpt lat="48.40916" lon="2.67673">
        <ele>130</ele>
        <time>2015-05-26T09:42:44.622Z</time>
      </trkpt>
      <trkpt lat="48.40912" lon="2.67685">
        <ele>130</ele>
        <time>2015-05-26T09:42:52.659Z</time>
      </trkpt>
      <trkpt lat="48.40912" lon="2.67687">
        <ele>130</ele>
        <time>2015-05-26T09:42:53.630Z</time>
      </trkpt>
      <trkpt lat="48.40909" lon="2.67698">
        <ele>131</ele>
        <time>2015-05-26T09:43:03.627Z</time>
      </trkpt>
      <trkpt lat="48.40909" lon="2.67699">
        <ele>130</ele>
        <time>2015-05-26T09:43:04.613Z</time>
      </trkpt>
      <trkpt lat="48.40908" lon="2.67712">
        <ele>128</ele>
        <time>2015-05-26T09:43:11.619Z</time>
      </trkpt>
      <trkpt lat="48.40907" lon="2.67714">
        <ele>128</ele>
        <time>2015-05-26T09:43:12.613Z</time>
      </trkpt>
      <trkpt lat="48.40903" lon="2.67726">
        <ele>129</ele>
        <time>2015-05-26T09:43:18.623Z</time>
      </trkpt>
      <trkpt lat="48.40903" lon="2.67728">
        <ele>128</ele>
        <time>2015-05-26T09:43:19.636Z</time>
      </trkpt>
      <trkpt lat="48.40899" lon="2.6774">
        <ele>131</ele>
        <time>2015-05-26T09:43:24.610Z</time>
      </trkpt>
      <trkpt lat="48.40898" lon="2.67741">
        <ele>127</ele>
        <time>2015-05-26T09:43:25.625Z</time>
      </trkpt>
      <trkpt lat="48.40894" lon="2.67751">
        <ele>130</ele>
        <time>2015-05-26T09:43:31.613Z</time>
      </trkpt>
      <trkpt lat="48.40893" lon="2.67753">
        <ele>130</ele>
        <time>2015-05-26T09:43:32.610Z</time>
      </trkpt>
      <trkpt lat="48.40888" lon="2.67764">
        <ele>133</ele>
        <time>2015-05-26T09:43:39.626Z</time>
      </trkpt>
      <trkpt lat="48.40887" lon="2.67765">
        <ele>134</ele>
        <time>2015-05-26T09:43:40.627Z</time>
      </trkpt>
      <trkpt lat="48.40883" lon="2.67775">
        <ele>131</ele>
        <time>2015-05-26T09:43:49.629Z</time>
      </trkpt>
      <trkpt lat="48.40882" lon="2.67777">
        <ele>130</ele>
        <time>2015-05-26T09:43:50.631Z</time>
      </trkpt>
      <trkpt lat="48.40879" lon="2.67787">
        <ele>136</ele>
        <time>2015-05-26T09:43:54.610Z</time>
      </trkpt>
      <trkpt lat="48.40879" lon="2.6779">
        <ele>136</ele>
        <time>2015-05-26T09:43:55.615Z</time>
      </trkpt>
      <trkpt lat="48.40875" lon="2.67802">
        <ele>134</ele>
        <time>2015-05-26T09:44:01.613Z</time>
      </trkpt>
      <trkpt lat="48.40874" lon="2.67804">
        <ele>133</ele>
        <time>2015-05-26T09:44:02.634Z</time>
      </trkpt>
      <trkpt lat="48.40871" lon="2.67815">
        <ele>128</ele>
        <time>2015-05-26T09:44:12.626Z</time>
      </trkpt>
      <trkpt lat="48.40871" lon="2.67817">
        <ele>128</ele>
        <time>2015-05-26T09:44:13.623Z</time>
      </trkpt>
      <trkpt lat="48.40865" lon="2.67826">
        <ele>127</ele>
        <time>2015-05-26T09:44:20.610Z</time>
      </trkpt>
      <trkpt lat="48.40865" lon="2.67827">
        <ele>128</ele>
        <time>2015-05-26T09:44:21.611Z</time>
      </trkpt>
      <trkpt lat="48.40861" lon="2.67837">
        <ele>130</ele>
        <time>2015-05-26T09:44:26.612Z</time>
      </trkpt>
      <trkpt lat="48.4086" lon="2.67839">
        <ele>129</ele>
        <time>2015-05-26T09:44:27.610Z</time>
      </trkpt>
      <trkpt lat="48.40856" lon="2.67849">
        <ele>126</ele>
        <time>2015-05-26T09:44:35.627Z</time>
      </trkpt>
      <trkpt lat="48.40855" lon="2.67851">
        <ele>127</ele>
        <time>2015-05-26T09:44:36.611Z</time>
      </trkpt>
      <trkpt lat="48.40851" lon="2.67862">
        <ele>128</ele>
        <time>2015-05-26T09:44:44.628Z</time>
      </trkpt>
      <trkpt lat="48.4085" lon="2.67863">
        <ele>127</ele>
        <time>2015-05-26T09:44:45.631Z</time>
      </trkpt>
      <trkpt lat="48.40845" lon="2.67873">
        <ele>125</ele>
        <time>2015-05-26T09:44:54.624Z</time>
      </trkpt>
      <trkpt lat="48.40844" lon="2.67874">
        <ele>126</ele>
        <time>2015-05-26T09:44:55.625Z</time>
      </trkpt>
      <trkpt lat="48.40839" lon="2.67884">
        <ele>126</ele>
        <time>2015-05-26T09:45:03.633Z</time>
      </trkpt>
      <trkpt lat="48.40839" lon="2.67886">
        <ele>125</ele>
        <time>2015-05-26T09:45:04.609Z</time>
      </trkpt>
      <trkpt lat="48.40844" lon="2.67896">
        <ele>129</ele>
        <time>2015-05-26T09:45:14.629Z</time>
      </trkpt>
      <trkpt lat="48.40844" lon="2.67897">
        <ele>129</ele>
        <time>2015-05-26T09:45:15.621Z</time>
      </trkpt>
      <trkpt lat="48.40836" lon="2.6789">
        <ele>128</ele>
        <time>2015-05-26T09:48:42.629Z</time>
      </trkpt>
      <trkpt lat="48.40836" lon="2.6789">
        <ele>128</ele>
        <time>2015-05-26T09:48:43.649Z</time>
      </trkpt>
      <trkpt lat="48.40832" lon="2.67901">
        <ele>127</ele>
        <time>2015-05-26T09:49:38.112Z</time>
      </trkpt>
      <trkpt lat="48.4083" lon="2.67901">
        <ele>127</ele>
        <time>2015-05-26T09:49:38.612Z</time>
      </trkpt>
      <trkpt lat="48.40824" lon="2.67909">
        <ele>128</ele>
        <time>2015-05-26T09:49:44.629Z</time>
      </trkpt>
      <trkpt lat="48.40823" lon="2.67909">
        <ele>128</ele>
        <time>2015-05-26T09:49:45.627Z</time>
      </trkpt>
      <trkpt lat="48.40814" lon="2.67907">
        <ele>127</ele>
        <time>2015-05-26T09:49:54.627Z</time>
      </trkpt>
      <trkpt lat="48.40813" lon="2.67906">
        <ele>127</ele>
        <time>2015-05-26T09:49:55.612Z</time>
      </trkpt>
      <trkpt lat="48.40813" lon="2.67908">
        <ele>127</ele>
        <time>2015-05-26T09:50:08.372Z</time>
      </trkpt>
    </trkseg>
  </trk>
</gpx>